<?xml version="1.0" encoding="utf-8"?>
<gpx xmlns:xsi="http://www.w3.org/2001/XMLSchema-instance" xmlns:xsd="http://www.w3.org/2001/XMLSchema" version="1.1" creator="Shapelink.com" xmlns="http://www.topografix.com/GPX/1/1" xmlns:gpxtpx="http://www.garmin.com/xmlschemas/TrackPointExtension/v1">
  <metadata>
    <name>Löpning 20.10 km, 2012-03-11</name>
    <desc></desc>
    <author><name>Dennis Rehn</name></author> 
    <time>2012-03-11T12:37:16Z</time>
  </metadata>
  <trk>
    <name>Löpning 20.10 km, 2012-03-11</name>
    <trkseg>
      <trkpt lat="59.9909565568" lon="23.4097189075">
        <ele>0</ele>
        <time>2012-03-11T12:37:16Z</time>
      </trkpt>
      <trkpt lat="59.9908026651" lon="23.4097805145">
        <ele>0</ele>
        <time>2012-03-11T12:37:22Z</time>
      </trkpt>
      <trkpt lat="59.9907213606" lon="23.4099079193">
        <ele>0</ele>
        <time>2012-03-11T12:37:27Z</time>
      </trkpt>
      <trkpt lat="59.9906155811" lon="23.4102371604">
        <ele>4.6</ele>
        <time>2012-03-11T12:37:45Z</time>
      </trkpt>
      <trkpt lat="59.9904957199" lon="23.4103025392">
        <ele>7.2</ele>
        <time>2012-03-11T12:37:50Z</time>
      </trkpt>
      <trkpt lat="59.9903672254" lon="23.4102971748">
        <ele>8.8</ele>
        <time>2012-03-11T12:37:55Z</time>
      </trkpt>
      <trkpt lat="59.9902761141" lon="23.4102423571">
        <ele>10.2</ele>
        <time>2012-03-11T12:37:59Z</time>
      </trkpt>
      <trkpt lat="59.9901680714" lon="23.4100282834">
        <ele>11.4</ele>
        <time>2012-03-11T12:38:05Z</time>
      </trkpt>
      <trkpt lat="59.990108057" lon="23.4097874714">
        <ele>12.2</ele>
        <time>2012-03-11T12:38:10Z</time>
      </trkpt>
      <trkpt lat="59.9900581847" lon="23.4095398701">
        <ele>12.6</ele>
        <time>2012-03-11T12:38:15Z</time>
      </trkpt>
      <trkpt lat="59.9899837534" lon="23.4091741678">
        <ele>13</ele>
        <time>2012-03-11T12:38:23Z</time>
      </trkpt>
      <trkpt lat="59.989654261" lon="23.4083549209">
        <ele>13.2</ele>
        <time>2012-03-11T12:38:43Z</time>
      </trkpt>
      <trkpt lat="59.9895551031" lon="23.4082079024">
        <ele>13.2</ele>
        <time>2012-03-11T12:38:48Z</time>
      </trkpt>
      <trkpt lat="59.9894491559" lon="23.4081045535">
        <ele>13.4</ele>
        <time>2012-03-11T12:38:53Z</time>
      </trkpt>
      <trkpt lat="59.9893183144" lon="23.4080017076">
        <ele>13.4</ele>
        <time>2012-03-11T12:38:58Z</time>
      </trkpt>
      <trkpt lat="59.9891995429" lon="23.4079120213">
        <ele>13.4</ele>
        <time>2012-03-11T12:39:03Z</time>
      </trkpt>
      <trkpt lat="59.9890641752" lon="23.4077522623">
        <ele>13.4</ele>
        <time>2012-03-11T12:39:09Z</time>
      </trkpt>
      <trkpt lat="59.9889278855" lon="23.4075016435">
        <ele>13.4</ele>
        <time>2012-03-11T12:39:16Z</time>
      </trkpt>
      <trkpt lat="59.9887156558" lon="23.4070066085">
        <ele>13.4</ele>
        <time>2012-03-11T12:39:29Z</time>
      </trkpt>
      <trkpt lat="59.9886047633" lon="23.4068639485">
        <ele>13.4</ele>
        <time>2012-03-11T12:39:34Z</time>
      </trkpt>
      <trkpt lat="59.9884694794" lon="23.4066809717">
        <ele>13.4</ele>
        <time>2012-03-11T12:39:40Z</time>
      </trkpt>
      <trkpt lat="59.9883130731" lon="23.4065142557">
        <ele>13.4</ele>
        <time>2012-03-11T12:39:46Z</time>
      </trkpt>
      <trkpt lat="59.9881697426" lon="23.4063911256">
        <ele>13.4</ele>
        <time>2012-03-11T12:39:52Z</time>
      </trkpt>
      <trkpt lat="59.9880454391" lon="23.4063688297">
        <ele>13.4</ele>
        <time>2012-03-11T12:39:57Z</time>
      </trkpt>
      <trkpt lat="59.9878930561" lon="23.4064318616">
        <ele>13.4</ele>
        <time>2012-03-11T12:40:04Z</time>
      </trkpt>
      <trkpt lat="59.9877980892" lon="23.4065328635">
        <ele>13.8</ele>
        <time>2012-03-11T12:40:09Z</time>
      </trkpt>
      <trkpt lat="59.9876845145" lon="23.4066864199">
        <ele>14.6</ele>
        <time>2012-03-11T12:40:15Z</time>
      </trkpt>
      <trkpt lat="59.9875153677" lon="23.4069043493">
        <ele>16.2</ele>
        <time>2012-03-11T12:40:23Z</time>
      </trkpt>
      <trkpt lat="59.9873965962" lon="23.4070530442">
        <ele>16.8</ele>
        <time>2012-03-11T12:40:28Z</time>
      </trkpt>
      <trkpt lat="59.9872613961" lon="23.4072055948">
        <ele>17.2</ele>
        <time>2012-03-11T12:40:34Z</time>
      </trkpt>
      <trkpt lat="59.9871057443" lon="23.4073312395">
        <ele>18.4</ele>
        <time>2012-03-11T12:40:41Z</time>
      </trkpt>
      <trkpt lat="59.9869527746" lon="23.407406006">
        <ele>19</ele>
        <time>2012-03-11T12:40:47Z</time>
      </trkpt>
      <trkpt lat="59.9868013975" lon="23.4074479155">
        <ele>19.2</ele>
        <time>2012-03-11T12:40:53Z</time>
      </trkpt>
      <trkpt lat="59.9866497689" lon="23.4074512683">
        <ele>19.4</ele>
        <time>2012-03-11T12:40:59Z</time>
      </trkpt>
      <trkpt lat="59.986498308" lon="23.4074591472">
        <ele>20.4</ele>
        <time>2012-03-11T12:41:05Z</time>
      </trkpt>
      <trkpt lat="59.9863160016" lon="23.4074827842">
        <ele>21</ele>
        <time>2012-03-11T12:41:12Z</time>
      </trkpt>
      <trkpt lat="59.9861839867" lon="23.4075115341">
        <ele>21.4</ele>
        <time>2012-03-11T12:41:18Z</time>
      </trkpt>
      <trkpt lat="59.9860177736" lon="23.407507427">
        <ele>22.6</ele>
        <time>2012-03-11T12:41:24Z</time>
      </trkpt>
      <trkpt lat="59.9858519797" lon="23.4074158966">
        <ele>23.2</ele>
        <time>2012-03-11T12:41:30Z</time>
      </trkpt>
      <trkpt lat="59.9857079786" lon="23.4072803613">
        <ele>23.4</ele>
        <time>2012-03-11T12:41:36Z</time>
      </trkpt>
      <trkpt lat="59.9855799032" lon="23.4071993083">
        <ele>23.6</ele>
        <time>2012-03-11T12:41:41Z</time>
      </trkpt>
      <trkpt lat="59.9854523307" lon="23.4071337619">
        <ele>23.6</ele>
        <time>2012-03-11T12:41:46Z</time>
      </trkpt>
      <trkpt lat="59.9853255125" lon="23.4070874938">
        <ele>23.8</ele>
        <time>2012-03-11T12:41:51Z</time>
      </trkpt>
      <trkpt lat="59.9851991135" lon="23.4070498591">
        <ele>23.8</ele>
        <time>2012-03-11T12:41:56Z</time>
      </trkpt>
      <trkpt lat="59.9850786656" lon="23.4069548083">
        <ele>23.8</ele>
        <time>2012-03-11T12:42:01Z</time>
      </trkpt>
      <trkpt lat="59.9850115265" lon="23.4067305087">
        <ele>23.8</ele>
        <time>2012-03-11T12:42:06Z</time>
      </trkpt>
      <trkpt lat="59.9850009654" lon="23.4065694924">
        <ele>23.8</ele>
        <time>2012-03-11T12:42:09Z</time>
      </trkpt>
      <trkpt lat="59.9850190703" lon="23.4062813227">
        <ele>23.8</ele>
        <time>2012-03-11T12:42:15Z</time>
      </trkpt>
      <trkpt lat="59.9850229259" lon="23.4062368148">
        <ele>23.8</ele>
        <time>2012-03-11T12:42:16Z</time>
      </trkpt>
      <trkpt lat="59.9850466467" lon="23.405988962">
        <ele>23.8</ele>
        <time>2012-03-11T12:42:21Z</time>
      </trkpt>
      <trkpt lat="59.9850778274" lon="23.4057049832">
        <ele>23.8</ele>
        <time>2012-03-11T12:42:27Z</time>
      </trkpt>
      <trkpt lat="59.9850828565" lon="23.4056556976">
        <ele>23.8</ele>
        <time>2012-03-11T12:42:28Z</time>
      </trkpt>
      <trkpt lat="59.9850790847" lon="23.4053560447">
        <ele>23.8</ele>
        <time>2012-03-11T12:42:34Z</time>
      </trkpt>
      <trkpt lat="59.9850857902" lon="23.4051599921">
        <ele>23.8</ele>
        <time>2012-03-11T12:42:38Z</time>
      </trkpt>
      <trkpt lat="59.9850829403" lon="23.4050554698">
        <ele>23.8</ele>
        <time>2012-03-11T12:42:40Z</time>
      </trkpt>
      <trkpt lat="59.985058549" lon="23.4048035937">
        <ele>24.2</ele>
        <time>2012-03-11T12:42:45Z</time>
      </trkpt>
      <trkpt lat="59.9850355826" lon="23.4045624464">
        <ele>25</ele>
        <time>2012-03-11T12:42:50Z</time>
      </trkpt>
      <trkpt lat="59.9850059945" lon="23.4042626259">
        <ele>25.4</ele>
        <time>2012-03-11T12:42:56Z</time>
      </trkpt>
      <trkpt lat="59.9849831119" lon="23.4040090734">
        <ele>26</ele>
        <time>2012-03-11T12:43:01Z</time>
      </trkpt>
      <trkpt lat="59.9849458963" lon="23.4036997813">
        <ele>27</ele>
        <time>2012-03-11T12:43:07Z</time>
      </trkpt>
      <trkpt lat="59.9849206667" lon="23.4034543592">
        <ele>27.4</ele>
        <time>2012-03-11T12:43:12Z</time>
      </trkpt>
      <trkpt lat="59.9848621611" lon="23.4030990505">
        <ele>27.8</ele>
        <time>2012-03-11T12:43:19Z</time>
      </trkpt>
      <trkpt lat="59.984820503" lon="23.4027971345">
        <ele>28</ele>
        <time>2012-03-11T12:43:25Z</time>
      </trkpt>
      <trkpt lat="59.9847994645" lon="23.402641734">
        <ele>28</ele>
        <time>2012-03-11T12:43:28Z</time>
      </trkpt>
      <trkpt lat="59.9847644281" lon="23.4022865929">
        <ele>29</ele>
        <time>2012-03-11T12:43:35Z</time>
      </trkpt>
      <trkpt lat="59.9846791842" lon="23.4016677573">
        <ele>29.8</ele>
        <time>2012-03-11T12:43:47Z</time>
      </trkpt>
      <trkpt lat="59.9846409627" lon="23.401366428">
        <ele>30</ele>
        <time>2012-03-11T12:43:53Z</time>
      </trkpt>
      <trkpt lat="59.9845992209" lon="23.4011039907">
        <ele>30</ele>
        <time>2012-03-11T12:43:58Z</time>
      </trkpt>
      <trkpt lat="59.9845645198" lon="23.4008882406">
        <ele>30.2</ele>
        <time>2012-03-11T12:44:02Z</time>
      </trkpt>
      <trkpt lat="59.9845270527" lon="23.4005722429">
        <ele>30.2</ele>
        <time>2012-03-11T12:44:08Z</time>
      </trkpt>
      <trkpt lat="59.9844831316" lon="23.4002694049">
        <ele>30.2</ele>
        <time>2012-03-11T12:44:14Z</time>
      </trkpt>
      <trkpt lat="59.9844077783" lon="23.3999130903">
        <ele>30.2</ele>
        <time>2012-03-11T12:44:21Z</time>
      </trkpt>
      <trkpt lat="59.9843365321" lon="23.3995647386">
        <ele>30.2</ele>
        <time>2012-03-11T12:44:28Z</time>
      </trkpt>
      <trkpt lat="59.9842520426" lon="23.3992259422">
        <ele>30.2</ele>
        <time>2012-03-11T12:44:35Z</time>
      </trkpt>
      <trkpt lat="59.9841030124" lon="23.3986143987">
        <ele>29.8</ele>
        <time>2012-03-11T12:44:48Z</time>
      </trkpt>
      <trkpt lat="59.9840335265" lon="23.3983288274">
        <ele>29</ele>
        <time>2012-03-11T12:44:54Z</time>
      </trkpt>
      <trkpt lat="59.9839750208" lon="23.3980870934">
        <ele>28.6</ele>
        <time>2012-03-11T12:44:59Z</time>
      </trkpt>
      <trkpt lat="59.9839092229" lon="23.3977874405">
        <ele>28.4</ele>
        <time>2012-03-11T12:45:05Z</time>
      </trkpt>
      <trkpt lat="59.9838221349" lon="23.3975085747">
        <ele>28.2</ele>
        <time>2012-03-11T12:45:11Z</time>
      </trkpt>
      <trkpt lat="59.9837029443" lon="23.3972130289">
        <ele>28.2</ele>
        <time>2012-03-11T12:45:18Z</time>
      </trkpt>
      <trkpt lat="59.983572019" lon="23.3969417068">
        <ele>28.2</ele>
        <time>2012-03-11T12:45:25Z</time>
      </trkpt>
      <trkpt lat="59.9834125953" lon="23.3966902498">
        <ele>28.2</ele>
        <time>2012-03-11T12:45:32Z</time>
      </trkpt>
      <trkpt lat="59.9832503217" lon="23.3964735777">
        <ele>28.2</ele>
        <time>2012-03-11T12:45:39Z</time>
      </trkpt>
      <trkpt lat="59.9831046443" lon="23.3962950432">
        <ele>28.2</ele>
        <time>2012-03-11T12:45:45Z</time>
      </trkpt>
      <trkpt lat="59.9829316419" lon="23.3961421573">
        <ele>28.2</ele>
        <time>2012-03-11T12:45:52Z</time>
      </trkpt>
      <trkpt lat="59.9827845395" lon="23.3960069573">
        <ele>27.4</ele>
        <time>2012-03-11T12:45:58Z</time>
      </trkpt>
      <trkpt lat="59.9826106989" lon="23.3958409957">
        <ele>26.8</ele>
        <time>2012-03-11T12:46:05Z</time>
      </trkpt>
      <trkpt lat="59.9824625069" lon="23.3956893671">
        <ele>26</ele>
        <time>2012-03-11T12:46:11Z</time>
      </trkpt>
      <trkpt lat="59.9823001495" lon="23.3955774687">
        <ele>25.2</ele>
        <time>2012-03-11T12:46:17Z</time>
      </trkpt>
      <trkpt lat="59.9821526281" lon="23.3954476331">
        <ele>24.6</ele>
        <time>2012-03-11T12:46:23Z</time>
      </trkpt>
      <trkpt lat="59.9819742613" lon="23.3953148638">
        <ele>24</ele>
        <time>2012-03-11T12:46:30Z</time>
      </trkpt>
      <trkpt lat="59.981794721" lon="23.395201792">
        <ele>23</ele>
        <time>2012-03-11T12:46:37Z</time>
      </trkpt>
      <trkpt lat="59.9816357163" lon="23.3951297076">
        <ele>22.4</ele>
        <time>2012-03-11T12:46:43Z</time>
      </trkpt>
      <trkpt lat="59.9814758735" lon="23.3950685198">
        <ele>22.2</ele>
        <time>2012-03-11T12:46:49Z</time>
      </trkpt>
      <trkpt lat="59.981316785" lon="23.3950209106">
        <ele>22</ele>
        <time>2012-03-11T12:46:55Z</time>
      </trkpt>
      <trkpt lat="59.9811515778" lon="23.3949684399">
        <ele>22</ele>
        <time>2012-03-11T12:47:01Z</time>
      </trkpt>
      <trkpt lat="59.9809784077" lon="23.3949229262">
        <ele>22</ele>
        <time>2012-03-11T12:47:07Z</time>
      </trkpt>
      <trkpt lat="59.9808273659" lon="23.3948800946">
        <ele>22</ele>
        <time>2012-03-11T12:47:13Z</time>
      </trkpt>
      <trkpt lat="59.9806876396" lon="23.3948393586">
        <ele>22</ele>
        <time>2012-03-11T12:47:18Z</time>
      </trkpt>
      <trkpt lat="59.9805330774" lon="23.3947892348">
        <ele>22</ele>
        <time>2012-03-11T12:47:24Z</time>
      </trkpt>
      <trkpt lat="59.9803921776" lon="23.3947446431">
        <ele>22</ele>
        <time>2012-03-11T12:47:29Z</time>
      </trkpt>
      <trkpt lat="59.9802024952" lon="23.3946516879">
        <ele>22</ele>
        <time>2012-03-11T12:47:36Z</time>
      </trkpt>
      <trkpt lat="59.9800394673" lon="23.394576586">
        <ele>22</ele>
        <time>2012-03-11T12:47:42Z</time>
      </trkpt>
      <trkpt lat="59.9798516289" lon="23.394484469">
        <ele>21.4</ele>
        <time>2012-03-11T12:47:49Z</time>
      </trkpt>
      <trkpt lat="59.9796918699" lon="23.3943905079">
        <ele>20.6</ele>
        <time>2012-03-11T12:47:55Z</time>
      </trkpt>
      <trkpt lat="59.9795623695" lon="23.3943217763">
        <ele>20.4</ele>
        <time>2012-03-11T12:48:00Z</time>
      </trkpt>
      <trkpt lat="59.9794260798" lon="23.3942383764">
        <ele>19.6</ele>
        <time>2012-03-11T12:48:05Z</time>
      </trkpt>
      <trkpt lat="59.9792934782" lon="23.394157491">
        <ele>18.8</ele>
        <time>2012-03-11T12:48:10Z</time>
      </trkpt>
      <trkpt lat="59.9791309531" lon="23.3940684753">
        <ele>18.4</ele>
        <time>2012-03-11T12:48:16Z</time>
      </trkpt>
      <trkpt lat="59.9790179651" lon="23.3940167589">
        <ele>17.8</ele>
        <time>2012-03-11T12:48:20Z</time>
      </trkpt>
      <trkpt lat="59.9788328928" lon="23.3939381367">
        <ele>16.6</ele>
        <time>2012-03-11T12:48:27Z</time>
      </trkpt>
      <trkpt lat="59.9786395223" lon="23.3939013402">
        <ele>16.2</ele>
        <time>2012-03-11T12:48:34Z</time>
      </trkpt>
      <trkpt lat="59.9785785021" lon="23.3938980712">
        <ele>16</ele>
        <time>2012-03-11T12:48:36Z</time>
      </trkpt>
      <trkpt lat="59.9784362613" lon="23.3938676449">
        <ele>16</ele>
        <time>2012-03-11T12:48:41Z</time>
      </trkpt>
      <trkpt lat="59.9782975408" lon="23.3938321895">
        <ele>15.8</ele>
        <time>2012-03-11T12:48:46Z</time>
      </trkpt>
      <trkpt lat="59.9781624246" lon="23.3937976561">
        <ele>15.8</ele>
        <time>2012-03-11T12:48:51Z</time>
      </trkpt>
      <trkpt lat="59.9779963792" lon="23.3937869272">
        <ele>15.8</ele>
        <time>2012-03-11T12:48:57Z</time>
      </trkpt>
      <trkpt lat="59.977878362" lon="23.3938091393">
        <ele>15.8</ele>
        <time>2012-03-11T12:49:02Z</time>
      </trkpt>
      <trkpt lat="59.977769062" lon="23.3939072913">
        <ele>15.8</ele>
        <time>2012-03-11T12:49:07Z</time>
      </trkpt>
      <trkpt lat="59.9777315111" lon="23.3940199441">
        <ele>15.8</ele>
        <time>2012-03-11T12:49:10Z</time>
      </trkpt>
      <trkpt lat="59.9777818863" lon="23.3942943675">
        <ele>15.8</ele>
        <time>2012-03-11T12:49:16Z</time>
      </trkpt>
      <trkpt lat="59.9778559823" lon="23.3946121253">
        <ele>15.8</ele>
        <time>2012-03-11T12:49:22Z</time>
      </trkpt>
      <trkpt lat="59.9779289049" lon="23.3949189867">
        <ele>15.8</ele>
        <time>2012-03-11T12:49:28Z</time>
      </trkpt>
      <trkpt lat="59.9779749215" lon="23.3952411869">
        <ele>16.6</ele>
        <time>2012-03-11T12:49:34Z</time>
      </trkpt>
      <trkpt lat="59.978021441" lon="23.395540756">
        <ele>17</ele>
        <time>2012-03-11T12:49:40Z</time>
      </trkpt>
      <trkpt lat="59.9780433178" lon="23.3957997567">
        <ele>17.4</ele>
        <time>2012-03-11T12:49:45Z</time>
      </trkpt>
      <trkpt lat="59.9780527055" lon="23.3960638704">
        <ele>17.4</ele>
        <time>2012-03-11T12:49:50Z</time>
      </trkpt>
      <trkpt lat="59.978054801" lon="23.3961176822">
        <ele>17.6</ele>
        <time>2012-03-11T12:49:51Z</time>
      </trkpt>
      <trkpt lat="59.9780473411" lon="23.3963667922">
        <ele>17</ele>
        <time>2012-03-11T12:49:56Z</time>
      </trkpt>
      <trkpt lat="59.9780525379" lon="23.3966387011">
        <ele>16.4</ele>
        <time>2012-03-11T12:50:01Z</time>
      </trkpt>
      <trkpt lat="59.9780524541" lon="23.3968848775">
        <ele>16.2</ele>
        <time>2012-03-11T12:50:06Z</time>
      </trkpt>
      <trkpt lat="59.9780388754" lon="23.397084702">
        <ele>16</ele>
        <time>2012-03-11T12:50:10Z</time>
      </trkpt>
      <trkpt lat="59.9780185912" lon="23.3973659985">
        <ele>15.8</ele>
        <time>2012-03-11T12:50:15Z</time>
      </trkpt>
      <trkpt lat="59.9779864885" lon="23.3976782243">
        <ele>15.8</ele>
        <time>2012-03-11T12:50:21Z</time>
      </trkpt>
      <trkpt lat="59.9779444114" lon="23.3980436752">
        <ele>14.6</ele>
        <time>2012-03-11T12:50:28Z</time>
      </trkpt>
      <trkpt lat="59.9779257197" lon="23.3984181785">
        <ele>14</ele>
        <time>2012-03-11T12:50:35Z</time>
      </trkpt>
      <trkpt lat="59.9779748377" lon="23.3987215194">
        <ele>13.8</ele>
        <time>2012-03-11T12:50:41Z</time>
      </trkpt>
      <trkpt lat="59.9780019112" lon="23.3989695398">
        <ele>13.8</ele>
        <time>2012-03-11T12:50:46Z</time>
      </trkpt>
      <trkpt lat="59.9781203475" lon="23.3991719627">
        <ele>13.6</ele>
        <time>2012-03-11T12:50:52Z</time>
      </trkpt>
      <trkpt lat="59.9782469142" lon="23.3992962663">
        <ele>13.6</ele>
        <time>2012-03-11T12:50:57Z</time>
      </trkpt>
      <trkpt lat="59.9783827009" lon="23.3994080808">
        <ele>13</ele>
        <time>2012-03-11T12:51:02Z</time>
      </trkpt>
      <trkpt lat="59.9784918333" lon="23.3995030478">
        <ele>12.4</ele>
        <time>2012-03-11T12:51:07Z</time>
      </trkpt>
      <trkpt lat="59.9786093475" lon="23.3996035468">
        <ele>12</ele>
        <time>2012-03-11T12:51:12Z</time>
      </trkpt>
      <trkpt lat="59.9787515884" lon="23.399742351">
        <ele>11.8</ele>
        <time>2012-03-11T12:51:18Z</time>
      </trkpt>
      <trkpt lat="59.9788840224" lon="23.399830361">
        <ele>11.6</ele>
        <time>2012-03-11T12:51:23Z</time>
      </trkpt>
      <trkpt lat="59.9790115111" lon="23.3999477076">
        <ele>11.6</ele>
        <time>2012-03-11T12:51:28Z</time>
      </trkpt>
      <trkpt lat="59.9791819989" lon="23.4001107355">
        <ele>11.6</ele>
        <time>2012-03-11T12:51:35Z</time>
      </trkpt>
      <trkpt lat="59.979357935" lon="23.4002669741">
        <ele>11.6</ele>
        <time>2012-03-11T12:51:42Z</time>
      </trkpt>
      <trkpt lat="59.9794803107" lon="23.4003842369">
        <ele>11.6</ele>
        <time>2012-03-11T12:51:47Z</time>
      </trkpt>
      <trkpt lat="59.9796625332" lon="23.4005507015">
        <ele>11.6</ele>
        <time>2012-03-11T12:51:54Z</time>
      </trkpt>
      <trkpt lat="59.9798087136" lon="23.4006883322">
        <ele>11.6</ele>
        <time>2012-03-11T12:52:00Z</time>
      </trkpt>
      <trkpt lat="59.9799657904" lon="23.4008133902">
        <ele>11.6</ele>
        <time>2012-03-11T12:52:06Z</time>
      </trkpt>
      <trkpt lat="59.9800824664" lon="23.4009336705">
        <ele>11.6</ele>
        <time>2012-03-11T12:52:11Z</time>
      </trkpt>
      <trkpt lat="59.9801980528" lon="23.4010573035">
        <ele>11.6</ele>
        <time>2012-03-11T12:52:16Z</time>
      </trkpt>
      <trkpt lat="59.9803389526" lon="23.4011874744">
        <ele>11.6</ele>
        <time>2012-03-11T12:52:22Z</time>
      </trkpt>
      <trkpt lat="59.9803869809" lon="23.401245561">
        <ele>11.6</ele>
        <time>2012-03-11T12:52:24Z</time>
      </trkpt>
      <trkpt lat="59.9805171518" lon="23.4013903164">
        <ele>11.6</ele>
        <time>2012-03-11T12:52:29Z</time>
      </trkpt>
      <trkpt lat="59.980661991" lon="23.4015445433">
        <ele>11.6</ele>
        <time>2012-03-11T12:52:35Z</time>
      </trkpt>
      <trkpt lat="59.9808265277" lon="23.4017339743">
        <ele>11.6</ele>
        <time>2012-03-11T12:52:42Z</time>
      </trkpt>
      <trkpt lat="59.9809534297" lon="23.4018712698">
        <ele>11.6</ele>
        <time>2012-03-11T12:52:47Z</time>
      </trkpt>
      <trkpt lat="59.9810472231" lon="23.4019945675">
        <ele>11.6</ele>
        <time>2012-03-11T12:52:51Z</time>
      </trkpt>
      <trkpt lat="59.9811668328" lon="23.4021491298">
        <ele>11.6</ele>
        <time>2012-03-11T12:52:56Z</time>
      </trkpt>
      <trkpt lat="59.9812847662" lon="23.4022913706">
        <ele>11.6</ele>
        <time>2012-03-11T12:53:01Z</time>
      </trkpt>
      <trkpt lat="59.9814047112" lon="23.402444005">
        <ele>11.6</ele>
        <time>2012-03-11T12:53:06Z</time>
      </trkpt>
      <trkpt lat="59.9815465329" lon="23.4026419855">
        <ele>11.6</ele>
        <time>2012-03-11T12:53:12Z</time>
      </trkpt>
      <trkpt lat="59.9816813977" lon="23.402836697">
        <ele>11.6</ele>
        <time>2012-03-11T12:53:18Z</time>
      </trkpt>
      <trkpt lat="59.9818604351" lon="23.4031051693">
        <ele>11.6</ele>
        <time>2012-03-11T12:53:26Z</time>
      </trkpt>
      <trkpt lat="59.9819975629" lon="23.4033152197">
        <ele>11.6</ele>
        <time>2012-03-11T12:53:32Z</time>
      </trkpt>
      <trkpt lat="59.9821204416" lon="23.4035244319">
        <ele>11.6</ele>
        <time>2012-03-11T12:53:38Z</time>
      </trkpt>
      <trkpt lat="59.9822236228" lon="23.4036983564">
        <ele>11.6</ele>
        <time>2012-03-11T12:53:43Z</time>
      </trkpt>
      <trkpt lat="59.9823539613" lon="23.4039100832">
        <ele>11.6</ele>
        <time>2012-03-11T12:53:49Z</time>
      </trkpt>
      <trkpt lat="59.9824169932" lon="23.4040129291">
        <ele>11.6</ele>
        <time>2012-03-11T12:53:52Z</time>
      </trkpt>
      <trkpt lat="59.9825420512" lon="23.4042230633">
        <ele>11.6</ele>
        <time>2012-03-11T12:53:58Z</time>
      </trkpt>
      <trkpt lat="59.9826416281" lon="23.404423726">
        <ele>11.6</ele>
        <time>2012-03-11T12:54:03Z</time>
      </trkpt>
      <trkpt lat="59.9827012234" lon="23.4045477781">
        <ele>11.6</ele>
        <time>2012-03-11T12:54:06Z</time>
      </trkpt>
      <trkpt lat="59.9827583042" lon="23.4046609338">
        <ele>11.6</ele>
        <time>2012-03-11T12:54:09Z</time>
      </trkpt>
      <trkpt lat="59.9828846194" lon="23.4049367821">
        <ele>11.6</ele>
        <time>2012-03-11T12:54:16Z</time>
      </trkpt>
      <trkpt lat="59.982981598" lon="23.4051522807">
        <ele>11.6</ele>
        <time>2012-03-11T12:54:21Z</time>
      </trkpt>
      <trkpt lat="59.9831123556" lon="23.4054433841">
        <ele>11.6</ele>
        <time>2012-03-11T12:54:28Z</time>
      </trkpt>
      <trkpt lat="59.983228445" lon="23.4057085874">
        <ele>11.6</ele>
        <time>2012-03-11T12:54:34Z</time>
      </trkpt>
      <trkpt lat="59.9834385792" lon="23.4062197995">
        <ele>11.6</ele>
        <time>2012-03-11T12:54:46Z</time>
      </trkpt>
      <trkpt lat="59.9835426824" lon="23.4064912054">
        <ele>11.6</ele>
        <time>2012-03-11T12:54:52Z</time>
      </trkpt>
      <trkpt lat="59.9836455283" lon="23.4067601806">
        <ele>11.6</ele>
        <time>2012-03-11T12:54:58Z</time>
      </trkpt>
      <trkpt lat="59.9837532357" lon="23.407040639">
        <ele>11.6</ele>
        <time>2012-03-11T12:55:04Z</time>
      </trkpt>
      <trkpt lat="59.9838362165" lon="23.4072749131">
        <ele>11.6</ele>
        <time>2012-03-11T12:55:09Z</time>
      </trkpt>
      <trkpt lat="59.9839135815" lon="23.4075024817">
        <ele>11.6</ele>
        <time>2012-03-11T12:55:14Z</time>
      </trkpt>
      <trkpt lat="59.9839893538" lon="23.4077525137">
        <ele>11.6</ele>
        <time>2012-03-11T12:55:19Z</time>
      </trkpt>
      <trkpt lat="59.9840595103" lon="23.4079966785">
        <ele>11.6</ele>
        <time>2012-03-11T12:55:24Z</time>
      </trkpt>
      <trkpt lat="59.9841216202" lon="23.4082492251">
        <ele>11.6</ele>
        <time>2012-03-11T12:55:29Z</time>
      </trkpt>
      <trkpt lat="59.9841848197" lon="23.4085042864">
        <ele>11.6</ele>
        <time>2012-03-11T12:55:34Z</time>
      </trkpt>
      <trkpt lat="59.984242571" lon="23.4088138299">
        <ele>11.6</ele>
        <time>2012-03-11T12:55:40Z</time>
      </trkpt>
      <trkpt lat="59.9843009929" lon="23.4091602539">
        <ele>11.6</ele>
        <time>2012-03-11T12:55:46Z</time>
      </trkpt>
      <trkpt lat="59.9843553914" lon="23.4093746629">
        <ele>11.6</ele>
        <time>2012-03-11T12:55:49Z</time>
      </trkpt>
      <trkpt lat="59.9843947025" lon="23.4096218451">
        <ele>11.6</ele>
        <time>2012-03-11T12:55:55Z</time>
      </trkpt>
      <trkpt lat="59.9844396295" lon="23.4098788341">
        <ele>11.6</ele>
        <time>2012-03-11T12:56:00Z</time>
      </trkpt>
      <trkpt lat="59.9844876578" lon="23.4101921496">
        <ele>11.6</ele>
        <time>2012-03-11T12:56:06Z</time>
      </trkpt>
      <trkpt lat="59.9845090316" lon="23.4104864381">
        <ele>11.6</ele>
        <time>2012-03-11T12:56:11Z</time>
      </trkpt>
      <trkpt lat="59.9845347641" lon="23.4107575087">
        <ele>11.6</ele>
        <time>2012-03-11T12:56:16Z</time>
      </trkpt>
      <trkpt lat="59.9845614185" lon="23.4111377117">
        <ele>11.6</ele>
        <time>2012-03-11T12:56:23Z</time>
      </trkpt>
      <trkpt lat="59.9845824571" lon="23.4114600796">
        <ele>11.6</ele>
        <time>2012-03-11T12:56:29Z</time>
      </trkpt>
      <trkpt lat="59.9845893302" lon="23.4117240256">
        <ele>11.2</ele>
        <time>2012-03-11T12:56:34Z</time>
      </trkpt>
      <trkpt lat="59.9846063455" lon="23.4120007121">
        <ele>10.4</ele>
        <time>2012-03-11T12:56:39Z</time>
      </trkpt>
      <trkpt lat="59.9846094468" lon="23.4122886304">
        <ele>10</ele>
        <time>2012-03-11T12:56:44Z</time>
      </trkpt>
      <trkpt lat="59.9846245342" lon="23.4125538337">
        <ele>9.8</ele>
        <time>2012-03-11T12:56:49Z</time>
      </trkpt>
      <trkpt lat="59.9846341734" lon="23.4129314383">
        <ele>9.6</ele>
        <time>2012-03-11T12:56:56Z</time>
      </trkpt>
      <trkpt lat="59.9846516078" lon="23.4133016668">
        <ele>9.4</ele>
        <time>2012-03-11T12:57:03Z</time>
      </trkpt>
      <trkpt lat="59.9846727301" lon="23.4136346797">
        <ele>8.4</ele>
        <time>2012-03-11T12:57:09Z</time>
      </trkpt>
      <trkpt lat="59.9846844648" lon="23.4139858813">
        <ele>8</ele>
        <time>2012-03-11T12:57:15Z</time>
      </trkpt>
      <trkpt lat="59.9846906674" lon="23.4143334787">
        <ele>7.8</ele>
        <time>2012-03-11T12:57:21Z</time>
      </trkpt>
      <trkpt lat="59.9847043299" lon="23.4147370672">
        <ele>7.6</ele>
        <time>2012-03-11T12:57:28Z</time>
      </trkpt>
      <trkpt lat="59.9847275478" lon="23.4150096466">
        <ele>7.6</ele>
        <time>2012-03-11T12:57:33Z</time>
      </trkpt>
      <trkpt lat="59.9847767495" lon="23.4153400611">
        <ele>7.6</ele>
        <time>2012-03-11T12:57:39Z</time>
      </trkpt>
      <trkpt lat="59.9848121211" lon="23.4156672905">
        <ele>7.4</ele>
        <time>2012-03-11T12:57:45Z</time>
      </trkpt>
      <trkpt lat="59.9848202516" lon="23.4160053325">
        <ele>7.4</ele>
        <time>2012-03-11T12:57:51Z</time>
      </trkpt>
      <trkpt lat="59.9848278791" lon="23.416306578">
        <ele>7.4</ele>
        <time>2012-03-11T12:57:56Z</time>
      </trkpt>
      <trkpt lat="59.9848216765" lon="23.4166356514">
        <ele>7</ele>
        <time>2012-03-11T12:58:02Z</time>
      </trkpt>
      <trkpt lat="59.9848132946" lon="23.4170338754">
        <ele>6.2</ele>
        <time>2012-03-11T12:58:09Z</time>
      </trkpt>
      <trkpt lat="59.9848050803" lon="23.4174220412">
        <ele>5.8</ele>
        <time>2012-03-11T12:58:16Z</time>
      </trkpt>
      <trkpt lat="59.9848040745" lon="23.4176927766">
        <ele>5.6</ele>
        <time>2012-03-11T12:58:21Z</time>
      </trkpt>
      <trkpt lat="59.9847953573" lon="23.4180784278">
        <ele>5.6</ele>
        <time>2012-03-11T12:58:28Z</time>
      </trkpt>
      <trkpt lat="59.9847908311" lon="23.4182902384">
        <ele>5.6</ele>
        <time>2012-03-11T12:58:32Z</time>
      </trkpt>
      <trkpt lat="59.9847887356" lon="23.4186855288">
        <ele>5.4</ele>
        <time>2012-03-11T12:58:39Z</time>
      </trkpt>
      <trkpt lat="59.9847891547" lon="23.4190039572">
        <ele>5.4</ele>
        <time>2012-03-11T12:58:45Z</time>
      </trkpt>
      <trkpt lat="59.984801979" lon="23.4193342879">
        <ele>5.4</ele>
        <time>2012-03-11T12:58:51Z</time>
      </trkpt>
      <trkpt lat="59.9847948544" lon="23.419616255">
        <ele>5.4</ele>
        <time>2012-03-11T12:58:56Z</time>
      </trkpt>
      <trkpt lat="59.984756633" lon="23.4199684624">
        <ele>5.4</ele>
        <time>2012-03-11T12:59:03Z</time>
      </trkpt>
      <trkpt lat="59.9847262067" lon="23.4202901598">
        <ele>5.4</ele>
        <time>2012-03-11T12:59:09Z</time>
      </trkpt>
      <trkpt lat="59.9846789328" lon="23.420639685">
        <ele>5.8</ele>
        <time>2012-03-11T12:59:16Z</time>
      </trkpt>
      <trkpt lat="59.9846186669" lon="23.420908744">
        <ele>6.6</ele>
        <time>2012-03-11T12:59:22Z</time>
      </trkpt>
      <trkpt lat="59.9845641845" lon="23.4211454488">
        <ele>7</ele>
        <time>2012-03-11T12:59:27Z</time>
      </trkpt>
      <trkpt lat="59.9845566408" lon="23.4211879451">
        <ele>7</ele>
        <time>2012-03-11T12:59:28Z</time>
      </trkpt>
      <trkpt lat="59.9845105404" lon="23.4214521426">
        <ele>7.2</ele>
        <time>2012-03-11T12:59:33Z</time>
      </trkpt>
      <trkpt lat="59.9844493525" lon="23.4218290766">
        <ele>7.4</ele>
        <time>2012-03-11T12:59:40Z</time>
      </trkpt>
      <trkpt lat="59.984401911" lon="23.4220953696">
        <ele>7.4</ele>
        <time>2012-03-11T12:59:45Z</time>
      </trkpt>
      <trkpt lat="59.9843486859" lon="23.4224066733">
        <ele>7.6</ele>
        <time>2012-03-11T12:59:51Z</time>
      </trkpt>
      <trkpt lat="59.9842877495" lon="23.4227487387">
        <ele>8.6</ele>
        <time>2012-03-11T12:59:58Z</time>
      </trkpt>
      <trkpt lat="59.9842299144" lon="23.4230569411">
        <ele>9</ele>
        <time>2012-03-11T13:00:04Z</time>
      </trkpt>
      <trkpt lat="59.9841817184" lon="23.4233627967">
        <ele>9.2</ele>
        <time>2012-03-11T13:00:10Z</time>
      </trkpt>
      <trkpt lat="59.9841212849" lon="23.4237046944">
        <ele>10.4</ele>
        <time>2012-03-11T13:00:17Z</time>
      </trkpt>
      <trkpt lat="59.9840759389" lon="23.4239995696">
        <ele>11</ele>
        <time>2012-03-11T13:00:23Z</time>
      </trkpt>
      <trkpt lat="59.9840238873" lon="23.4243288106">
        <ele>11.2</ele>
        <time>2012-03-11T13:00:29Z</time>
      </trkpt>
      <trkpt lat="59.9840005856" lon="23.4247163059">
        <ele>11.4</ele>
        <time>2012-03-11T13:00:36Z</time>
      </trkpt>
      <trkpt lat="59.9839975681" lon="23.424821834">
        <ele>11.4</ele>
        <time>2012-03-11T13:00:38Z</time>
      </trkpt>
      <trkpt lat="59.983958257" lon="23.425044122">
        <ele>11.4</ele>
        <time>2012-03-11T13:00:44Z</time>
      </trkpt>
      <trkpt lat="59.9839283336" lon="23.425246042">
        <ele>11</ele>
        <time>2012-03-11T13:00:48Z</time>
      </trkpt>
      <trkpt lat="59.9837870986" lon="23.4253364827">
        <ele>10.2</ele>
        <time>2012-03-11T13:00:54Z</time>
      </trkpt>
      <trkpt lat="59.9837585163" lon="23.425339584">
        <ele>10.2</ele>
        <time>2012-03-11T13:00:55Z</time>
      </trkpt>
      <trkpt lat="59.9837383159" lon="23.4253427691">
        <ele>10.2</ele>
        <time>2012-03-11T13:00:56Z</time>
      </trkpt>
      <trkpt lat="59.9836830792" lon="23.4254056333">
        <ele>10</ele>
        <time>2012-03-11T13:01:00Z</time>
      </trkpt>
      <trkpt lat="59.9836425946" lon="23.4254264205">
        <ele>9.2</ele>
        <time>2012-03-11T13:01:03Z</time>
      </trkpt>
      <trkpt lat="59.9834578576" lon="23.4254642228">
        <ele>8.4</ele>
        <time>2012-03-11T13:01:10Z</time>
      </trkpt>
      <trkpt lat="59.9833618848" lon="23.4256955633">
        <ele>8</ele>
        <time>2012-03-11T13:01:16Z</time>
      </trkpt>
      <trkpt lat="59.9833948257" lon="23.4259807155">
        <ele>7.8</ele>
        <time>2012-03-11T13:01:22Z</time>
      </trkpt>
      <trkpt lat="59.9834050516" lon="23.4260279894">
        <ele>7.8</ele>
        <time>2012-03-11T13:01:23Z</time>
      </trkpt>
      <trkpt lat="59.9834161157" lon="23.4263370301">
        <ele>7.6</ele>
        <time>2012-03-11T13:01:29Z</time>
      </trkpt>
      <trkpt lat="59.9833519942" lon="23.4266459031">
        <ele>7.6</ele>
        <time>2012-03-11T13:01:35Z</time>
      </trkpt>
      <trkpt lat="59.9832839331" lon="23.4269946739">
        <ele>7.6</ele>
        <time>2012-03-11T13:01:42Z</time>
      </trkpt>
      <trkpt lat="59.9832294508" lon="23.4272952489">
        <ele>7.4</ele>
        <time>2012-03-11T13:01:48Z</time>
      </trkpt>
      <trkpt lat="59.9831749684" lon="23.4275954047">
        <ele>7.4</ele>
        <time>2012-03-11T13:01:54Z</time>
      </trkpt>
      <trkpt lat="59.9831202346" lon="23.4279086363">
        <ele>7.4</ele>
        <time>2012-03-11T13:02:00Z</time>
      </trkpt>
      <trkpt lat="59.9830774031" lon="23.4281666312">
        <ele>7.4</ele>
        <time>2012-03-11T13:02:05Z</time>
      </trkpt>
      <trkpt lat="59.9830263574" lon="23.4284774321">
        <ele>7.4</ele>
        <time>2012-03-11T13:02:11Z</time>
      </trkpt>
      <trkpt lat="59.9829717074" lon="23.4288384405">
        <ele>8</ele>
        <time>2012-03-11T13:02:18Z</time>
      </trkpt>
      <trkpt lat="59.9828936719" lon="23.4293762232">
        <ele>9</ele>
        <time>2012-03-11T13:02:28Z</time>
      </trkpt>
      <trkpt lat="59.9827919156" lon="23.4299942207">
        <ele>9.4</ele>
        <time>2012-03-11T13:02:40Z</time>
      </trkpt>
      <trkpt lat="59.9827059173" lon="23.4302741761">
        <ele>9.4</ele>
        <time>2012-03-11T13:02:46Z</time>
      </trkpt>
      <trkpt lat="59.9825857209" lon="23.4304442449">
        <ele>9.4</ele>
        <time>2012-03-11T13:02:51Z</time>
      </trkpt>
      <trkpt lat="59.9824563043" lon="23.4305744996">
        <ele>9.4</ele>
        <time>2012-03-11T13:02:56Z</time>
      </trkpt>
      <trkpt lat="59.9823114651" lon="23.4306074405">
        <ele>9.6</ele>
        <time>2012-03-11T13:03:01Z</time>
      </trkpt>
      <trkpt lat="59.9821412287" lon="23.4305951191">
        <ele>10.6</ele>
        <time>2012-03-11T13:03:07Z</time>
      </trkpt>
      <trkpt lat="59.9820029274" lon="23.4305646928">
        <ele>11</ele>
        <time>2012-03-11T13:03:12Z</time>
      </trkpt>
      <trkpt lat="59.9818692361" lon="23.4305568138">
        <ele>11.2</ele>
        <time>2012-03-11T13:03:17Z</time>
      </trkpt>
      <trkpt lat="59.9817311862" lon="23.4305967116">
        <ele>11.4</ele>
        <time>2012-03-11T13:03:22Z</time>
      </trkpt>
      <trkpt lat="59.981666897" lon="23.4306457458">
        <ele>11.4</ele>
        <time>2012-03-11T13:03:28Z</time>
      </trkpt>
      <trkpt lat="59.9816479539" lon="23.430639627">
        <ele>10.6</ele>
        <time>2012-03-11T13:03:41Z</time>
      </trkpt>
      <trkpt lat="59.9816119117" lon="23.4305938618">
        <ele>10</ele>
        <time>2012-03-11T13:03:48Z</time>
      </trkpt>
      <trkpt lat="59.9816137557" lon="23.4305892518">
        <ele>9.8</ele>
        <time>2012-03-11T13:03:52Z</time>
      </trkpt>
      <trkpt lat="59.9816523125" lon="23.430745658">
        <ele>9.6</ele>
        <time>2012-03-11T13:03:57Z</time>
      </trkpt>
      <trkpt lat="59.9816258257" lon="23.4308642619">
        <ele>9.6</ele>
        <time>2012-03-11T13:03:59Z</time>
      </trkpt>
      <trkpt lat="59.981532116" lon="23.4312260247">
        <ele>9.6</ele>
        <time>2012-03-11T13:04:06Z</time>
      </trkpt>
      <trkpt lat="59.9814499734" lon="23.4315252585">
        <ele>8.6</ele>
        <time>2012-03-11T13:04:12Z</time>
      </trkpt>
      <trkpt lat="59.9813582754" lon="23.4318736103">
        <ele>8</ele>
        <time>2012-03-11T13:04:19Z</time>
      </trkpt>
      <trkpt lat="59.9812933995" lon="23.4321782924">
        <ele>7.8</ele>
        <time>2012-03-11T13:04:25Z</time>
      </trkpt>
      <trkpt lat="59.9811568584" lon="23.4327055139">
        <ele>7.6</ele>
        <time>2012-03-11T13:04:36Z</time>
      </trkpt>
      <trkpt lat="59.9811502367" lon="23.4327436515">
        <ele>7.6</ele>
        <time>2012-03-11T13:04:37Z</time>
      </trkpt>
      <trkpt lat="59.9811123505" lon="23.4329370219">
        <ele>7.6</ele>
        <time>2012-03-11T13:04:41Z</time>
      </trkpt>
      <trkpt lat="59.9810631487" lon="23.4331353377">
        <ele>7.6</ele>
        <time>2012-03-11T13:04:45Z</time>
      </trkpt>
      <trkpt lat="59.9809542679" lon="23.4335352381">
        <ele>7.6</ele>
        <time>2012-03-11T13:04:53Z</time>
      </trkpt>
      <trkpt lat="59.9808695268" lon="23.4338535827">
        <ele>7.4</ele>
        <time>2012-03-11T13:04:59Z</time>
      </trkpt>
      <trkpt lat="59.9807930839" lon="23.4341525651">
        <ele>7.4</ele>
        <time>2012-03-11T13:05:05Z</time>
      </trkpt>
      <trkpt lat="59.9807106898" lon="23.434452218">
        <ele>7.4</ele>
        <time>2012-03-11T13:05:11Z</time>
      </trkpt>
      <trkpt lat="59.9806367615" lon="23.4347447463">
        <ele>7.4</ele>
        <time>2012-03-11T13:05:17Z</time>
      </trkpt>
      <trkpt lat="59.9805177385" lon="23.43522">
        <ele>7.4</ele>
        <time>2012-03-11T13:05:27Z</time>
      </trkpt>
      <trkpt lat="59.9804811934" lon="23.435360816">
        <ele>7.4</ele>
        <time>2012-03-11T13:05:30Z</time>
      </trkpt>
      <trkpt lat="59.980401733" lon="23.4355555275">
        <ele>7.4</ele>
        <time>2012-03-11T13:05:35Z</time>
      </trkpt>
      <trkpt lat="59.9802653595" lon="23.4355467265">
        <ele>7.4</ele>
        <time>2012-03-11T13:05:40Z</time>
      </trkpt>
      <trkpt lat="59.9801134795" lon="23.435406665">
        <ele>7.4</ele>
        <time>2012-03-11T13:05:46Z</time>
      </trkpt>
      <trkpt lat="59.9800025869" lon="23.4353397774">
        <ele>7.4</ele>
        <time>2012-03-11T13:05:50Z</time>
      </trkpt>
      <trkpt lat="59.979859927" lon="23.4353897335">
        <ele>7.4</ele>
        <time>2012-03-11T13:05:55Z</time>
      </trkpt>
      <trkpt lat="59.9797081308" lon="23.4355106843">
        <ele>7.4</ele>
        <time>2012-03-11T13:06:01Z</time>
      </trkpt>
      <trkpt lat="59.9795606093" lon="23.4356560265">
        <ele>7.4</ele>
        <time>2012-03-11T13:06:07Z</time>
      </trkpt>
      <trkpt lat="59.9794132555" lon="23.435763231">
        <ele>7.4</ele>
        <time>2012-03-11T13:06:13Z</time>
      </trkpt>
      <trkpt lat="59.9792491379" lon="23.4358096667">
        <ele>7.4</ele>
        <time>2012-03-11T13:06:19Z</time>
      </trkpt>
      <trkpt lat="59.9790824219" lon="23.4357840181">
        <ele>7.4</ele>
        <time>2012-03-11T13:06:25Z</time>
      </trkpt>
      <trkpt lat="59.9788919014" lon="23.435734984">
        <ele>7.4</ele>
        <time>2012-03-11T13:06:32Z</time>
      </trkpt>
      <trkpt lat="59.9787515045" lon="23.4356483151">
        <ele>7.4</ele>
        <time>2012-03-11T13:06:37Z</time>
      </trkpt>
      <trkpt lat="59.9785836151" lon="23.4354471495">
        <ele>7.4</ele>
        <time>2012-03-11T13:06:44Z</time>
      </trkpt>
      <trkpt lat="59.9783945194" lon="23.4351851313">
        <ele>7.4</ele>
        <time>2012-03-11T13:06:52Z</time>
      </trkpt>
      <trkpt lat="59.9782247021" lon="23.4349547129">
        <ele>7.4</ele>
        <time>2012-03-11T13:06:59Z</time>
      </trkpt>
      <trkpt lat="59.978120096" lon="23.4347611748">
        <ele>7.4</ele>
        <time>2012-03-11T13:07:04Z</time>
      </trkpt>
      <trkpt lat="59.9780379534" lon="23.4345398927">
        <ele>7.4</ele>
        <time>2012-03-11T13:07:09Z</time>
      </trkpt>
      <trkpt lat="59.9779396337" lon="23.4343673094">
        <ele>7.4</ele>
        <time>2012-03-11T13:07:14Z</time>
      </trkpt>
      <trkpt lat="59.9778051042" lon="23.4341871823">
        <ele>7.4</ele>
        <time>2012-03-11T13:07:20Z</time>
      </trkpt>
      <trkpt lat="59.9776407351" lon="23.4339753717">
        <ele>7.4</ele>
        <time>2012-03-11T13:07:27Z</time>
      </trkpt>
      <trkpt lat="59.9775237238" lon="23.4338251681">
        <ele>7.4</ele>
        <time>2012-03-11T13:07:32Z</time>
      </trkpt>
      <trkpt lat="59.9774091432" lon="23.4336495673">
        <ele>7.4</ele>
        <time>2012-03-11T13:07:37Z</time>
      </trkpt>
      <trkpt lat="59.9772726021" lon="23.4334720386">
        <ele>7.4</ele>
        <time>2012-03-11T13:07:43Z</time>
      </trkpt>
      <trkpt lat="59.9771332949" lon="23.4332749802">
        <ele>7.4</ele>
        <time>2012-03-11T13:07:49Z</time>
      </trkpt>
      <trkpt lat="59.9770143558" lon="23.4331313982">
        <ele>7.8</ele>
        <time>2012-03-11T13:07:54Z</time>
      </trkpt>
      <trkpt lat="59.9768641521" lon="23.4329071824">
        <ele>8.8</ele>
        <time>2012-03-11T13:08:01Z</time>
      </trkpt>
      <trkpt lat="59.9767135294" lon="23.4327729882">
        <ele>9</ele>
        <time>2012-03-11T13:08:07Z</time>
      </trkpt>
      <trkpt lat="59.9765781617" lon="23.4326170848">
        <ele>9.2</ele>
        <time>2012-03-11T13:08:13Z</time>
      </trkpt>
      <trkpt lat="59.9764477393" lon="23.4324926974">
        <ele>9.4</ele>
        <time>2012-03-11T13:08:18Z</time>
      </trkpt>
      <trkpt lat="59.976315892" lon="23.432452129">
        <ele>9.4</ele>
        <time>2012-03-11T13:08:23Z</time>
      </trkpt>
      <trkpt lat="59.9761903312" lon="23.4325081201">
        <ele>9.4</ele>
        <time>2012-03-11T13:08:28Z</time>
      </trkpt>
      <trkpt lat="59.9760197595" lon="23.4326451642">
        <ele>9.4</ele>
        <time>2012-03-11T13:08:35Z</time>
      </trkpt>
      <trkpt lat="59.9758683824" lon="23.4327714794">
        <ele>9.4</ele>
        <time>2012-03-11T13:08:41Z</time>
      </trkpt>
      <trkpt lat="59.9757501138" lon="23.4328733195">
        <ele>9.4</ele>
        <time>2012-03-11T13:08:46Z</time>
      </trkpt>
      <trkpt lat="59.975624972" lon="23.4329190009">
        <ele>9.4</ele>
        <time>2012-03-11T13:08:51Z</time>
      </trkpt>
      <trkpt lat="59.9755072901" lon="23.4327990559">
        <ele>9.4</ele>
        <time>2012-03-11T13:08:56Z</time>
      </trkpt>
      <trkpt lat="59.9753747723" lon="23.4326331781">
        <ele>9.2</ele>
        <time>2012-03-11T13:09:02Z</time>
      </trkpt>
      <trkpt lat="59.9752390693" lon="23.4324839803">
        <ele>8.4</ele>
        <time>2012-03-11T13:09:08Z</time>
      </trkpt>
      <trkpt lat="59.9751002651" lon="23.4323352853">
        <ele>8</ele>
        <time>2012-03-11T13:09:14Z</time>
      </trkpt>
      <trkpt lat="59.9749575213" lon="23.432192793">
        <ele>7.8</ele>
        <time>2012-03-11T13:09:20Z</time>
      </trkpt>
      <trkpt lat="59.97478586" lon="23.4320208803">
        <ele>7.6</ele>
        <time>2012-03-11T13:09:27Z</time>
      </trkpt>
      <trkpt lat="59.974740011" lon="23.4319757018">
        <ele>7.6</ele>
        <time>2012-03-11T13:09:29Z</time>
      </trkpt>
      <trkpt lat="59.9747088303" lon="23.4317003564">
        <ele>7.6</ele>
        <time>2012-03-11T13:09:35Z</time>
      </trkpt>
      <trkpt lat="59.9747116802" lon="23.4316496459">
        <ele>7.6</ele>
        <time>2012-03-11T13:09:36Z</time>
      </trkpt>
      <trkpt lat="59.9747410168" lon="23.4313377554">
        <ele>7.2</ele>
        <time>2012-03-11T13:09:42Z</time>
      </trkpt>
      <trkpt lat="59.9747421903" lon="23.4310586382">
        <ele>6.6</ele>
        <time>2012-03-11T13:09:47Z</time>
      </trkpt>
      <trkpt lat="59.9747141109" lon="23.4307352645">
        <ele>6</ele>
        <time>2012-03-11T13:09:53Z</time>
      </trkpt>
      <trkpt lat="59.9747079922" lon="23.4304610087">
        <ele>5.8</ele>
        <time>2012-03-11T13:09:58Z</time>
      </trkpt>
      <trkpt lat="59.9746283641" lon="23.4302272375">
        <ele>5.6</ele>
        <time>2012-03-11T13:10:03Z</time>
      </trkpt>
      <trkpt lat="59.9744749753" lon="23.4299847491">
        <ele>5.6</ele>
        <time>2012-03-11T13:10:10Z</time>
      </trkpt>
      <trkpt lat="59.9743123665" lon="23.4297712621">
        <ele>5.6</ele>
        <time>2012-03-11T13:10:17Z</time>
      </trkpt>
      <trkpt lat="59.9741421301" lon="23.4295589486">
        <ele>5.4</ele>
        <time>2012-03-11T13:10:24Z</time>
      </trkpt>
      <trkpt lat="59.9740259569" lon="23.4294046378">
        <ele>5.4</ele>
        <time>2012-03-11T13:10:29Z</time>
      </trkpt>
      <trkpt lat="59.9738804472" lon="23.4292360778">
        <ele>5.4</ele>
        <time>2012-03-11T13:10:35Z</time>
      </trkpt>
      <trkpt lat="59.9737676268" lon="23.4291033923">
        <ele>5.4</ele>
        <time>2012-03-11T13:10:40Z</time>
      </trkpt>
      <trkpt lat="59.973630918" lon="23.4289109439">
        <ele>5.4</ele>
        <time>2012-03-11T13:10:46Z</time>
      </trkpt>
      <trkpt lat="59.9734978134" lon="23.4287018155">
        <ele>5.2</ele>
        <time>2012-03-11T13:10:52Z</time>
      </trkpt>
      <trkpt lat="59.9734488631" lon="23.4286330001">
        <ele>5</ele>
        <time>2012-03-11T13:10:54Z</time>
      </trkpt>
      <trkpt lat="59.9733506273" lon="23.4285475886">
        <ele>4.4</ele>
        <time>2012-03-11T13:10:58Z</time>
      </trkpt>
      <trkpt lat="59.9731842466" lon="23.4284677929">
        <ele>4</ele>
        <time>2012-03-11T13:11:04Z</time>
      </trkpt>
      <trkpt lat="59.9730480407" lon="23.4284619255">
        <ele>3.8</ele>
        <time>2012-03-11T13:11:09Z</time>
      </trkpt>
      <trkpt lat="59.9729114995" lon="23.4284837185">
        <ele>3.6</ele>
        <time>2012-03-11T13:11:14Z</time>
      </trkpt>
      <trkpt lat="59.9727741202" lon="23.4285695491">
        <ele>3.6</ele>
        <time>2012-03-11T13:11:19Z</time>
      </trkpt>
      <trkpt lat="59.9725849407" lon="23.42869511">
        <ele>3.6</ele>
        <time>2012-03-11T13:11:26Z</time>
      </trkpt>
      <trkpt lat="59.9724529258" lon="23.4287356784">
        <ele>3.4</ele>
        <time>2012-03-11T13:11:31Z</time>
      </trkpt>
      <trkpt lat="59.9722695298" lon="23.428750682">
        <ele>3.4</ele>
        <time>2012-03-11T13:11:38Z</time>
      </trkpt>
      <trkpt lat="59.9720140495" lon="23.4287993808">
        <ele>3.4</ele>
        <time>2012-03-11T13:11:47Z</time>
      </trkpt>
      <trkpt lat="59.9718335872" lon="23.4288580541">
        <ele>3.4</ele>
        <time>2012-03-11T13:11:54Z</time>
      </trkpt>
      <trkpt lat="59.97167299" lon="23.4289531887">
        <ele>3.6</ele>
        <time>2012-03-11T13:12:00Z</time>
      </trkpt>
      <trkpt lat="59.9715346886" lon="23.4291157137">
        <ele>4.6</ele>
        <time>2012-03-11T13:12:06Z</time>
      </trkpt>
      <trkpt lat="59.9714639454" lon="23.4293282787">
        <ele>5</ele>
        <time>2012-03-11T13:12:11Z</time>
      </trkpt>
      <trkpt lat="59.9714876662" lon="23.4295353116">
        <ele>5.2</ele>
        <time>2012-03-11T13:12:15Z</time>
      </trkpt>
      <trkpt lat="59.9716319187" lon="23.4300940491">
        <ele>5.4</ele>
        <time>2012-03-11T13:12:27Z</time>
      </trkpt>
      <trkpt lat="59.9717066014" lon="23.4304315882">
        <ele>5.4</ele>
        <time>2012-03-11T13:12:34Z</time>
      </trkpt>
      <trkpt lat="59.9717661129" lon="23.4307046705">
        <ele>5.8</ele>
        <time>2012-03-11T13:12:40Z</time>
      </trkpt>
      <trkpt lat="59.9718309888" lon="23.430933664">
        <ele>6.6</ele>
        <time>2012-03-11T13:12:45Z</time>
      </trkpt>
      <trkpt lat="59.9718997204" lon="23.4311414513">
        <ele>7</ele>
        <time>2012-03-11T13:12:50Z</time>
      </trkpt>
      <trkpt lat="59.9719257043" lon="23.4312830216">
        <ele>7.2</ele>
        <time>2012-03-11T13:12:53Z</time>
      </trkpt>
      <trkpt lat="59.9720313162" lon="23.4315787351">
        <ele>7.4</ele>
        <time>2012-03-11T13:13:00Z</time>
      </trkpt>
      <trkpt lat="59.9721619062" lon="23.4318363947">
        <ele>7.4</ele>
        <time>2012-03-11T13:13:07Z</time>
      </trkpt>
      <trkpt lat="59.9722334876" lon="23.4320508875">
        <ele>7.6</ele>
        <time>2012-03-11T13:13:12Z</time>
      </trkpt>
      <trkpt lat="59.9723261914" lon="23.4322764444">
        <ele>7.6</ele>
        <time>2012-03-11T13:13:18Z</time>
      </trkpt>
      <trkpt lat="59.9723313044" lon="23.4323236345">
        <ele>7.6</ele>
        <time>2012-03-11T13:13:19Z</time>
      </trkpt>
      <trkpt lat="59.9723144568" lon="23.432411393">
        <ele>7.6</ele>
        <time>2012-03-11T13:13:21Z</time>
      </trkpt>
      <trkpt lat="59.9722117785" lon="23.4326454995">
        <ele>7.6</ele>
        <time>2012-03-11T13:13:27Z</time>
      </trkpt>
      <trkpt lat="59.9720782548" lon="23.4329020694">
        <ele>7.6</ele>
        <time>2012-03-11T13:13:34Z</time>
      </trkpt>
      <trkpt lat="59.9719728944" lon="23.4331334937">
        <ele>7.6</ele>
        <time>2012-03-11T13:13:40Z</time>
      </trkpt>
      <trkpt lat="59.9719535322" lon="23.4332505888">
        <ele>7.6</ele>
        <time>2012-03-11T13:13:42Z</time>
      </trkpt>
      <trkpt lat="59.9720078469" lon="23.4334430372">
        <ele>7.6</ele>
        <time>2012-03-11T13:13:46Z</time>
      </trkpt>
      <trkpt lat="59.97215738" lon="23.4337043849">
        <ele>7.6</ele>
        <time>2012-03-11T13:13:53Z</time>
      </trkpt>
      <trkpt lat="59.9722593877" lon="23.4338746213">
        <ele>7.6</ele>
        <time>2012-03-11T13:13:58Z</time>
      </trkpt>
      <trkpt lat="59.9723554443" lon="23.4340560056">
        <ele>7.6</ele>
        <time>2012-03-11T13:14:03Z</time>
      </trkpt>
      <trkpt lat="59.9724494892" lon="23.4342533155">
        <ele>7.6</ele>
        <time>2012-03-11T13:14:08Z</time>
      </trkpt>
      <trkpt lat="59.9724948353" lon="23.4345409823">
        <ele>7.6</ele>
        <time>2012-03-11T13:14:14Z</time>
      </trkpt>
      <trkpt lat="59.9724784906" lon="23.4348502744">
        <ele>7.6</ele>
        <time>2012-03-11T13:14:20Z</time>
      </trkpt>
      <trkpt lat="59.9724080826" lon="23.4351399529">
        <ele>7.6</ele>
        <time>2012-03-11T13:14:26Z</time>
      </trkpt>
      <trkpt lat="59.9723266944" lon="23.4353197447">
        <ele>7.6</ele>
        <time>2012-03-11T13:14:31Z</time>
      </trkpt>
      <trkpt lat="59.9721739761" lon="23.435492328">
        <ele>7.6</ele>
        <time>2012-03-11T13:14:38Z</time>
      </trkpt>
      <trkpt lat="59.9720384408" lon="23.4356297073">
        <ele>7.6</ele>
        <time>2012-03-11T13:14:44Z</time>
      </trkpt>
      <trkpt lat="59.9720269576" lon="23.4356601336">
        <ele>7.6</ele>
        <time>2012-03-11T13:14:45Z</time>
      </trkpt>
      <trkpt lat="59.9720145524" lon="23.4358943239">
        <ele>7.6</ele>
        <time>2012-03-11T13:14:49Z</time>
      </trkpt>
      <trkpt lat="59.9720197492" lon="23.4360427674">
        <ele>7.4</ele>
        <time>2012-03-11T13:14:52Z</time>
      </trkpt>
      <trkpt lat="59.9720104453" lon="23.4360619619">
        <ele>7.2</ele>
        <time>2012-03-11T13:14:53Z</time>
      </trkpt>
      <trkpt lat="59.9720301427" lon="23.4360635545">
        <ele>6</ele>
        <time>2012-03-11T13:15:03Z</time>
      </trkpt>
      <trkpt lat="59.9720467389" lon="23.4360692542">
        <ele>5.8</ele>
        <time>2012-03-11T13:15:10Z</time>
      </trkpt>
      <trkpt lat="59.9720463198" lon="23.4360714335">
        <ele>5.8</ele>
        <time>2012-03-11T13:15:12Z</time>
      </trkpt>
      <trkpt lat="59.9719385286" lon="23.4360297754">
        <ele>5.6</ele>
        <time>2012-03-11T13:15:17Z</time>
      </trkpt>
      <trkpt lat="59.9719142211" lon="23.4360203039">
        <ele>5.6</ele>
        <time>2012-03-11T13:15:18Z</time>
      </trkpt>
      <trkpt lat="59.9717876544" lon="23.4359223195">
        <ele>5.6</ele>
        <time>2012-03-11T13:15:24Z</time>
      </trkpt>
      <trkpt lat="59.9715171705" lon="23.4360941484">
        <ele>5.6</ele>
        <time>2012-03-11T13:15:38Z</time>
      </trkpt>
      <trkpt lat="59.9713429946" lon="23.4360690027">
        <ele>5.6</ele>
        <time>2012-03-11T13:15:44Z</time>
      </trkpt>
      <trkpt lat="59.9711891867" lon="23.4360752053">
        <ele>5.6</ele>
        <time>2012-03-11T13:15:50Z</time>
      </trkpt>
      <trkpt lat="59.9710378934" lon="23.4360856827">
        <ele>5.6</ele>
        <time>2012-03-11T13:15:56Z</time>
      </trkpt>
      <trkpt lat="59.9708851752" lon="23.4360700923">
        <ele>5.6</ele>
        <time>2012-03-11T13:16:02Z</time>
      </trkpt>
      <trkpt lat="59.9707566807" lon="23.4360691703">
        <ele>5.6</ele>
        <time>2012-03-11T13:16:07Z</time>
      </trkpt>
      <trkpt lat="59.9705721112" lon="23.4360908795">
        <ele>5.6</ele>
        <time>2012-03-11T13:16:14Z</time>
      </trkpt>
      <trkpt lat="59.9704198121" lon="23.4361303582">
        <ele>5.6</ele>
        <time>2012-03-11T13:16:20Z</time>
      </trkpt>
      <trkpt lat="59.970251755" lon="23.4362041189">
        <ele>5.6</ele>
        <time>2012-03-11T13:16:27Z</time>
      </trkpt>
      <trkpt lat="59.9700936724" lon="23.4362817353">
        <ele>5.6</ele>
        <time>2012-03-11T13:16:34Z</time>
      </trkpt>
      <trkpt lat="59.9700708736" lon="23.4363001755">
        <ele>5.6</ele>
        <time>2012-03-11T13:16:35Z</time>
      </trkpt>
      <trkpt lat="59.9699354221" lon="23.4363485391">
        <ele>5.6</ele>
        <time>2012-03-11T13:16:41Z</time>
      </trkpt>
      <trkpt lat="59.9698246134" lon="23.4363943881">
        <ele>5.6</ele>
        <time>2012-03-11T13:16:46Z</time>
      </trkpt>
      <trkpt lat="59.9696794389" lon="23.4364720883">
        <ele>5.6</ele>
        <time>2012-03-11T13:16:52Z</time>
      </trkpt>
      <trkpt lat="59.9695240385" lon="23.4365648759">
        <ele>5.6</ele>
        <time>2012-03-11T13:16:59Z</time>
      </trkpt>
      <trkpt lat="59.9694014113" lon="23.4366046899">
        <ele>5.6</ele>
        <time>2012-03-11T13:17:04Z</time>
      </trkpt>
      <trkpt lat="59.9692906025" lon="23.43659723">
        <ele>5.8</ele>
        <time>2012-03-11T13:17:09Z</time>
      </trkpt>
      <trkpt lat="59.9692109745" lon="23.4365638701">
        <ele>6.4</ele>
        <time>2012-03-11T13:17:13Z</time>
      </trkpt>
      <trkpt lat="59.9690788758" lon="23.4365314321">
        <ele>6.8</ele>
        <time>2012-03-11T13:17:18Z</time>
      </trkpt>
      <trkpt lat="59.9689539016" lon="23.436482398">
        <ele>7.2</ele>
        <time>2012-03-11T13:17:23Z</time>
      </trkpt>
      <trkpt lat="59.9687734393" lon="23.4364228027">
        <ele>7.4</ele>
        <time>2012-03-11T13:17:30Z</time>
      </trkpt>
      <trkpt lat="59.968597168" lon="23.436311072">
        <ele>7.4</ele>
        <time>2012-03-11T13:17:37Z</time>
      </trkpt>
      <trkpt lat="59.9684113412" lon="23.4361104093">
        <ele>7.4</ele>
        <time>2012-03-11T13:17:45Z</time>
      </trkpt>
      <trkpt lat="59.9683012031" lon="23.4359876983">
        <ele>7.8</ele>
        <time>2012-03-11T13:17:50Z</time>
      </trkpt>
      <trkpt lat="59.9681767319" lon="23.4358667475">
        <ele>8.6</ele>
        <time>2012-03-11T13:17:55Z</time>
      </trkpt>
      <trkpt lat="59.9680723772" lon="23.4357475568">
        <ele>9.6</ele>
        <time>2012-03-11T13:18:00Z</time>
      </trkpt>
      <trkpt lat="59.9679935035" lon="23.4356473093">
        <ele>10.4</ele>
        <time>2012-03-11T13:18:04Z</time>
      </trkpt>
      <trkpt lat="59.9678958544" lon="23.4355503307">
        <ele>10.8</ele>
        <time>2012-03-11T13:18:08Z</time>
      </trkpt>
      <trkpt lat="59.9677907454" lon="23.4354264462">
        <ele>11.8</ele>
        <time>2012-03-11T13:18:13Z</time>
      </trkpt>
      <trkpt lat="59.9676395359" lon="23.4352263703">
        <ele>12.8</ele>
        <time>2012-03-11T13:18:20Z</time>
      </trkpt>
      <trkpt lat="59.9674446567" lon="23.4349475045">
        <ele>13.4</ele>
        <time>2012-03-11T13:18:30Z</time>
      </trkpt>
      <trkpt lat="59.9673325069" lon="23.434780537">
        <ele>14.2</ele>
        <time>2012-03-11T13:18:35Z</time>
      </trkpt>
      <trkpt lat="59.9672352768" lon="23.4346387153">
        <ele>14.8</ele>
        <time>2012-03-11T13:18:40Z</time>
      </trkpt>
      <trkpt lat="59.9671334368" lon="23.4345118971">
        <ele>15.2</ele>
        <time>2012-03-11T13:18:45Z</time>
      </trkpt>
      <trkpt lat="59.9669973985" lon="23.4343418284">
        <ele>16</ele>
        <time>2012-03-11T13:18:51Z</time>
      </trkpt>
      <trkpt lat="59.9668960614" lon="23.4341670658">
        <ele>16.8</ele>
        <time>2012-03-11T13:18:56Z</time>
      </trkpt>
      <trkpt lat="59.9667708358" lon="23.4339623798">
        <ele>17.2</ele>
        <time>2012-03-11T13:19:02Z</time>
      </trkpt>
      <trkpt lat="59.9666766232" lon="23.4338768844">
        <ele>17.4</ele>
        <time>2012-03-11T13:19:06Z</time>
      </trkpt>
      <trkpt lat="59.9665468714" lon="23.4338022017">
        <ele>17.6</ele>
        <time>2012-03-11T13:19:11Z</time>
      </trkpt>
      <trkpt lat="59.9664192989" lon="23.4336926502">
        <ele>17.8</ele>
        <time>2012-03-11T13:19:16Z</time>
      </trkpt>
      <trkpt lat="59.9663110886" lon="23.4335603">
        <ele>17.8</ele>
        <time>2012-03-11T13:19:21Z</time>
      </trkpt>
      <trkpt lat="59.9661826778" lon="23.4334393492">
        <ele>17.8</ele>
        <time>2012-03-11T13:19:26Z</time>
      </trkpt>
      <trkpt lat="59.9661171314" lon="23.4333641636">
        <ele>17.8</ele>
        <time>2012-03-11T13:19:29Z</time>
      </trkpt>
      <trkpt lat="59.9659507507" lon="23.4331684462">
        <ele>17.8</ele>
        <time>2012-03-11T13:19:36Z</time>
      </trkpt>
      <trkpt lat="59.9658226752" lon="23.4329835415">
        <ele>17.8</ele>
        <time>2012-03-11T13:19:42Z</time>
      </trkpt>
      <trkpt lat="59.9657201646" lon="23.4328160711">
        <ele>17.6</ele>
        <time>2012-03-11T13:19:47Z</time>
      </trkpt>
      <trkpt lat="59.9655820309" lon="23.4326185936">
        <ele>16.8</ele>
        <time>2012-03-11T13:19:53Z</time>
      </trkpt>
      <trkpt lat="59.9654822863" lon="23.4324579964">
        <ele>16.4</ele>
        <time>2012-03-11T13:19:58Z</time>
      </trkpt>
      <trkpt lat="59.9653905045" lon="23.4323538932">
        <ele>16.2</ele>
        <time>2012-03-11T13:20:02Z</time>
      </trkpt>
      <trkpt lat="59.9652687155" lon="23.4321928769">
        <ele>16</ele>
        <time>2012-03-11T13:20:08Z</time>
      </trkpt>
      <trkpt lat="59.9651532129" lon="23.4319711756">
        <ele>16</ele>
        <time>2012-03-11T13:20:14Z</time>
      </trkpt>
      <trkpt lat="59.9650836431" lon="23.431760287">
        <ele>15</ele>
        <time>2012-03-11T13:20:19Z</time>
      </trkpt>
      <trkpt lat="59.9651299112" lon="23.4312177266">
        <ele>14.2</ele>
        <time>2012-03-11T13:20:31Z</time>
      </trkpt>
      <trkpt lat="59.9651677974" lon="23.4310231827">
        <ele>14</ele>
        <time>2012-03-11T13:20:35Z</time>
      </trkpt>
      <trkpt lat="59.9651652828" lon="23.4309762441">
        <ele>14</ele>
        <time>2012-03-11T13:20:36Z</time>
      </trkpt>
      <trkpt lat="59.9651654505" lon="23.4308651001">
        <ele>14</ele>
        <time>2012-03-11T13:20:40Z</time>
      </trkpt>
      <trkpt lat="59.9651527938" lon="23.4307117951">
        <ele>13.4</ele>
        <time>2012-03-11T13:20:45Z</time>
      </trkpt>
      <trkpt lat="59.9651506983" lon="23.4305307461">
        <ele>12.8</ele>
        <time>2012-03-11T13:20:49Z</time>
      </trkpt>
      <trkpt lat="59.9651452501" lon="23.4304840589">
        <ele>12.6</ele>
        <time>2012-03-11T13:20:50Z</time>
      </trkpt>
      <trkpt lat="59.9651417297" lon="23.4304097953">
        <ele>12.4</ele>
        <time>2012-03-11T13:20:52Z</time>
      </trkpt>
      <trkpt lat="59.9651391313" lon="23.4301944643">
        <ele>12.2</ele>
        <time>2012-03-11T13:20:57Z</time>
      </trkpt>
      <trkpt lat="59.9651491896" lon="23.4300150916">
        <ele>12</ele>
        <time>2012-03-11T13:21:01Z</time>
      </trkpt>
      <trkpt lat="59.9651722398" lon="23.4296850962">
        <ele>11.8</ele>
        <time>2012-03-11T13:21:08Z</time>
      </trkpt>
      <trkpt lat="59.9651890036" lon="23.4294383331">
        <ele>11.8</ele>
        <time>2012-03-11T13:21:13Z</time>
      </trkpt>
      <trkpt lat="59.965197134" lon="23.4292469743">
        <ele>11.8</ele>
        <time>2012-03-11T13:21:17Z</time>
      </trkpt>
      <trkpt lat="59.9651992295" lon="23.4288157255">
        <ele>11.8</ele>
        <time>2012-03-11T13:21:25Z</time>
      </trkpt>
      <trkpt lat="59.9652151551" lon="23.4285541264">
        <ele>11.8</ele>
        <time>2012-03-11T13:21:30Z</time>
      </trkpt>
      <trkpt lat="59.9652265545" lon="23.4283294077">
        <ele>11.8</ele>
        <time>2012-03-11T13:21:35Z</time>
      </trkpt>
      <trkpt lat="59.9652334277" lon="23.4282407272">
        <ele>11.8</ele>
        <time>2012-03-11T13:21:37Z</time>
      </trkpt>
      <trkpt lat="59.9651962959" lon="23.427947696">
        <ele>11.6</ele>
        <time>2012-03-11T13:21:44Z</time>
      </trkpt>
      <trkpt lat="59.96516939" lon="23.4277631265">
        <ele>10.8</ele>
        <time>2012-03-11T13:21:49Z</time>
      </trkpt>
      <trkpt lat="59.9651465074" lon="23.427582748">
        <ele>10.4</ele>
        <time>2012-03-11T13:21:53Z</time>
      </trkpt>
      <trkpt lat="59.9650977247" lon="23.427312348">
        <ele>10</ele>
        <time>2012-03-11T13:21:59Z</time>
      </trkpt>
      <trkpt lat="59.9650517919" lon="23.4271006212">
        <ele>10</ele>
        <time>2012-03-11T13:22:04Z</time>
      </trkpt>
      <trkpt lat="59.9649583337" lon="23.4268878885">
        <ele>9.8</ele>
        <time>2012-03-11T13:22:10Z</time>
      </trkpt>
      <trkpt lat="59.964890105" lon="23.4267689494">
        <ele>9.8</ele>
        <time>2012-03-11T13:22:14Z</time>
      </trkpt>
      <trkpt lat="59.9648061184" lon="23.4267051631">
        <ele>9.8</ele>
        <time>2012-03-11T13:22:18Z</time>
      </trkpt>
      <trkpt lat="59.9646689905" lon="23.4264962862">
        <ele>10.2</ele>
        <time>2012-03-11T13:22:26Z</time>
      </trkpt>
      <trkpt lat="59.9646100658" lon="23.4263953681">
        <ele>10.6</ele>
        <time>2012-03-11T13:22:29Z</time>
      </trkpt>
      <trkpt lat="59.9645104888" lon="23.4262049313">
        <ele>11.6</ele>
        <time>2012-03-11T13:22:35Z</time>
      </trkpt>
      <trkpt lat="59.9644270889" lon="23.426027235">
        <ele>12.6</ele>
        <time>2012-03-11T13:22:40Z</time>
      </trkpt>
      <trkpt lat="59.9644106604" lon="23.4259788715">
        <ele>12.6</ele>
        <time>2012-03-11T13:22:41Z</time>
      </trkpt>
      <trkpt lat="59.9643286854" lon="23.4257991635">
        <ele>13.2</ele>
        <time>2012-03-11T13:22:46Z</time>
      </trkpt>
      <trkpt lat="59.9643114187" lon="23.4257638757">
        <ele>13.2</ele>
        <time>2012-03-11T13:22:47Z</time>
      </trkpt>
      <trkpt lat="59.9641785656" lon="23.4255770432">
        <ele>14.2</ele>
        <time>2012-03-11T13:22:54Z</time>
      </trkpt>
      <trkpt lat="59.9640716963" lon="23.4254962417">
        <ele>15</ele>
        <time>2012-03-11T13:22:59Z</time>
      </trkpt>
      <trkpt lat="59.9639427827" lon="23.4254333774">
        <ele>15.4</ele>
        <time>2012-03-11T13:23:05Z</time>
      </trkpt>
      <trkpt lat="59.9639212412" lon="23.4254227324">
        <ele>15.4</ele>
        <time>2012-03-11T13:23:06Z</time>
      </trkpt>
      <trkpt lat="59.9638112707" lon="23.4253609578">
        <ele>15.6</ele>
        <time>2012-03-11T13:23:11Z</time>
      </trkpt>
      <trkpt lat="59.9636827762" lon="23.4253442778">
        <ele>15.8</ele>
        <time>2012-03-11T13:23:17Z</time>
      </trkpt>
      <trkpt lat="59.9635583888" lon="23.425335393">
        <ele>15.8</ele>
        <time>2012-03-11T13:23:23Z</time>
      </trkpt>
      <trkpt lat="59.9634042456" lon="23.4253280169">
        <ele>16</ele>
        <time>2012-03-11T13:23:30Z</time>
      </trkpt>
      <trkpt lat="59.9633107874" lon="23.4253519054">
        <ele>16</ele>
        <time>2012-03-11T13:23:35Z</time>
      </trkpt>
      <trkpt lat="59.9631931056" lon="23.4253934796">
        <ele>15.8</ele>
        <time>2012-03-11T13:23:40Z</time>
      </trkpt>
      <trkpt lat="59.9630888347" lon="23.4253827508">
        <ele>15</ele>
        <time>2012-03-11T13:23:44Z</time>
      </trkpt>
      <trkpt lat="59.9629517907" lon="23.4253660708">
        <ele>14.6</ele>
        <time>2012-03-11T13:23:50Z</time>
      </trkpt>
      <trkpt lat="59.9627889304" lon="23.4253706808">
        <ele>14.2</ele>
        <time>2012-03-11T13:23:57Z</time>
      </trkpt>
      <trkpt lat="59.9626090548" lon="23.4253647297">
        <ele>14</ele>
        <time>2012-03-11T13:24:04Z</time>
      </trkpt>
      <trkpt lat="59.9625337853" lon="23.4253579403">
        <ele>14</ele>
        <time>2012-03-11T13:24:07Z</time>
      </trkpt>
      <trkpt lat="59.9623669017" lon="23.4253603711">
        <ele>14</ele>
        <time>2012-03-11T13:24:14Z</time>
      </trkpt>
      <trkpt lat="59.9622164466" lon="23.425352995">
        <ele>14</ele>
        <time>2012-03-11T13:24:20Z</time>
      </trkpt>
      <trkpt lat="59.9620524128" lon="23.4253370694">
        <ele>13.8</ele>
        <time>2012-03-11T13:24:27Z</time>
      </trkpt>
      <trkpt lat="59.9618500737" lon="23.4253603711">
        <ele>12.8</ele>
        <time>2012-03-11T13:24:36Z</time>
      </trkpt>
      <trkpt lat="59.9618440388" lon="23.4253841757">
        <ele>12.6</ele>
        <time>2012-03-11T13:24:37Z</time>
      </trkpt>
      <trkpt lat="59.9617927415" lon="23.4253958265">
        <ele>12.4</ele>
        <time>2012-03-11T13:24:41Z</time>
      </trkpt>
      <trkpt lat="59.9617722897" lon="23.4253833375">
        <ele>12.4</ele>
        <time>2012-03-11T13:24:42Z</time>
      </trkpt>
      <trkpt lat="59.9617468925" lon="23.425376632">
        <ele>12.2</ele>
        <time>2012-03-11T13:24:44Z</time>
      </trkpt>
      <trkpt lat="59.9616439628" lon="23.4253716028">
        <ele>11.2</ele>
        <time>2012-03-11T13:24:49Z</time>
      </trkpt>
      <trkpt lat="59.9615816853" lon="23.4253385781">
        <ele>10.8</ele>
        <time>2012-03-11T13:24:52Z</time>
      </trkpt>
      <trkpt lat="59.9614387739" lon="23.4251299526">
        <ele>10.2</ele>
        <time>2012-03-11T13:24:59Z</time>
      </trkpt>
      <trkpt lat="59.9613208406" lon="23.424977905">
        <ele>10</ele>
        <time>2012-03-11T13:25:05Z</time>
      </trkpt>
      <trkpt lat="59.9613013946" lon="23.4249481492">
        <ele>10</ele>
        <time>2012-03-11T13:25:06Z</time>
      </trkpt>
      <trkpt lat="59.9611908373" lon="23.424713456">
        <ele>9.8</ele>
        <time>2012-03-11T13:25:13Z</time>
      </trkpt>
      <trkpt lat="59.961112718" lon="23.4245462371">
        <ele>9.8</ele>
        <time>2012-03-11T13:25:18Z</time>
      </trkpt>
      <trkpt lat="59.9610646897" lon="23.4244510187">
        <ele>9.8</ele>
        <time>2012-03-11T13:25:21Z</time>
      </trkpt>
      <trkpt lat="59.9609829662" lon="23.4242972947">
        <ele>9.8</ele>
        <time>2012-03-11T13:25:27Z</time>
      </trkpt>
      <trkpt lat="59.9608687209" lon="23.4241797805">
        <ele>9.8</ele>
        <time>2012-03-11T13:25:33Z</time>
      </trkpt>
      <trkpt lat="59.9608502807" lon="23.4241622623">
        <ele>9.8</ele>
        <time>2012-03-11T13:25:34Z</time>
      </trkpt>
      <trkpt lat="59.9607602591" lon="23.4240544711">
        <ele>9.8</ele>
        <time>2012-03-11T13:25:38Z</time>
      </trkpt>
      <trkpt lat="59.9607035975" lon="23.4240088735">
        <ele>9.8</ele>
        <time>2012-03-11T13:25:41Z</time>
      </trkpt>
      <trkpt lat="59.9605775337" lon="23.4239311733">
        <ele>9.8</ele>
        <time>2012-03-11T13:25:47Z</time>
      </trkpt>
      <trkpt lat="59.9604519728" lon="23.4238482763">
        <ele>9.8</ele>
        <time>2012-03-11T13:25:53Z</time>
      </trkpt>
      <trkpt lat="59.9603568382" lon="23.4237846577">
        <ele>9.8</ele>
        <time>2012-03-11T13:25:58Z</time>
      </trkpt>
      <trkpt lat="59.9602482926" lon="23.4237238889">
        <ele>9.8</ele>
        <time>2012-03-11T13:26:04Z</time>
      </trkpt>
      <trkpt lat="59.9602005996" lon="23.4236661376">
        <ele>9.6</ele>
        <time>2012-03-11T13:26:06Z</time>
      </trkpt>
      <trkpt lat="59.9601394118" lon="23.4235912873">
        <ele>9</ele>
        <time>2012-03-11T13:26:09Z</time>
      </trkpt>
      <trkpt lat="59.960024915" lon="23.4234453584">
        <ele>8.6</ele>
        <time>2012-03-11T13:26:14Z</time>
      </trkpt>
      <trkpt lat="59.9599675828" lon="23.4233539119">
        <ele>8.2</ele>
        <time>2012-03-11T13:26:17Z</time>
      </trkpt>
      <trkpt lat="59.9599403416" lon="23.423287611">
        <ele>8.2</ele>
        <time>2012-03-11T13:26:19Z</time>
      </trkpt>
      <trkpt lat="59.9598235818" lon="23.4230971743">
        <ele>8</ele>
        <time>2012-03-11T13:26:26Z</time>
      </trkpt>
      <trkpt lat="59.9597798283" lon="23.42301302">
        <ele>8</ele>
        <time>2012-03-11T13:26:29Z</time>
      </trkpt>
      <trkpt lat="59.9597237533" lon="23.422923166">
        <ele>7.8</ele>
        <time>2012-03-11T13:26:33Z</time>
      </trkpt>
      <trkpt lat="59.9596717856" lon="23.4227072483">
        <ele>7.8</ele>
        <time>2012-03-11T13:26:39Z</time>
      </trkpt>
      <trkpt lat="59.9596142019" lon="23.422539275">
        <ele>8.6</ele>
        <time>2012-03-11T13:26:44Z</time>
      </trkpt>
      <trkpt lat="59.9595896429" lon="23.4222867283">
        <ele>9.2</ele>
        <time>2012-03-11T13:26:50Z</time>
      </trkpt>
      <trkpt lat="59.9595306344" lon="23.4221129716">
        <ele>9.4</ele>
        <time>2012-03-11T13:26:55Z</time>
      </trkpt>
      <trkpt lat="59.9595186482" lon="23.4218555634">
        <ele>9.8</ele>
        <time>2012-03-11T13:27:00Z</time>
      </trkpt>
      <trkpt lat="59.9594676863" lon="23.421575105">
        <ele>10.8</ele>
        <time>2012-03-11T13:27:06Z</time>
      </trkpt>
      <trkpt lat="59.9594111923" lon="23.4213829919">
        <ele>11.2</ele>
        <time>2012-03-11T13:27:11Z</time>
      </trkpt>
      <trkpt lat="59.9593467355" lon="23.4211771324">
        <ele>12.4</ele>
        <time>2012-03-11T13:27:17Z</time>
      </trkpt>
      <trkpt lat="59.959334917" lon="23.4211545013">
        <ele>12.6</ele>
        <time>2012-03-11T13:27:18Z</time>
      </trkpt>
      <trkpt lat="59.9592736453" lon="23.4210986778">
        <ele>13</ele>
        <time>2012-03-11T13:27:22Z</time>
      </trkpt>
      <trkpt lat="59.9592381061" lon="23.4211192135">
        <ele>13.2</ele>
        <time>2012-03-11T13:27:25Z</time>
      </trkpt>
      <trkpt lat="59.9591687877" lon="23.4211338818">
        <ele>13.6</ele>
        <time>2012-03-11T13:27:30Z</time>
      </trkpt>
      <trkpt lat="59.9591559634" lon="23.4211500589">
        <ele>13.8</ele>
        <time>2012-03-11T13:27:31Z</time>
      </trkpt>
      <trkpt lat="59.9590936859" lon="23.4212163597">
        <ele>14.6</ele>
        <time>2012-03-11T13:27:35Z</time>
      </trkpt>
      <trkpt lat="59.9590848849" lon="23.4212335426">
        <ele>14.8</ele>
        <time>2012-03-11T13:27:36Z</time>
      </trkpt>
      <trkpt lat="59.9590197576" lon="23.4212565928">
        <ele>15.2</ele>
        <time>2012-03-11T13:27:40Z</time>
      </trkpt>
      <trkpt lat="59.958948679" lon="23.4212875221">
        <ele>15.6</ele>
        <time>2012-03-11T13:27:45Z</time>
      </trkpt>
      <trkpt lat="59.9589284787" lon="23.4213049564">
        <ele>16.4</ele>
        <time>2012-03-11T13:27:55Z</time>
      </trkpt>
      <trkpt lat="59.9588563943" lon="23.4213935531">
        <ele>17.2</ele>
        <time>2012-03-11T13:28:00Z</time>
      </trkpt>
      <trkpt lat="59.9587681329" lon="23.4215054515">
        <ele>17.6</ele>
        <time>2012-03-11T13:28:05Z</time>
      </trkpt>
      <trkpt lat="59.958684733" lon="23.4216319343">
        <ele>17.8</ele>
        <time>2012-03-11T13:28:10Z</time>
      </trkpt>
      <trkpt lat="59.9586307536" lon="23.4217684755">
        <ele>18</ele>
        <time>2012-03-11T13:28:13Z</time>
      </trkpt>
      <trkpt lat="59.9585871677" lon="23.4219961279">
        <ele>18</ele>
        <time>2012-03-11T13:28:18Z</time>
      </trkpt>
      <trkpt lat="59.9585808813" lon="23.4220520351">
        <ele>18</ele>
        <time>2012-03-11T13:28:19Z</time>
      </trkpt>
      <trkpt lat="59.9587049334" lon="23.4224117025">
        <ele>17.2</ele>
        <time>2012-03-11T13:28:31Z</time>
      </trkpt>
      <trkpt lat="59.9588340147" lon="23.4225601459">
        <ele>16.6</ele>
        <time>2012-03-11T13:28:38Z</time>
      </trkpt>
      <trkpt lat="59.9589180851" lon="23.4226228425">
        <ele>16.4</ele>
        <time>2012-03-11T13:28:43Z</time>
      </trkpt>
      <trkpt lat="59.9589868167" lon="23.4227142052">
        <ele>16.4</ele>
        <time>2012-03-11T13:28:48Z</time>
      </trkpt>
      <trkpt lat="59.9590412152" lon="23.4227803384">
        <ele>16.2</ele>
        <time>2012-03-11T13:28:51Z</time>
      </trkpt>
      <trkpt lat="59.9591513534" lon="23.4228627325">
        <ele>16.2</ele>
        <time>2012-03-11T13:28:56Z</time>
      </trkpt>
      <trkpt lat="59.959163591" lon="23.4228725393">
        <ele>16.2</ele>
        <time>2012-03-11T13:28:57Z</time>
      </trkpt>
      <trkpt lat="59.9592148882" lon="23.4229304583">
        <ele>15.6</ele>
        <time>2012-03-11T13:29:00Z</time>
      </trkpt>
      <trkpt lat="59.9592817758" lon="23.423136653">
        <ele>15</ele>
        <time>2012-03-11T13:29:05Z</time>
      </trkpt>
      <trkpt lat="59.9592992939" lon="23.4231762156">
        <ele>14.8</ele>
        <time>2012-03-11T13:29:06Z</time>
      </trkpt>
      <trkpt lat="59.9593764912" lon="23.4233317836">
        <ele>14.6</ele>
        <time>2012-03-11T13:29:11Z</time>
      </trkpt>
      <trkpt lat="59.9594104379" lon="23.4235684047">
        <ele>14.4</ele>
        <time>2012-03-11T13:29:17Z</time>
      </trkpt>
      <trkpt lat="59.9594155509" lon="23.4236024352">
        <ele>14.4</ele>
        <time>2012-03-11T13:29:18Z</time>
      </trkpt>
      <trkpt lat="59.9595075841" lon="23.4239164212">
        <ele>14.2</ele>
        <time>2012-03-11T13:29:27Z</time>
      </trkpt>
      <trkpt lat="59.9595138706" lon="23.4239536368">
        <ele>14.2</ele>
        <time>2012-03-11T13:29:28Z</time>
      </trkpt>
      <trkpt lat="59.9595179777" lon="23.424185564">
        <ele>14.4</ele>
        <time>2012-03-11T13:29:34Z</time>
      </trkpt>
      <trkpt lat="59.9595273654" lon="23.4242226958">
        <ele>14.4</ele>
        <time>2012-03-11T13:29:35Z</time>
      </trkpt>
      <trkpt lat="59.959509512" lon="23.4246519329">
        <ele>15.6</ele>
        <time>2012-03-11T13:29:45Z</time>
      </trkpt>
      <trkpt lat="59.9595232583" lon="23.4248738018">
        <ele>15.8</ele>
        <time>2012-03-11T13:29:50Z</time>
      </trkpt>
      <trkpt lat="59.9595240127" lon="23.4249100116">
        <ele>15.8</ele>
        <time>2012-03-11T13:29:51Z</time>
      </trkpt>
      <trkpt lat="59.9595169719" lon="23.4251559365">
        <ele>16</ele>
        <time>2012-03-11T13:29:56Z</time>
      </trkpt>
      <trkpt lat="59.9595875475" lon="23.4253666575">
        <ele>16</ele>
        <time>2012-03-11T13:30:02Z</time>
      </trkpt>
      <trkpt lat="59.9596238411" lon="23.4254535778">
        <ele>16</ele>
        <time>2012-03-11T13:30:05Z</time>
      </trkpt>
      <trkpt lat="59.9596737134" lon="23.4256036976">
        <ele>16</ele>
        <time>2012-03-11T13:30:10Z</time>
      </trkpt>
      <trkpt lat="59.9597098394" lon="23.4256818169">
        <ele>16</ele>
        <time>2012-03-11T13:30:13Z</time>
      </trkpt>
      <trkpt lat="59.9597508269" lon="23.4257288394">
        <ele>16.2</ele>
        <time>2012-03-11T13:30:16Z</time>
      </trkpt>
      <trkpt lat="59.9597896351" lon="23.4257741855">
        <ele>16.2</ele>
        <time>2012-03-11T13:30:19Z</time>
      </trkpt>
      <trkpt lat="59.9598010345" lon="23.4257916198">
        <ele>16.2</ele>
        <time>2012-03-11T13:30:20Z</time>
      </trkpt>
      <trkpt lat="59.9598863622" lon="23.4259219584">
        <ele>16.2</ele>
        <time>2012-03-11T13:30:26Z</time>
      </trkpt>
      <trkpt lat="59.9599640624" lon="23.4260504529">
        <ele>16.2</ele>
        <time>2012-03-11T13:30:31Z</time>
      </trkpt>
      <trkpt lat="59.9600705964" lon="23.4262276463">
        <ele>15.2</ele>
        <time>2012-03-11T13:30:38Z</time>
      </trkpt>
      <trkpt lat="59.9600862705" lon="23.4262535463">
        <ele>15</ele>
        <time>2012-03-11T13:30:39Z</time>
      </trkpt>
      <trkpt lat="59.9601519008" lon="23.4263321686">
        <ele>14.8</ele>
        <time>2012-03-11T13:30:43Z</time>
      </trkpt>
      <trkpt lat="59.9602297686" lon="23.4264773431">
        <ele>14.6</ele>
        <time>2012-03-11T13:30:48Z</time>
      </trkpt>
      <trkpt lat="59.9602473706" lon="23.4265150616">
        <ele>14.4</ele>
        <time>2012-03-11T13:30:49Z</time>
      </trkpt>
      <trkpt lat="59.9603570059" lon="23.4266255351">
        <ele>14.2</ele>
        <time>2012-03-11T13:30:55Z</time>
      </trkpt>
      <trkpt lat="59.9604489553" lon="23.4266911653">
        <ele>14.2</ele>
        <time>2012-03-11T13:30:59Z</time>
      </trkpt>
      <trkpt lat="59.9604665573" lon="23.4266905786">
        <ele>14.2</ele>
        <time>2012-03-11T13:31:00Z</time>
      </trkpt>
      <trkpt lat="59.960549119" lon="23.4266438914">
        <ele>13.6</ele>
        <time>2012-03-11T13:31:04Z</time>
      </trkpt>
      <trkpt lat="59.9605724207" lon="23.4266422989">
        <ele>13.4</ele>
        <time>2012-03-11T13:31:05Z</time>
      </trkpt>
      <trkpt lat="59.9606559883" lon="23.4266986252">
        <ele>13</ele>
        <time>2012-03-11T13:31:09Z</time>
      </trkpt>
      <trkpt lat="59.9607043518" lon="23.4266205059">
        <ele>12.6</ele>
        <time>2012-03-11T13:31:13Z</time>
      </trkpt>
      <trkpt lat="59.9607691439" lon="23.4265772553">
        <ele>12.4</ele>
        <time>2012-03-11T13:31:17Z</time>
      </trkpt>
      <trkpt lat="59.9608530467" lon="23.4265442306">
        <ele>12.2</ele>
        <time>2012-03-11T13:31:21Z</time>
      </trkpt>
      <trkpt lat="59.9610477583" lon="23.4264511077">
        <ele>12</ele>
        <time>2012-03-11T13:31:31Z</time>
      </trkpt>
      <trkpt lat="59.9611693796" lon="23.4262892532">
        <ele>11.4</ele>
        <time>2012-03-11T13:31:38Z</time>
      </trkpt>
      <trkpt lat="59.9612179947" lon="23.4261835575">
        <ele>11</ele>
        <time>2012-03-11T13:31:41Z</time>
      </trkpt>
      <trkpt lat="59.9612905819" lon="23.4260051906">
        <ele>10.6</ele>
        <time>2012-03-11T13:31:46Z</time>
      </trkpt>
      <trkpt lat="59.9613730598" lon="23.4258202021">
        <ele>10.2</ele>
        <time>2012-03-11T13:31:51Z</time>
      </trkpt>
      <trkpt lat="59.9615008838" lon="23.4255839164">
        <ele>9</ele>
        <time>2012-03-11T13:31:59Z</time>
      </trkpt>
      <trkpt lat="59.9615484092" lon="23.4255078925">
        <ele>8.6</ele>
        <time>2012-03-11T13:32:02Z</time>
      </trkpt>
      <trkpt lat="59.9616092617" lon="23.425373363">
        <ele>8.4</ele>
        <time>2012-03-11T13:32:07Z</time>
      </trkpt>
      <trkpt lat="59.961675814" lon="23.4253921385">
        <ele>8.2</ele>
        <time>2012-03-11T13:32:11Z</time>
      </trkpt>
      <trkpt lat="59.9616919073" lon="23.4253820802">
        <ele>8.2</ele>
        <time>2012-03-11T13:32:12Z</time>
      </trkpt>
      <trkpt lat="59.9618032189" lon="23.4252814136">
        <ele>8</ele>
        <time>2012-03-11T13:32:17Z</time>
      </trkpt>
      <trkpt lat="59.9618260177" lon="23.4252607103">
        <ele>8</ele>
        <time>2012-03-11T13:32:18Z</time>
      </trkpt>
      <trkpt lat="59.9620207292" lon="23.4252550106">
        <ele>8</ele>
        <time>2012-03-11T13:32:26Z</time>
      </trkpt>
      <trkpt lat="59.9622002695" lon="23.4252537533">
        <ele>7</ele>
        <time>2012-03-11T13:32:33Z</time>
      </trkpt>
      <trkpt lat="59.9623276744" lon="23.4252538371">
        <ele>6.4</ele>
        <time>2012-03-11T13:32:38Z</time>
      </trkpt>
      <trkpt lat="59.9625248167" lon="23.4252335529">
        <ele>6</ele>
        <time>2012-03-11T13:32:45Z</time>
      </trkpt>
      <trkpt lat="59.9627002499" lon="23.4252253387">
        <ele>6</ele>
        <time>2012-03-11T13:32:51Z</time>
      </trkpt>
      <trkpt lat="59.9628605118" lon="23.4252258416">
        <ele>5.8</ele>
        <time>2012-03-11T13:32:57Z</time>
      </trkpt>
      <trkpt lat="59.9629630224" lon="23.4252399232">
        <ele>6</ele>
        <time>2012-03-11T13:33:02Z</time>
      </trkpt>
      <trkpt lat="59.9630571512" lon="23.4252708524">
        <ele>6.8</ele>
        <time>2012-03-11T13:33:07Z</time>
      </trkpt>
      <trkpt lat="59.9631687142" lon="23.4252855207">
        <ele>7.2</ele>
        <time>2012-03-11T13:33:13Z</time>
      </trkpt>
      <trkpt lat="59.9632662796" lon="23.4252517417">
        <ele>7.4</ele>
        <time>2012-03-11T13:33:18Z</time>
      </trkpt>
      <trkpt lat="59.9633492604" lon="23.4251755502">
        <ele>7.6</ele>
        <time>2012-03-11T13:33:23Z</time>
      </trkpt>
      <trkpt lat="59.9634259548" lon="23.4251014542">
        <ele>7.6</ele>
        <time>2012-03-11T13:33:28Z</time>
      </trkpt>
      <trkpt lat="59.963456381" lon="23.4250750512">
        <ele>7.8</ele>
        <time>2012-03-11T13:33:30Z</time>
      </trkpt>
      <trkpt lat="59.9636188223" lon="23.4250174676">
        <ele>9.2</ele>
        <time>2012-03-11T13:33:39Z</time>
      </trkpt>
      <trkpt lat="59.9637881367" lon="23.4250017934">
        <ele>10.6</ele>
        <time>2012-03-11T13:33:47Z</time>
      </trkpt>
      <trkpt lat="59.9638814272" lon="23.4250126899">
        <ele>11.6</ele>
        <time>2012-03-11T13:33:52Z</time>
      </trkpt>
      <trkpt lat="59.9640044735" lon="23.4250167132">
        <ele>12.8</ele>
        <time>2012-03-11T13:33:58Z</time>
      </trkpt>
      <trkpt lat="59.9640992728" lon="23.4249818445">
        <ele>13.2</ele>
        <time>2012-03-11T13:34:03Z</time>
      </trkpt>
      <trkpt lat="59.9642357301" lon="23.424943623">
        <ele>13.6</ele>
        <time>2012-03-11T13:34:09Z</time>
      </trkpt>
      <trkpt lat="59.9642888714" lon="23.4249126938">
        <ele>13.6</ele>
        <time>2012-03-11T13:34:11Z</time>
      </trkpt>
      <trkpt lat="59.9643972493" lon="23.4247919106">
        <ele>13.8</ele>
        <time>2012-03-11T13:34:17Z</time>
      </trkpt>
      <trkpt lat="59.9645974929" lon="23.4247028948">
        <ele>14.2</ele>
        <time>2012-03-11T13:34:27Z</time>
      </trkpt>
      <trkpt lat="59.9646128318" lon="23.4247058285">
        <ele>14.4</ele>
        <time>2012-03-11T13:34:28Z</time>
      </trkpt>
      <trkpt lat="59.9646745226" lon="23.4247049065">
        <ele>14.8</ele>
        <time>2012-03-11T13:34:31Z</time>
      </trkpt>
      <trkpt lat="59.9648274923" lon="23.4247632445">
        <ele>15.4</ele>
        <time>2012-03-11T13:34:38Z</time>
      </trkpt>
      <trkpt lat="59.9649398935" lon="23.4248680183">
        <ele>15.6</ele>
        <time>2012-03-11T13:34:44Z</time>
      </trkpt>
      <trkpt lat="59.9650447511" lon="23.4249598839">
        <ele>15.8</ele>
        <time>2012-03-11T13:34:49Z</time>
      </trkpt>
      <trkpt lat="59.9651537158" lon="23.4250191439">
        <ele>15.8</ele>
        <time>2012-03-11T13:34:55Z</time>
      </trkpt>
      <trkpt lat="59.9652903408" lon="23.4250620593">
        <ele>16</ele>
        <time>2012-03-11T13:35:01Z</time>
      </trkpt>
      <trkpt lat="59.9653449069" lon="23.42508578">
        <ele>16</ele>
        <time>2012-03-11T13:35:04Z</time>
      </trkpt>
      <trkpt lat="59.9654635108" lon="23.4251335569">
        <ele>16</ele>
        <time>2012-03-11T13:35:10Z</time>
      </trkpt>
      <trkpt lat="59.9655939332" lon="23.4251439504">
        <ele>16</ele>
        <time>2012-03-11T13:35:16Z</time>
      </trkpt>
      <trkpt lat="59.9656232698" lon="23.4251405138">
        <ele>16</ele>
        <time>2012-03-11T13:35:17Z</time>
      </trkpt>
      <trkpt lat="59.9657471543" lon="23.4251592893">
        <ele>16</ele>
        <time>2012-03-11T13:35:23Z</time>
      </trkpt>
      <trkpt lat="59.9658208312" lon="23.4251863628">
        <ele>16</ele>
        <time>2012-03-11T13:35:28Z</time>
      </trkpt>
      <trkpt lat="59.9660428678" lon="23.4252065632">
        <ele>16</ele>
        <time>2012-03-11T13:35:39Z</time>
      </trkpt>
      <trkpt lat="59.9661494017" lon="23.425199271">
        <ele>16</ele>
        <time>2012-03-11T13:35:45Z</time>
      </trkpt>
      <trkpt lat="59.966191395" lon="23.4251902185">
        <ele>16</ele>
        <time>2012-03-11T13:35:47Z</time>
      </trkpt>
      <trkpt lat="59.966305808" lon="23.4251986004">
        <ele>16</ele>
        <time>2012-03-11T13:35:53Z</time>
      </trkpt>
      <trkpt lat="59.9664001881" lon="23.425217292">
        <ele>15.2</ele>
        <time>2012-03-11T13:35:57Z</time>
      </trkpt>
      <trkpt lat="59.9664187121" lon="23.4252404261">
        <ele>15.2</ele>
        <time>2012-03-11T13:35:58Z</time>
      </trkpt>
      <trkpt lat="59.9664272617" lon="23.4253706808">
        <ele>14.8</ele>
        <time>2012-03-11T13:36:01Z</time>
      </trkpt>
      <trkpt lat="59.9664228193" lon="23.4254115007">
        <ele>14.8</ele>
        <time>2012-03-11T13:36:02Z</time>
      </trkpt>
      <trkpt lat="59.966405804" lon="23.4256949765">
        <ele>14.4</ele>
        <time>2012-03-11T13:36:09Z</time>
      </trkpt>
      <trkpt lat="59.9664135154" lon="23.4258917835">
        <ele>14.2</ele>
        <time>2012-03-11T13:36:13Z</time>
      </trkpt>
      <trkpt lat="59.9664147727" lon="23.4261141553">
        <ele>14</ele>
        <time>2012-03-11T13:36:18Z</time>
      </trkpt>
      <trkpt lat="59.9664187121" lon="23.4263502735">
        <ele>14</ele>
        <time>2012-03-11T13:36:23Z</time>
      </trkpt>
      <trkpt lat="59.9664416786" lon="23.4266736472">
        <ele>14</ele>
        <time>2012-03-11T13:36:29Z</time>
      </trkpt>
      <trkpt lat="59.9664482164" lon="23.4269247689">
        <ele>14</ele>
        <time>2012-03-11T13:36:34Z</time>
      </trkpt>
      <trkpt lat="59.9664180416" lon="23.4271355737">
        <ele>14</ele>
        <time>2012-03-11T13:36:38Z</time>
      </trkpt>
      <trkpt lat="59.9663825023" lon="23.4273288603">
        <ele>14</ele>
        <time>2012-03-11T13:36:43Z</time>
      </trkpt>
      <trkpt lat="59.9663514055" lon="23.4275034553">
        <ele>14</ele>
        <time>2012-03-11T13:36:47Z</time>
      </trkpt>
      <trkpt lat="59.9662846017" lon="23.4278479514">
        <ele>14</ele>
        <time>2012-03-11T13:36:54Z</time>
      </trkpt>
      <trkpt lat="59.9662166245" lon="23.4280264858">
        <ele>14</ele>
        <time>2012-03-11T13:36:59Z</time>
      </trkpt>
      <trkpt lat="59.966096931" lon="23.4282395537">
        <ele>14</ele>
        <time>2012-03-11T13:37:06Z</time>
      </trkpt>
      <trkpt lat="59.9659897265" lon="23.4284183397">
        <ele>14</ele>
        <time>2012-03-11T13:37:11Z</time>
      </trkpt>
      <trkpt lat="59.9659707834" lon="23.4284472572">
        <ele>14</ele>
        <time>2012-03-11T13:37:12Z</time>
      </trkpt>
      <trkpt lat="59.9658856233" lon="23.4285995563">
        <ele>14</ele>
        <time>2012-03-11T13:37:17Z</time>
      </trkpt>
      <trkpt lat="59.9658034807" lon="23.4287634225">
        <ele>14</ele>
        <time>2012-03-11T13:37:23Z</time>
      </trkpt>
      <trkpt lat="59.9657270378" lon="23.4289232653">
        <ele>14</ele>
        <time>2012-03-11T13:37:27Z</time>
      </trkpt>
      <trkpt lat="59.965703317" lon="23.4289919131">
        <ele>14</ele>
        <time>2012-03-11T13:37:29Z</time>
      </trkpt>
      <trkpt lat="59.9656341663" lon="23.4292639057">
        <ele>14</ele>
        <time>2012-03-11T13:37:36Z</time>
      </trkpt>
      <trkpt lat="59.9656041591" lon="23.4294188871">
        <ele>14.2</ele>
        <time>2012-03-11T13:37:41Z</time>
      </trkpt>
      <trkpt lat="59.9655959448" lon="23.429458282">
        <ele>14.4</ele>
        <time>2012-03-11T13:37:42Z</time>
      </trkpt>
      <trkpt lat="59.9655438094" lon="23.4297485472">
        <ele>15.2</ele>
        <time>2012-03-11T13:37:49Z</time>
      </trkpt>
      <trkpt lat="59.9655165683" lon="23.4300046981">
        <ele>15.6</ele>
        <time>2012-03-11T13:37:54Z</time>
      </trkpt>
      <trkpt lat="59.9654904167" lon="23.4302455939">
        <ele>16.6</ele>
        <time>2012-03-11T13:37:59Z</time>
      </trkpt>
      <trkpt lat="59.9654878183" lon="23.4302865813">
        <ele>16.8</ele>
        <time>2012-03-11T13:38:00Z</time>
      </trkpt>
      <trkpt lat="59.9654139738" lon="23.4305681294">
        <ele>17.8</ele>
        <time>2012-03-11T13:38:06Z</time>
      </trkpt>
      <trkpt lat="59.9653283108" lon="23.4308715541">
        <ele>18.8</ele>
        <time>2012-03-11T13:38:12Z</time>
      </trkpt>
      <trkpt lat="59.9652801987" lon="23.4310423773">
        <ele>19.4</ele>
        <time>2012-03-11T13:38:17Z</time>
      </trkpt>
      <trkpt lat="59.9652220283" lon="23.4312861229">
        <ele>19.8</ele>
        <time>2012-03-11T13:38:23Z</time>
      </trkpt>
      <trkpt lat="59.9652215254" lon="23.4314850254">
        <ele>20</ele>
        <time>2012-03-11T13:38:28Z</time>
      </trkpt>
      <trkpt lat="59.9652220283" lon="23.4315181339">
        <ele>20</ele>
        <time>2012-03-11T13:38:29Z</time>
      </trkpt>
      <trkpt lat="59.965268464" lon="23.431629697">
        <ele>20</ele>
        <time>2012-03-11T13:38:32Z</time>
      </trkpt>
      <trkpt lat="59.9653586533" lon="23.4318348859">
        <ele>20</ele>
        <time>2012-03-11T13:38:38Z</time>
      </trkpt>
      <trkpt lat="59.9654445677" lon="23.4319679067">
        <ele>19.8</ele>
        <time>2012-03-11T13:38:43Z</time>
      </trkpt>
      <trkpt lat="59.9656961085" lon="23.4323593414">
        <ele>18.6</ele>
        <time>2012-03-11T13:38:57Z</time>
      </trkpt>
      <trkpt lat="59.9657835318" lon="23.4325024204">
        <ele>18.4</ele>
        <time>2012-03-11T13:39:02Z</time>
      </trkpt>
      <trkpt lat="59.965855197" lon="23.4326950365">
        <ele>18</ele>
        <time>2012-03-11T13:39:08Z</time>
      </trkpt>
      <trkpt lat="59.9658577954" lon="23.4329631735">
        <ele>17</ele>
        <time>2012-03-11T13:39:14Z</time>
      </trkpt>
      <trkpt lat="59.9658625731" lon="23.4330526083">
        <ele>16.8</ele>
        <time>2012-03-11T13:39:16Z</time>
      </trkpt>
      <trkpt lat="59.9658591365" lon="23.4332033987">
        <ele>16.6</ele>
        <time>2012-03-11T13:39:19Z</time>
      </trkpt>
      <trkpt lat="59.96586031" lon="23.4333617328">
        <ele>16.4</ele>
        <time>2012-03-11T13:39:23Z</time>
      </trkpt>
      <trkpt lat="59.9658368406" lon="23.4336787363">
        <ele>16.2</ele>
        <time>2012-03-11T13:39:30Z</time>
      </trkpt>
      <trkpt lat="59.9658381818" lon="23.4338591148">
        <ele>16.2</ele>
        <time>2012-03-11T13:39:34Z</time>
      </trkpt>
      <trkpt lat="59.9658335717" lon="23.4339047961">
        <ele>16.2</ele>
        <time>2012-03-11T13:39:35Z</time>
      </trkpt>
      <trkpt lat="59.9658188196" lon="23.4341190375">
        <ele>16</ele>
        <time>2012-03-11T13:39:40Z</time>
      </trkpt>
      <trkpt lat="59.9658095157" lon="23.4343994959">
        <ele>16</ele>
        <time>2012-03-11T13:39:46Z</time>
      </trkpt>
      <trkpt lat="59.9658220047" lon="23.4346530483">
        <ele>16</ele>
        <time>2012-03-11T13:39:51Z</time>
      </trkpt>
      <trkpt lat="59.9658544426" lon="23.4349311598">
        <ele>16</ele>
        <time>2012-03-11T13:39:57Z</time>
      </trkpt>
      <trkpt lat="59.9658840307" lon="23.435162584">
        <ele>16</ele>
        <time>2012-03-11T13:40:02Z</time>
      </trkpt>
      <trkpt lat="59.9658895628" lon="23.4352087683">
        <ele>16</ele>
        <time>2012-03-11T13:40:03Z</time>
      </trkpt>
      <trkpt lat="59.9659142056" lon="23.4354372589">
        <ele>16</ele>
        <time>2012-03-11T13:40:08Z</time>
      </trkpt>
      <trkpt lat="59.9659242639" lon="23.4356252649">
        <ele>16</ele>
        <time>2012-03-11T13:40:12Z</time>
      </trkpt>
      <trkpt lat="59.9659281195" lon="23.4358577788">
        <ele>16</ele>
        <time>2012-03-11T13:40:17Z</time>
      </trkpt>
      <trkpt lat="59.9659260241" lon="23.4359087408">
        <ele>16</ele>
        <time>2012-03-11T13:40:18Z</time>
      </trkpt>
      <trkpt lat="59.9659240124" lon="23.436441662">
        <ele>16</ele>
        <time>2012-03-11T13:40:29Z</time>
      </trkpt>
      <trkpt lat="59.9659373396" lon="23.4367557318">
        <ele>16</ele>
        <time>2012-03-11T13:40:36Z</time>
      </trkpt>
      <trkpt lat="59.965950583" lon="23.4368687198">
        <ele>16</ele>
        <time>2012-03-11T13:40:39Z</time>
      </trkpt>
      <trkpt lat="59.965967263" lon="23.4371298998">
        <ele>15.6</ele>
        <time>2012-03-11T13:40:45Z</time>
      </trkpt>
      <trkpt lat="59.9659567018" lon="23.4373189116">
        <ele>15</ele>
        <time>2012-03-11T13:40:49Z</time>
      </trkpt>
      <trkpt lat="59.9659717054" lon="23.4374932551">
        <ele>14.6</ele>
        <time>2012-03-11T13:40:53Z</time>
      </trkpt>
      <trkpt lat="59.9659688556" lon="23.4376743042">
        <ele>14.4</ele>
        <time>2012-03-11T13:40:57Z</time>
      </trkpt>
      <trkpt lat="59.9659730465" lon="23.4379342269">
        <ele>14.2</ele>
        <time>2012-03-11T13:41:03Z</time>
      </trkpt>
      <trkpt lat="59.9660150398" lon="23.4381678305">
        <ele>14</ele>
        <time>2012-03-11T13:41:08Z</time>
      </trkpt>
      <trkpt lat="59.9660712824" lon="23.4383572614">
        <ele>14</ele>
        <time>2012-03-11T13:41:13Z</time>
      </trkpt>
      <trkpt lat="59.9660753895" lon="23.4383982489">
        <ele>14</ele>
        <time>2012-03-11T13:41:14Z</time>
      </trkpt>
      <trkpt lat="59.966131213" lon="23.4386005041">
        <ele>14</ele>
        <time>2012-03-11T13:41:19Z</time>
      </trkpt>
      <trkpt lat="59.9661366612" lon="23.438645934">
        <ele>14</ele>
        <time>2012-03-11T13:41:20Z</time>
      </trkpt>
      <trkpt lat="59.966132135" lon="23.43899789">
        <ele>13.8</ele>
        <time>2012-03-11T13:41:27Z</time>
      </trkpt>
      <trkpt lat="59.9661541794" lon="23.4392355169">
        <ele>13.8</ele>
        <time>2012-03-11T13:41:32Z</time>
      </trkpt>
      <trkpt lat="59.9661794927" lon="23.4394506803">
        <ele>13.8</ele>
        <time>2012-03-11T13:41:37Z</time>
      </trkpt>
      <trkpt lat="59.9661850248" lon="23.4394852137">
        <ele>13.8</ele>
        <time>2012-03-11T13:41:38Z</time>
      </trkpt>
      <trkpt lat="59.9662097514" lon="23.439644386">
        <ele>13.8</ele>
        <time>2012-03-11T13:41:42Z</time>
      </trkpt>
      <trkpt lat="59.9662165407" lon="23.4399048954">
        <ele>14.4</ele>
        <time>2012-03-11T13:41:48Z</time>
      </trkpt>
      <trkpt lat="59.9662189715" lon="23.4400856092">
        <ele>15</ele>
        <time>2012-03-11T13:41:52Z</time>
      </trkpt>
      <trkpt lat="59.9662007827" lon="23.4403309474">
        <ele>16</ele>
        <time>2012-03-11T13:41:58Z</time>
      </trkpt>
      <trkpt lat="59.9661869526" lon="23.4405605276">
        <ele>16.8</ele>
        <time>2012-03-11T13:42:03Z</time>
      </trkpt>
      <trkpt lat="59.9661882937" lon="23.4405958993">
        <ele>16.8</ele>
        <time>2012-03-11T13:42:04Z</time>
      </trkpt>
      <trkpt lat="59.9661742121" lon="23.4407240585">
        <ele>17.2</ele>
        <time>2012-03-11T13:42:07Z</time>
      </trkpt>
      <trkpt lat="59.9661415227" lon="23.4410169221">
        <ele>17.6</ele>
        <time>2012-03-11T13:42:13Z</time>
      </trkpt>
      <trkpt lat="59.9661235854" lon="23.4412307444">
        <ele>18</ele>
        <time>2012-03-11T13:42:18Z</time>
      </trkpt>
      <trkpt lat="59.9661140301" lon="23.4414507692">
        <ele>18.8</ele>
        <time>2012-03-11T13:42:23Z</time>
      </trkpt>
      <trkpt lat="59.966143702" lon="23.4418062456">
        <ele>19.4</ele>
        <time>2012-03-11T13:42:31Z</time>
      </trkpt>
      <trkpt lat="59.9662208993" lon="23.4422617181">
        <ele>19.8</ele>
        <time>2012-03-11T13:42:42Z</time>
      </trkpt>
      <trkpt lat="59.9662530858" lon="23.4424147716">
        <ele>19.8</ele>
        <time>2012-03-11T13:42:46Z</time>
      </trkpt>
      <trkpt lat="59.9662985995" lon="23.4425994248">
        <ele>19.8</ele>
        <time>2012-03-11T13:42:51Z</time>
      </trkpt>
      <trkpt lat="59.9663695104" lon="23.4428109001">
        <ele>19.4</ele>
        <time>2012-03-11T13:42:56Z</time>
      </trkpt>
      <trkpt lat="59.9664476297" lon="23.4430135745">
        <ele>18.8</ele>
        <time>2012-03-11T13:43:02Z</time>
      </trkpt>
      <trkpt lat="59.9665359749" lon="23.4431236288">
        <ele>18.4</ele>
        <time>2012-03-11T13:43:06Z</time>
      </trkpt>
      <trkpt lat="59.9666591889" lon="23.4432860701">
        <ele>18.2</ele>
        <time>2012-03-11T13:43:12Z</time>
      </trkpt>
      <trkpt lat="59.9667561674" lon="23.4434070209">
        <ele>18</ele>
        <time>2012-03-11T13:43:17Z</time>
      </trkpt>
      <trkpt lat="59.9668116556" lon="23.4435047538">
        <ele>18</ele>
        <time>2012-03-11T13:43:21Z</time>
      </trkpt>
      <trkpt lat="59.9670662977" lon="23.443817734">
        <ele>18</ele>
        <time>2012-03-11T13:43:33Z</time>
      </trkpt>
      <trkpt lat="59.9670853247" lon="23.4438565422">
        <ele>18</ele>
        <time>2012-03-11T13:43:34Z</time>
      </trkpt>
      <trkpt lat="59.9671306707" lon="23.4439562868">
        <ele>18</ele>
        <time>2012-03-11T13:43:37Z</time>
      </trkpt>
      <trkpt lat="59.967153721" lon="23.4439841147">
        <ele>18</ele>
        <time>2012-03-11T13:43:38Z</time>
      </trkpt>
      <trkpt lat="59.9672414795" lon="23.4442371643">
        <ele>17.8</ele>
        <time>2012-03-11T13:43:44Z</time>
      </trkpt>
      <trkpt lat="59.9672517892" lon="23.4442791576">
        <ele>17.6</ele>
        <time>2012-03-11T13:43:45Z</time>
      </trkpt>
      <trkpt lat="59.9672848977" lon="23.4444271819">
        <ele>17</ele>
        <time>2012-03-11T13:43:48Z</time>
      </trkpt>
      <trkpt lat="59.9673411402" lon="23.4447759528">
        <ele>16.4</ele>
        <time>2012-03-11T13:43:55Z</time>
      </trkpt>
      <trkpt lat="59.9673508632" lon="23.445017603">
        <ele>16.2</ele>
        <time>2012-03-11T13:44:00Z</time>
      </trkpt>
      <trkpt lat="59.9673465885" lon="23.4453069461">
        <ele>16</ele>
        <time>2012-03-11T13:44:06Z</time>
      </trkpt>
      <trkpt lat="59.9673374522" lon="23.4455957864">
        <ele>15.8</ele>
        <time>2012-03-11T13:44:12Z</time>
      </trkpt>
      <trkpt lat="59.9673265557" lon="23.4457585629">
        <ele>15.8</ele>
        <time>2012-03-11T13:44:15Z</time>
      </trkpt>
      <trkpt lat="59.9673189282" lon="23.4460316452">
        <ele>15.8</ele>
        <time>2012-03-11T13:44:21Z</time>
      </trkpt>
      <trkpt lat="59.967333848" lon="23.4465545081">
        <ele>15.8</ele>
        <time>2012-03-11T13:44:32Z</time>
      </trkpt>
      <trkpt lat="59.9673628494" lon="23.4467573501">
        <ele>15.8</ele>
        <time>2012-03-11T13:44:37Z</time>
      </trkpt>
      <trkpt lat="59.9674071896" lon="23.4470729287">
        <ele>15.8</ele>
        <time>2012-03-11T13:44:44Z</time>
      </trkpt>
      <trkpt lat="59.9674009032" lon="23.4471115692">
        <ele>15.8</ele>
        <time>2012-03-11T13:44:45Z</time>
      </trkpt>
      <trkpt lat="59.9673158269" lon="23.4473417362">
        <ele>15.8</ele>
        <time>2012-03-11T13:44:51Z</time>
      </trkpt>
      <trkpt lat="59.9672510348" lon="23.4475569834">
        <ele>15.8</ele>
        <time>2012-03-11T13:44:56Z</time>
      </trkpt>
      <trkpt lat="59.9671903499" lon="23.4477425586">
        <ele>15.8</ele>
        <time>2012-03-11T13:45:01Z</time>
      </trkpt>
      <trkpt lat="59.9671281562" lon="23.4479112863">
        <ele>15.8</ele>
        <time>2012-03-11T13:45:06Z</time>
      </trkpt>
      <trkpt lat="59.9670702372" lon="23.4481109432">
        <ele>15.8</ele>
        <time>2012-03-11T13:45:11Z</time>
      </trkpt>
      <trkpt lat="59.9670000807" lon="23.4483301298">
        <ele>15.8</ele>
        <time>2012-03-11T13:45:16Z</time>
      </trkpt>
      <trkpt lat="59.9669157588" lon="23.448553256">
        <ele>15.8</ele>
        <time>2012-03-11T13:45:22Z</time>
      </trkpt>
      <trkpt lat="59.9668368851" lon="23.448777388">
        <ele>15.8</ele>
        <time>2012-03-11T13:45:27Z</time>
      </trkpt>
      <trkpt lat="59.9667648846" lon="23.448959862">
        <ele>15.8</ele>
        <time>2012-03-11T13:45:32Z</time>
      </trkpt>
      <trkpt lat="59.9666419221" lon="23.449207631">
        <ele>15.8</ele>
        <time>2012-03-11T13:45:39Z</time>
      </trkpt>
      <trkpt lat="59.9665369808" lon="23.4494714932">
        <ele>15.8</ele>
        <time>2012-03-11T13:45:46Z</time>
      </trkpt>
      <trkpt lat="59.9664560116" lon="23.4497361097">
        <ele>16.4</ele>
        <time>2012-03-11T13:45:52Z</time>
      </trkpt>
      <trkpt lat="59.9664190474" lon="23.4499728146">
        <ele>17</ele>
        <time>2012-03-11T13:45:57Z</time>
      </trkpt>
      <trkpt lat="59.966427094" lon="23.4500097788">
        <ele>17</ele>
        <time>2012-03-11T13:45:58Z</time>
      </trkpt>
      <trkpt lat="59.9665276768" lon="23.4501415422">
        <ele>17.4</ele>
        <time>2012-03-11T13:46:03Z</time>
      </trkpt>
      <trkpt lat="59.9665532416" lon="23.4501619103">
        <ele>17.4</ele>
        <time>2012-03-11T13:46:04Z</time>
      </trkpt>
      <trkpt lat="59.9666897828" lon="23.4502737248">
        <ele>17.6</ele>
        <time>2012-03-11T13:46:10Z</time>
      </trkpt>
      <trkpt lat="59.9668404055" lon="23.4503638302">
        <ele>17.8</ele>
        <time>2012-03-11T13:46:16Z</time>
      </trkpt>
      <trkpt lat="59.9670087979" lon="23.4504835238">
        <ele>17.8</ele>
        <time>2012-03-11T13:46:23Z</time>
      </trkpt>
      <trkpt lat="59.9671688084" lon="23.4505703603">
        <ele>17.8</ele>
        <time>2012-03-11T13:46:29Z</time>
      </trkpt>
      <trkpt lat="59.9672769349" lon="23.4506727033">
        <ele>17.8</ele>
        <time>2012-03-11T13:46:34Z</time>
      </trkpt>
      <trkpt lat="59.967381541" lon="23.4507511578">
        <ele>17.8</ele>
        <time>2012-03-11T13:46:38Z</time>
      </trkpt>
      <trkpt lat="59.9675355165" lon="23.4508440293">
        <ele>17.8</ele>
        <time>2012-03-11T13:46:44Z</time>
      </trkpt>
      <trkpt lat="59.9676978739" lon="23.4510106615">
        <ele>17.8</ele>
        <time>2012-03-11T13:46:51Z</time>
      </trkpt>
      <trkpt lat="59.9678126221" lon="23.4512368051">
        <ele>17.8</ele>
        <time>2012-03-11T13:46:57Z</time>
      </trkpt>
      <trkpt lat="59.9678943456" lon="23.4514252302">
        <ele>17.8</ele>
        <time>2012-03-11T13:47:02Z</time>
      </trkpt>
      <trkpt lat="59.9680074175" lon="23.451699486">
        <ele>17.8</ele>
        <time>2012-03-11T13:47:09Z</time>
      </trkpt>
      <trkpt lat="59.9680887219" lon="23.4518877435">
        <ele>17.8</ele>
        <time>2012-03-11T13:47:14Z</time>
      </trkpt>
      <trkpt lat="59.9681906458" lon="23.4520416352">
        <ele>17.8</ele>
        <time>2012-03-11T13:47:19Z</time>
      </trkpt>
      <trkpt lat="59.9682062361" lon="23.4520749951">
        <ele>17.8</ele>
        <time>2012-03-11T13:47:20Z</time>
      </trkpt>
      <trkpt lat="59.9682535101" lon="23.4522015618">
        <ele>17.8</ele>
        <time>2012-03-11T13:47:24Z</time>
      </trkpt>
      <trkpt lat="59.9683210682" lon="23.4524113608">
        <ele>17.8</ele>
        <time>2012-03-11T13:47:30Z</time>
      </trkpt>
      <trkpt lat="59.9684250037" lon="23.452647898">
        <ele>17.8</ele>
        <time>2012-03-11T13:47:36Z</time>
      </trkpt>
      <trkpt lat="59.9684959146" lon="23.4528557691">
        <ele>17.8</ele>
        <time>2012-03-11T13:47:41Z</time>
      </trkpt>
      <trkpt lat="59.9685804042" lon="23.4530281848">
        <ele>17.8</ele>
        <time>2012-03-11T13:47:46Z</time>
      </trkpt>
      <trkpt lat="59.9686692523" lon="23.4532569268">
        <ele>17.8</ele>
        <time>2012-03-11T13:47:52Z</time>
      </trkpt>
      <trkpt lat="59.9687910413" lon="23.4535279975">
        <ele>17.8</ele>
        <time>2012-03-11T13:47:59Z</time>
      </trkpt>
      <trkpt lat="59.9688863435" lon="23.4537654567">
        <ele>17.8</ele>
        <time>2012-03-11T13:48:05Z</time>
      </trkpt>
      <trkpt lat="59.9689585955" lon="23.4539170015">
        <ele>17.8</ele>
        <time>2012-03-11T13:48:09Z</time>
      </trkpt>
      <trkpt lat="59.9690497067" lon="23.4541540416">
        <ele>17.8</ele>
        <time>2012-03-11T13:48:15Z</time>
      </trkpt>
      <trkpt lat="59.9691504572" lon="23.4544014753">
        <ele>17.8</ele>
        <time>2012-03-11T13:48:21Z</time>
      </trkpt>
      <trkpt lat="59.9692697316" lon="23.4546613142">
        <ele>17.8</ele>
        <time>2012-03-11T13:48:28Z</time>
      </trkpt>
      <trkpt lat="59.9694716516" lon="23.4551120928">
        <ele>17.8</ele>
        <time>2012-03-11T13:48:40Z</time>
      </trkpt>
      <trkpt lat="59.9695638525" lon="23.4553427627">
        <ele>17.8</ele>
        <time>2012-03-11T13:48:46Z</time>
      </trkpt>
      <trkpt lat="59.9696623398" lon="23.4555439283">
        <ele>17.8</ele>
        <time>2012-03-11T13:48:52Z</time>
      </trkpt>
      <trkpt lat="59.9697484219" lon="23.4556382246">
        <ele>17.8</ele>
        <time>2012-03-11T13:48:56Z</time>
      </trkpt>
      <trkpt lat="59.9698872262" lon="23.4556497078">
        <ele>17.8</ele>
        <time>2012-03-11T13:49:02Z</time>
      </trkpt>
      <trkpt lat="59.969906756" lon="23.4556479476">
        <ele>17.8</ele>
        <time>2012-03-11T13:49:03Z</time>
      </trkpt>
      <trkpt lat="59.970050338" lon="23.4556358777">
        <ele>17.8</ele>
        <time>2012-03-11T13:49:09Z</time>
      </trkpt>
      <trkpt lat="59.9701936685" lon="23.4555569202">
        <ele>17.8</ele>
        <time>2012-03-11T13:49:15Z</time>
      </trkpt>
      <trkpt lat="59.9705224904" lon="23.4554019389">
        <ele>17.8</ele>
        <time>2012-03-11T13:49:28Z</time>
      </trkpt>
      <trkpt lat="59.9706869433" lon="23.4554536552">
        <ele>17.8</ele>
        <time>2012-03-11T13:49:34Z</time>
      </trkpt>
      <trkpt lat="59.970857012" lon="23.4555575069">
        <ele>18</ele>
        <time>2012-03-11T13:49:41Z</time>
      </trkpt>
      <trkpt lat="59.9709558346" lon="23.4556643762">
        <ele>18.8</ele>
        <time>2012-03-11T13:49:45Z</time>
      </trkpt>
      <trkpt lat="59.9710019351" lon="23.4557002507">
        <ele>19</ele>
        <time>2012-03-11T13:49:47Z</time>
      </trkpt>
      <trkpt lat="59.9711255681" lon="23.4558155018">
        <ele>19.4</ele>
        <time>2012-03-11T13:49:52Z</time>
      </trkpt>
      <trkpt lat="59.9712932899" lon="23.4559829722">
        <ele>19.8</ele>
        <time>2012-03-11T13:49:59Z</time>
      </trkpt>
      <trkpt lat="59.9714133187" lon="23.4560895899">
        <ele>19.8</ele>
        <time>2012-03-11T13:50:04Z</time>
      </trkpt>
      <trkpt lat="59.9715291566" lon="23.4562177492">
        <ele>20</ele>
        <time>2012-03-11T13:50:09Z</time>
      </trkpt>
      <trkpt lat="59.9716542145" lon="23.4563645163">
        <ele>20.8</ele>
        <time>2012-03-11T13:50:15Z</time>
      </trkpt>
      <trkpt lat="59.9717795239" lon="23.4565080982">
        <ele>21.4</ele>
        <time>2012-03-11T13:50:21Z</time>
      </trkpt>
      <trkpt lat="59.9719532807" lon="23.4566895663">
        <ele>21.8</ele>
        <time>2012-03-11T13:50:29Z</time>
      </trkpt>
      <trkpt lat="59.9720927555" lon="23.4568111039">
        <ele>22</ele>
        <time>2012-03-11T13:50:35Z</time>
      </trkpt>
      <trkpt lat="59.9721655104" lon="23.4570018759">
        <ele>22</ele>
        <time>2012-03-11T13:50:40Z</time>
      </trkpt>
      <trkpt lat="59.9721593916" lon="23.457093071">
        <ele>22</ele>
        <time>2012-03-11T13:50:42Z</time>
      </trkpt>
      <trkpt lat="59.9721144647" lon="23.457287112">
        <ele>22.2</ele>
        <time>2012-03-11T13:50:46Z</time>
      </trkpt>
      <trkpt lat="59.9720373512" lon="23.4575842504">
        <ele>22.2</ele>
        <time>2012-03-11T13:50:52Z</time>
      </trkpt>
      <trkpt lat="59.9719870598" lon="23.4578239727">
        <ele>22.2</ele>
        <time>2012-03-11T13:50:57Z</time>
      </trkpt>
      <trkpt lat="59.9719018159" lon="23.4581372881">
        <ele>22.2</ele>
        <time>2012-03-11T13:51:04Z</time>
      </trkpt>
      <trkpt lat="59.9718376943" lon="23.4583825425">
        <ele>22.2</ele>
        <time>2012-03-11T13:51:10Z</time>
      </trkpt>
      <trkpt lat="59.9717755844" lon="23.4586371008">
        <ele>22.2</ele>
        <time>2012-03-11T13:51:15Z</time>
      </trkpt>
      <trkpt lat="59.971704925" lon="23.4588949281">
        <ele>22.2</ele>
        <time>2012-03-11T13:51:21Z</time>
      </trkpt>
      <trkpt lat="59.9716434857" lon="23.4590841075">
        <ele>22.2</ele>
        <time>2012-03-11T13:51:26Z</time>
      </trkpt>
      <trkpt lat="59.971583136" lon="23.45934973">
        <ele>22.2</ele>
        <time>2012-03-11T13:51:31Z</time>
      </trkpt>
      <trkpt lat="59.9715337666" lon="23.459564558">
        <ele>22.2</ele>
        <time>2012-03-11T13:51:36Z</time>
      </trkpt>
      <trkpt lat="59.9714781946" lon="23.4597978263">
        <ele>22.2</ele>
        <time>2012-03-11T13:51:41Z</time>
      </trkpt>
      <trkpt lat="59.9714231255" lon="23.4600627782">
        <ele>22.2</ele>
        <time>2012-03-11T13:51:47Z</time>
      </trkpt>
      <trkpt lat="59.9713537234" lon="23.4604153209">
        <ele>22.2</ele>
        <time>2012-03-11T13:51:54Z</time>
      </trkpt>
      <trkpt lat="59.9713108919" lon="23.4606643471">
        <ele>22.2</ele>
        <time>2012-03-11T13:51:59Z</time>
      </trkpt>
      <trkpt lat="59.9712680604" lon="23.4608851264">
        <ele>22.2</ele>
        <time>2012-03-11T13:52:04Z</time>
      </trkpt>
      <trkpt lat="59.9712504584" lon="23.4610301333">
        <ele>22.2</ele>
        <time>2012-03-11T13:52:07Z</time>
      </trkpt>
      <trkpt lat="59.9712015081" lon="23.4612920676">
        <ele>22.8</ele>
        <time>2012-03-11T13:52:13Z</time>
      </trkpt>
      <trkpt lat="59.9711634543" lon="23.4615137689">
        <ele>23.4</ele>
        <time>2012-03-11T13:52:18Z</time>
      </trkpt>
      <trkpt lat="59.9709409148" lon="23.4617990049">
        <ele>24</ele>
        <time>2012-03-11T13:52:29Z</time>
      </trkpt>
      <trkpt lat="59.9707668228" lon="23.4618280063">
        <ele>24.2</ele>
        <time>2012-03-11T13:52:37Z</time>
      </trkpt>
      <trkpt lat="59.9706481351" lon="23.4618820696">
        <ele>24.2</ele>
        <time>2012-03-11T13:52:42Z</time>
      </trkpt>
      <trkpt lat="59.9705228257" lon="23.461963374">
        <ele>24.6</ele>
        <time>2012-03-11T13:52:47Z</time>
      </trkpt>
      <trkpt lat="59.9703614741" lon="23.462141657">
        <ele>25.6</ele>
        <time>2012-03-11T13:52:55Z</time>
      </trkpt>
      <trkpt lat="59.970265669" lon="23.4623064452">
        <ele>26</ele>
        <time>2012-03-11T13:53:00Z</time>
      </trkpt>
      <trkpt lat="59.9701993681" lon="23.462452877">
        <ele>26.8</ele>
        <time>2012-03-11T13:53:04Z</time>
      </trkpt>
      <trkpt lat="59.9701133698" lon="23.4626551322">
        <ele>27.4</ele>
        <time>2012-03-11T13:53:09Z</time>
      </trkpt>
      <trkpt lat="59.9699883957" lon="23.4629039908">
        <ele>28</ele>
        <time>2012-03-11T13:53:16Z</time>
      </trkpt>
      <trkpt lat="59.969757642" lon="23.4631811803">
        <ele>29.4</ele>
        <time>2012-03-11T13:53:26Z</time>
      </trkpt>
      <trkpt lat="59.9696383676" lon="23.4633088366">
        <ele>29.8</ele>
        <time>2012-03-11T13:53:31Z</time>
      </trkpt>
      <trkpt lat="59.9696169937" lon="23.4633330603">
        <ele>29.8</ele>
        <time>2012-03-11T13:53:32Z</time>
      </trkpt>
      <trkpt lat="59.9696192568" lon="23.4635208987">
        <ele>30</ele>
        <time>2012-03-11T13:53:37Z</time>
      </trkpt>
      <trkpt lat="59.9696344281" lon="23.4636158656">
        <ele>30.2</ele>
        <time>2012-03-11T13:53:39Z</time>
      </trkpt>
      <trkpt lat="59.9696530359" lon="23.4637593637">
        <ele>30.2</ele>
        <time>2012-03-11T13:53:42Z</time>
      </trkpt>
      <trkpt lat="59.9696685424" lon="23.4639852559">
        <ele>30.2</ele>
        <time>2012-03-11T13:53:47Z</time>
      </trkpt>
      <trkpt lat="59.9696781816" lon="23.464083408">
        <ele>29.8</ele>
        <time>2012-03-11T13:53:49Z</time>
      </trkpt>
      <trkpt lat="59.9696823726" lon="23.4641772853">
        <ele>29.6</ele>
        <time>2012-03-11T13:53:51Z</time>
      </trkpt>
      <trkpt lat="59.969703914" lon="23.4643224598">
        <ele>29.2</ele>
        <time>2012-03-11T13:53:54Z</time>
      </trkpt>
      <trkpt lat="59.9696992202" lon="23.4643586696">
        <ele>29.2</ele>
        <time>2012-03-11T13:53:55Z</time>
      </trkpt>
      <trkpt lat="59.9697051713" lon="23.4645591646">
        <ele>28</ele>
        <time>2012-03-11T13:53:59Z</time>
      </trkpt>
      <trkpt lat="59.9697045846" lon="23.4646045107">
        <ele>27.8</ele>
        <time>2012-03-11T13:54:00Z</time>
      </trkpt>
      <trkpt lat="59.9697215998" lon="23.4648515253">
        <ele>26.4</ele>
        <time>2012-03-11T13:54:05Z</time>
      </trkpt>
      <trkpt lat="59.9697439795" lon="23.4652183172">
        <ele>24.4</ele>
        <time>2012-03-11T13:54:12Z</time>
      </trkpt>
      <trkpt lat="59.9697645152" lon="23.4655080795">
        <ele>23.4</ele>
        <time>2012-03-11T13:54:18Z</time>
      </trkpt>
      <trkpt lat="59.9697643475" lon="23.4655449599">
        <ele>23.2</ele>
        <time>2012-03-11T13:54:19Z</time>
      </trkpt>
      <trkpt lat="59.9697387827" lon="23.465645878">
        <ele>22.8</ele>
        <time>2012-03-11T13:54:22Z</time>
      </trkpt>
      <trkpt lat="59.9697061771" lon="23.4659790585">
        <ele>22.6</ele>
        <time>2012-03-11T13:54:29Z</time>
      </trkpt>
      <trkpt lat="59.969662256" lon="23.4662719221">
        <ele>22.2</ele>
        <time>2012-03-11T13:54:35Z</time>
      </trkpt>
      <trkpt lat="59.9696685424" lon="23.4665511232">
        <ele>22.2</ele>
        <time>2012-03-11T13:54:41Z</time>
      </trkpt>
      <trkpt lat="59.9696607472" lon="23.4668011552">
        <ele>22.2</ele>
        <time>2012-03-11T13:54:46Z</time>
      </trkpt>
      <trkpt lat="59.9696584841" lon="23.466966111">
        <ele>22</ele>
        <time>2012-03-11T13:54:49Z</time>
      </trkpt>
      <trkpt lat="59.9696779301" lon="23.4672277939">
        <ele>21.2</ele>
        <time>2012-03-11T13:54:54Z</time>
      </trkpt>
      <trkpt lat="59.9696876531" lon="23.4673187376">
        <ele>21</ele>
        <time>2012-03-11T13:54:56Z</time>
      </trkpt>
      <trkpt lat="59.9697024891" lon="23.4675382595">
        <ele>20.6</ele>
        <time>2012-03-11T13:55:01Z</time>
      </trkpt>
      <trkpt lat="59.9696986334" lon="23.4676418598">
        <ele>20.4</ele>
        <time>2012-03-11T13:55:03Z</time>
      </trkpt>
      <trkpt lat="59.9697230248" lon="23.4678276865">
        <ele>20.4</ele>
        <time>2012-03-11T13:55:07Z</time>
      </trkpt>
      <trkpt lat="59.9697373578" lon="23.4680223142">
        <ele>20.2</ele>
        <time>2012-03-11T13:55:11Z</time>
      </trkpt>
      <trkpt lat="59.9697722265" lon="23.4683089752">
        <ele>20.2</ele>
        <time>2012-03-11T13:55:17Z</time>
      </trkpt>
      <trkpt lat="59.9698039101" lon="23.4685143318">
        <ele>20.2</ele>
        <time>2012-03-11T13:55:22Z</time>
      </trkpt>
      <trkpt lat="59.9698186622" lon="23.4686052754">
        <ele>20.2</ele>
        <time>2012-03-11T13:55:24Z</time>
      </trkpt>
      <trkpt lat="59.9698569675" lon="23.4687886714">
        <ele>20</ele>
        <time>2012-03-11T13:55:28Z</time>
      </trkpt>
      <trkpt lat="59.9698990447" lon="23.4690044215">
        <ele>20</ele>
        <time>2012-03-11T13:55:33Z</time>
      </trkpt>
      <trkpt lat="59.9699291357" lon="23.4692757436">
        <ele>20</ele>
        <time>2012-03-11T13:55:39Z</time>
      </trkpt>
      <trkpt lat="59.9699550358" lon="23.4695673499">
        <ele>20</ele>
        <time>2012-03-11T13:55:45Z</time>
      </trkpt>
      <trkpt lat="59.9699588914" lon="23.4696047331">
        <ele>20</ele>
        <time>2012-03-11T13:55:46Z</time>
      </trkpt>
      <trkpt lat="59.9699697879" lon="23.469641362">
        <ele>20</ele>
        <time>2012-03-11T13:55:47Z</time>
      </trkpt>
      <trkpt lat="59.9700650063" lon="23.4698338943">
        <ele>19.4</ele>
        <time>2012-03-11T13:55:53Z</time>
      </trkpt>
      <trkpt lat="59.9701669302" lon="23.470053081">
        <ele>18.8</ele>
        <time>2012-03-11T13:55:59Z</time>
      </trkpt>
      <trkpt lat="59.9702240947" lon="23.4701887839">
        <ele>18.6</ele>
        <time>2012-03-11T13:56:03Z</time>
      </trkpt>
      <trkpt lat="59.9703502423" lon="23.4703200445">
        <ele>17.2</ele>
        <time>2012-03-11T13:56:09Z</time>
      </trkpt>
      <trkpt lat="59.9703755557" lon="23.4703244031">
        <ele>17.2</ele>
        <time>2012-03-11T13:56:10Z</time>
      </trkpt>
      <trkpt lat="59.9705281901" lon="23.4703448549">
        <ele>16.6</ele>
        <time>2012-03-11T13:56:16Z</time>
      </trkpt>
      <trkpt lat="59.9705721112" lon="23.4703569248">
        <ele>16.4</ele>
        <time>2012-03-11T13:56:18Z</time>
      </trkpt>
      <trkpt lat="59.9706720235" lon="23.4704053722">
        <ele>16.2</ele>
        <time>2012-03-11T13:56:23Z</time>
      </trkpt>
      <trkpt lat="59.9708147672" lon="23.4704315238">
        <ele>16</ele>
        <time>2012-03-11T13:56:30Z</time>
      </trkpt>
      <trkpt lat="59.9709224747" lon="23.4704023547">
        <ele>16</ele>
        <time>2012-03-11T13:56:35Z</time>
      </trkpt>
      <trkpt lat="59.9709984985" lon="23.4703680728">
        <ele>16</ele>
        <time>2012-03-11T13:56:39Z</time>
      </trkpt>
      <trkpt lat="59.971289099" lon="23.4704489581">
        <ele>16</ele>
        <time>2012-03-11T13:56:52Z</time>
      </trkpt>
      <trkpt lat="59.9714511211" lon="23.4703996725">
        <ele>16</ele>
        <time>2012-03-11T13:56:59Z</time>
      </trkpt>
      <trkpt lat="59.9715804538" lon="23.4703704197">
        <ele>16.8</ele>
        <time>2012-03-11T13:57:05Z</time>
      </trkpt>
      <trkpt lat="59.9716958726" lon="23.4702731058">
        <ele>17.4</ele>
        <time>2012-03-11T13:57:11Z</time>
      </trkpt>
      <trkpt lat="59.9717932702" lon="23.470181827">
        <ele>18</ele>
        <time>2012-03-11T13:57:16Z</time>
      </trkpt>
      <trkpt lat="59.9718941045" lon="23.4701340501">
        <ele>18.8</ele>
        <time>2012-03-11T13:57:21Z</time>
      </trkpt>
      <trkpt lat="59.9720107806" lon="23.4703069687">
        <ele>19.4</ele>
        <time>2012-03-11T13:57:28Z</time>
      </trkpt>
      <trkpt lat="59.9720909115" lon="23.4704053722">
        <ele>19.6</ele>
        <time>2012-03-11T13:57:32Z</time>
      </trkpt>
      <trkpt lat="59.9722149636" lon="23.470609723">
        <ele>19.8</ele>
        <time>2012-03-11T13:57:38Z</time>
      </trkpt>
      <trkpt lat="59.9723379261" lon="23.4707221242">
        <ele>20</ele>
        <time>2012-03-11T13:57:43Z</time>
      </trkpt>
      <trkpt lat="59.9724629002" lon="23.4707199449">
        <ele>20</ele>
        <time>2012-03-11T13:57:48Z</time>
      </trkpt>
      <trkpt lat="59.9724807537" lon="23.4706950507">
        <ele>20</ele>
        <time>2012-03-11T13:57:49Z</time>
      </trkpt>
      <trkpt lat="59.972543115" lon="23.4705057036">
        <ele>20</ele>
        <time>2012-03-11T13:57:54Z</time>
      </trkpt>
      <trkpt lat="59.9726098349" lon="23.4702658136">
        <ele>20</ele>
        <time>2012-03-11T13:58:00Z</time>
      </trkpt>
      <trkpt lat="59.9726895468" lon="23.4699800746">
        <ele>20</ele>
        <time>2012-03-11T13:58:07Z</time>
      </trkpt>
      <trkpt lat="59.9727785626" lon="23.4697151228">
        <ele>20</ele>
        <time>2012-03-11T13:58:14Z</time>
      </trkpt>
      <trkpt lat="59.9728573525" lon="23.4694313955">
        <ele>20.2</ele>
        <time>2012-03-11T13:58:21Z</time>
      </trkpt>
      <trkpt lat="59.9729495534" lon="23.4690765058">
        <ele>20.2</ele>
        <time>2012-03-11T13:58:29Z</time>
      </trkpt>
      <trkpt lat="59.9730094001" lon="23.4688496916">
        <ele>20.2</ele>
        <time>2012-03-11T13:58:35Z</time>
      </trkpt>
      <trkpt lat="59.9730444365" lon="23.4687472648">
        <ele>20.2</ele>
        <time>2012-03-11T13:58:38Z</time>
      </trkpt>
      <trkpt lat="59.9731311053" lon="23.4687066126">
        <ele>20.2</ele>
        <time>2012-03-11T13:58:44Z</time>
      </trkpt>
      <trkpt lat="59.9731632918" lon="23.4686654574">
        <ele>20.2</ele>
        <time>2012-03-11T13:58:46Z</time>
      </trkpt>
      <trkpt lat="59.9732704963" lon="23.4685429979">
        <ele>20.2</ele>
        <time>2012-03-11T13:58:53Z</time>
      </trkpt>
      <trkpt lat="59.9733913633" lon="23.468473931">
        <ele>20.2</ele>
        <time>2012-03-11T13:59:00Z</time>
      </trkpt>
      <trkpt lat="59.9734629447" lon="23.4684467737">
        <ele>20.2</ele>
        <time>2012-03-11T13:59:04Z</time>
      </trkpt>
      <trkpt lat="59.9734802114" lon="23.4684471089">
        <ele>20.2</ele>
        <time>2012-03-11T13:59:05Z</time>
      </trkpt>
      <trkpt lat="59.9735995697" lon="23.4684388947">
        <ele>20.2</ele>
        <time>2012-03-11T13:59:11Z</time>
      </trkpt>
      <trkpt lat="59.9736199377" lon="23.4684424151">
        <ele>20.2</ele>
        <time>2012-03-11T13:59:12Z</time>
      </trkpt>
      <trkpt lat="59.9737391283" lon="23.4684482824">
        <ele>20.2</ele>
        <time>2012-03-11T13:59:18Z</time>
      </trkpt>
      <trkpt lat="59.9737734103" lon="23.4684492882">
        <ele>20.2</ele>
        <time>2012-03-11T13:59:20Z</time>
      </trkpt>
      <trkpt lat="59.9739261285" lon="23.4684582569">
        <ele>20.2</ele>
        <time>2012-03-11T13:59:28Z</time>
      </trkpt>
      <trkpt lat="59.9740340036" lon="23.4684649624">
        <ele>20.2</ele>
        <time>2012-03-11T13:59:33Z</time>
      </trkpt>
      <trkpt lat="59.974051857" lon="23.4684703268">
        <ele>20.2</ele>
        <time>2012-03-11T13:59:34Z</time>
      </trkpt>
      <trkpt lat="59.9740822833" lon="23.4684575863">
        <ele>20.2</ele>
        <time>2012-03-11T13:59:36Z</time>
      </trkpt>
      <trkpt lat="59.9742245242" lon="23.4683791317">
        <ele>19.6</ele>
        <time>2012-03-11T13:59:44Z</time>
      </trkpt>
      <trkpt lat="59.9742961894" lon="23.4683305167">
        <ele>19</ele>
        <time>2012-03-11T13:59:48Z</time>
      </trkpt>
      <trkpt lat="59.9743786673" lon="23.4682921276">
        <ele>18.6</ele>
        <time>2012-03-11T13:59:53Z</time>
      </trkpt>
      <trkpt lat="59.9744618996" lon="23.4682591029">
        <ele>18.4</ele>
        <time>2012-03-11T13:59:57Z</time>
      </trkpt>
      <trkpt lat="59.9745328104" lon="23.4682388187">
        <ele>18.4</ele>
        <time>2012-03-11T14:00:01Z</time>
      </trkpt>
      <trkpt lat="59.9746522525" lon="23.4682102364">
        <ele>18.2</ele>
        <time>2012-03-11T14:00:07Z</time>
      </trkpt>
      <trkpt lat="59.9747524162" lon="23.4681961548">
        <ele>18.2</ele>
        <time>2012-03-11T14:00:12Z</time>
      </trkpt>
      <trkpt lat="59.9748603751" lon="23.4682221387">
        <ele>18.2</ele>
        <time>2012-03-11T14:00:18Z</time>
      </trkpt>
      <trkpt lat="59.9749046315" lon="23.468221552">
        <ele>18.2</ele>
        <time>2012-03-11T14:00:22Z</time>
      </trkpt>
      <trkpt lat="59.9749652327" lon="23.4682325323">
        <ele>18.2</ele>
        <time>2012-03-11T14:00:28Z</time>
      </trkpt>
      <trkpt lat="59.9750070583" lon="23.4682227255">
        <ele>18.2</ele>
        <time>2012-03-11T14:00:31Z</time>
      </trkpt>
      <trkpt lat="59.9750861835" lon="23.4681768765">
        <ele>18.2</ele>
        <time>2012-03-11T14:00:37Z</time>
      </trkpt>
      <trkpt lat="59.9751630455" lon="23.4681514793">
        <ele>18.2</ele>
        <time>2012-03-11T14:00:44Z</time>
      </trkpt>
      <trkpt lat="59.9751995906" lon="23.4681304408">
        <ele>17.8</ele>
        <time>2012-03-11T14:00:48Z</time>
      </trkpt>
      <trkpt lat="59.9752654723" lon="23.4680827477">
        <ele>17</ele>
        <time>2012-03-11T14:00:54Z</time>
      </trkpt>
      <trkpt lat="59.9753671448" lon="23.4680358091">
        <ele>16.4</ele>
        <time>2012-03-11T14:01:02Z</time>
      </trkpt>
      <trkpt lat="59.9754357087" lon="23.4680575182">
        <ele>16.2</ele>
        <time>2012-03-11T14:01:08Z</time>
      </trkpt>
      <trkpt lat="59.9754840723" lon="23.4680861843">
        <ele>16.2</ele>
        <time>2012-03-11T14:01:13Z</time>
      </trkpt>
      <trkpt lat="59.9755756026" lon="23.4681199634">
        <ele>16</ele>
        <time>2012-03-11T14:01:22Z</time>
      </trkpt>
      <trkpt lat="59.975636539" lon="23.4681001821">
        <ele>16</ele>
        <time>2012-03-11T14:01:28Z</time>
      </trkpt>
      <trkpt lat="59.975746761" lon="23.46805668">
        <ele>16</ele>
        <time>2012-03-11T14:01:38Z</time>
      </trkpt>
      <trkpt lat="59.9758165822" lon="23.4680518185">
        <ele>15</ele>
        <time>2012-03-11T14:01:45Z</time>
      </trkpt>
      <trkpt lat="59.9758414765" lon="23.4680413412">
        <ele>14.8</ele>
        <time>2012-03-11T14:01:47Z</time>
      </trkpt>
      <trkpt lat="59.9759155725" lon="23.4679994317">
        <ele>14.4</ele>
        <time>2012-03-11T14:01:53Z</time>
      </trkpt>
      <trkpt lat="59.97596117" lon="23.4679674966">
        <ele>14</ele>
        <time>2012-03-11T14:01:58Z</time>
      </trkpt>
      <trkpt lat="59.9759746649" lon="23.4679588633">
        <ele>14</ele>
        <time>2012-03-11T14:01:59Z</time>
      </trkpt>
      <trkpt lat="59.9760379482" lon="23.4678954961">
        <ele>13.4</ele>
        <time>2012-03-11T14:02:06Z</time>
      </trkpt>
      <trkpt lat="59.9761299815" lon="23.4678077376">
        <ele>12.4</ele>
        <time>2012-03-11T14:02:13Z</time>
      </trkpt>
      <trkpt lat="59.9762523572" lon="23.4677034668">
        <ele>12.2</ele>
        <time>2012-03-11T14:02:18Z</time>
      </trkpt>
      <trkpt lat="59.9763712126" lon="23.4676233358">
        <ele>12</ele>
        <time>2012-03-11T14:02:23Z</time>
      </trkpt>
      <trkpt lat="59.9765490765" lon="23.4675261058">
        <ele>11.8</ele>
        <time>2012-03-11T14:02:30Z</time>
      </trkpt>
      <trkpt lat="59.9767255993" lon="23.4674568713">
        <ele>10.8</ele>
        <time>2012-03-11T14:02:37Z</time>
      </trkpt>
      <trkpt lat="59.9768737075" lon="23.4673922468">
        <ele>10.2</ele>
        <time>2012-03-11T14:02:43Z</time>
      </trkpt>
      <trkpt lat="59.9770467937" lon="23.4673116968">
        <ele>10</ele>
        <time>2012-03-11T14:02:50Z</time>
      </trkpt>
      <trkpt lat="59.977192974" lon="23.4672563762">
        <ele>9.8</ele>
        <time>2012-03-11T14:02:56Z</time>
      </trkpt>
      <trkpt lat="59.9773108236" lon="23.4672020615">
        <ele>9.8</ele>
        <time>2012-03-11T14:03:01Z</time>
      </trkpt>
      <trkpt lat="59.9774873464" lon="23.4671226849">
        <ele>9.8</ele>
        <time>2012-03-11T14:03:08Z</time>
      </trkpt>
      <trkpt lat="59.9776625281" lon="23.4670301487">
        <ele>9.8</ele>
        <time>2012-03-11T14:03:15Z</time>
      </trkpt>
      <trkpt lat="59.9778196049" lon="23.466960579">
        <ele>9.6</ele>
        <time>2012-03-11T14:03:22Z</time>
      </trkpt>
      <trkpt lat="59.9779191819" lon="23.4669060966">
        <ele>9.6</ele>
        <time>2012-03-11T14:03:26Z</time>
      </trkpt>
      <trkpt lat="59.9780142326" lon="23.466852201">
        <ele>9.6</ele>
        <time>2012-03-11T14:03:30Z</time>
      </trkpt>
      <trkpt lat="59.9781931862" lon="23.4667587428">
        <ele>9.6</ele>
        <time>2012-03-11T14:03:38Z</time>
      </trkpt>
      <trkpt lat="59.978258565" lon="23.4667255505">
        <ele>9.6</ele>
        <time>2012-03-11T14:03:41Z</time>
      </trkpt>
      <trkpt lat="59.9784136301" lon="23.4668811186">
        <ele>9.6</ele>
        <time>2012-03-11T14:03:48Z</time>
      </trkpt>
      <trkpt lat="59.9785094353" lon="23.4670461582">
        <ele>9.6</ele>
        <time>2012-03-11T14:03:53Z</time>
      </trkpt>
      <trkpt lat="59.9786015523" lon="23.4672178195">
        <ele>9.8</ele>
        <time>2012-03-11T14:03:58Z</time>
      </trkpt>
      <trkpt lat="59.9786897299" lon="23.467366682">
        <ele>10.6</ele>
        <time>2012-03-11T14:04:03Z</time>
      </trkpt>
      <trkpt lat="59.9787404404" lon="23.467400042">
        <ele>10.8</ele>
        <time>2012-03-11T14:04:05Z</time>
      </trkpt>
      <trkpt lat="59.9788521712" lon="23.4675955917">
        <ele>11.2</ele>
        <time>2012-03-11T14:04:11Z</time>
      </trkpt>
      <trkpt lat="59.9788695217" lon="23.4676281135">
        <ele>11.2</ele>
        <time>2012-03-11T14:04:12Z</time>
      </trkpt>
      <trkpt lat="59.9789695178" lon="23.4678416005">
        <ele>11.4</ele>
        <time>2012-03-11T14:04:18Z</time>
      </trkpt>
      <trkpt lat="59.9790799074" lon="23.4680815743">
        <ele>11.6</ele>
        <time>2012-03-11T14:04:24Z</time>
      </trkpt>
      <trkpt lat="59.9791467111" lon="23.4681763736">
        <ele>11.6</ele>
        <time>2012-03-11T14:04:28Z</time>
      </trkpt>
      <trkpt lat="59.9792799833" lon="23.4684115697">
        <ele>11.6</ele>
        <time>2012-03-11T14:04:35Z</time>
      </trkpt>
      <trkpt lat="59.9793582703" lon="23.4685896012">
        <ele>11.6</ele>
        <time>2012-03-11T14:04:40Z</time>
      </trkpt>
      <trkpt lat="59.9794411673" lon="23.4688085365">
        <ele>11.6</ele>
        <time>2012-03-11T14:04:46Z</time>
      </trkpt>
      <trkpt lat="59.9795317756" lon="23.4689371148">
        <ele>11.6</ele>
        <time>2012-03-11T14:04:51Z</time>
      </trkpt>
      <trkpt lat="59.9795502158" lon="23.4689480113">
        <ele>11.6</ele>
        <time>2012-03-11T14:04:52Z</time>
      </trkpt>
      <trkpt lat="59.979672843" lon="23.4688246297">
        <ele>11.6</ele>
        <time>2012-03-11T14:04:58Z</time>
      </trkpt>
      <trkpt lat="59.9797722523" lon="23.4686910222">
        <ele>11.6</ele>
        <time>2012-03-11T14:05:04Z</time>
      </trkpt>
      <trkpt lat="59.9798616034" lon="23.4685742624">
        <ele>11.6</ele>
        <time>2012-03-11T14:05:09Z</time>
      </trkpt>
      <trkpt lat="59.979940477" lon="23.468509135">
        <ele>12.4</ele>
        <time>2012-03-11T14:05:14Z</time>
      </trkpt>
      <trkpt lat="59.9800443288" lon="23.4685218755">
        <ele>13</ele>
        <time>2012-03-11T14:05:19Z</time>
      </trkpt>
      <trkpt lat="59.980135943" lon="23.4686666309">
        <ele>13.2</ele>
        <time>2012-03-11T14:05:24Z</time>
      </trkpt>
      <trkpt lat="59.9803663614" lon="23.4690695488">
        <ele>13.6</ele>
        <time>2012-03-11T14:05:36Z</time>
      </trkpt>
      <trkpt lat="59.9805108653" lon="23.4692907472">
        <ele>13.6</ele>
        <time>2012-03-11T14:05:43Z</time>
      </trkpt>
      <trkpt lat="59.9806390246" lon="23.4694321498">
        <ele>13.6</ele>
        <time>2012-03-11T14:05:49Z</time>
      </trkpt>
      <trkpt lat="59.9807345783" lon="23.4695191539">
        <ele>14.4</ele>
        <time>2012-03-11T14:05:53Z</time>
      </trkpt>
      <trkpt lat="59.9808952593" lon="23.4696522585">
        <ele>15.2</ele>
        <time>2012-03-11T14:06:00Z</time>
      </trkpt>
      <trkpt lat="59.9810312137" lon="23.469773377">
        <ele>15.6</ele>
        <time>2012-03-11T14:06:06Z</time>
      </trkpt>
      <trkpt lat="59.9811675034" lon="23.4699153664">
        <ele>16.6</ele>
        <time>2012-03-11T14:06:12Z</time>
      </trkpt>
      <trkpt lat="59.9813025358" lon="23.4700602056">
        <ele>18</ele>
        <time>2012-03-11T14:06:18Z</time>
      </trkpt>
      <trkpt lat="59.9813400029" lon="23.4701363971">
        <ele>18.4</ele>
        <time>2012-03-11T14:06:20Z</time>
      </trkpt>
      <trkpt lat="59.9814818246" lon="23.4703418374">
        <ele>19.6</ele>
        <time>2012-03-11T14:06:27Z</time>
      </trkpt>
      <trkpt lat="59.9815551663" lon="23.4703338746">
        <ele>20.4</ele>
        <time>2012-03-11T14:06:32Z</time>
      </trkpt>
      <trkpt lat="59.9816324474" lon="23.4701975011">
        <ele>21.2</ele>
        <time>2012-03-11T14:06:37Z</time>
      </trkpt>
      <trkpt lat="59.9816967366" lon="23.4700836749">
        <ele>21.6</ele>
        <time>2012-03-11T14:06:42Z</time>
      </trkpt>
      <trkpt lat="59.9817704973" lon="23.46996834">
        <ele>21.8</ele>
        <time>2012-03-11T14:06:47Z</time>
      </trkpt>
      <trkpt lat="59.9818569147" lon="23.4697846087">
        <ele>21.8</ele>
        <time>2012-03-11T14:06:54Z</time>
      </trkpt>
      <trkpt lat="59.9819369618" lon="23.4696313038">
        <ele>22.6</ele>
        <time>2012-03-11T14:07:00Z</time>
      </trkpt>
      <trkpt lat="59.981951211" lon="23.4696311361">
        <ele>22.6</ele>
        <time>2012-03-11T14:07:01Z</time>
      </trkpt>
      <trkpt lat="59.9820085432" lon="23.4697201519">
        <ele>23.2</ele>
        <time>2012-03-11T14:07:05Z</time>
      </trkpt>
      <trkpt lat="59.982147599" lon="23.4699172942">
        <ele>23.6</ele>
        <time>2012-03-11T14:07:12Z</time>
      </trkpt>
      <trkpt lat="59.9822576533" lon="23.4700787296">
        <ele>23.8</ele>
        <time>2012-03-11T14:07:18Z</time>
      </trkpt>
      <trkpt lat="59.9823719824" lon="23.4702654783">
        <ele>24</ele>
        <time>2012-03-11T14:07:24Z</time>
      </trkpt>
      <trkpt lat="59.982473571" lon="23.4704847488">
        <ele>24</ele>
        <time>2012-03-11T14:07:30Z</time>
      </trkpt>
      <trkpt lat="59.9825576415" lon="23.4706713299">
        <ele>24</ele>
        <time>2012-03-11T14:07:35Z</time>
      </trkpt>
      <trkpt lat="59.9825765846" lon="23.4706851601">
        <ele>24</ele>
        <time>2012-03-11T14:07:36Z</time>
      </trkpt>
      <trkpt lat="59.9826405385" lon="23.4707825577">
        <ele>24</ele>
        <time>2012-03-11T14:07:39Z</time>
      </trkpt>
      <trkpt lat="59.9826575538" lon="23.4708154986">
        <ele>24</ele>
        <time>2012-03-11T14:07:40Z</time>
      </trkpt>
      <trkpt lat="59.98275931" lon="23.4710321707">
        <ele>24.2</ele>
        <time>2012-03-11T14:07:46Z</time>
      </trkpt>
      <trkpt lat="59.9828509242" lon="23.4712293968">
        <ele>24.2</ele>
        <time>2012-03-11T14:07:51Z</time>
      </trkpt>
      <trkpt lat="59.9829637446" lon="23.4714495893">
        <ele>24.2</ele>
        <time>2012-03-11T14:07:57Z</time>
      </trkpt>
      <trkpt lat="59.9830975197" lon="23.4716209154">
        <ele>24.2</ele>
        <time>2012-03-11T14:08:03Z</time>
      </trkpt>
      <trkpt lat="59.9831488169" lon="23.4716475698">
        <ele>24.2</ele>
        <time>2012-03-11T14:08:05Z</time>
      </trkpt>
      <trkpt lat="59.9831943306" lon="23.4715175665">
        <ele>24.2</ele>
        <time>2012-03-11T14:08:09Z</time>
      </trkpt>
      <trkpt lat="59.9831519182" lon="23.471336769">
        <ele>24.2</ele>
        <time>2012-03-11T14:08:13Z</time>
      </trkpt>
      <trkpt lat="59.9830846954" lon="23.4710929395">
        <ele>25</ele>
        <time>2012-03-11T14:08:19Z</time>
      </trkpt>
      <trkpt lat="59.9830111023" lon="23.4708624372">
        <ele>25.4</ele>
        <time>2012-03-11T14:08:25Z</time>
      </trkpt>
      <trkpt lat="59.9829253555" lon="23.4706134948">
        <ele>25.8</ele>
        <time>2012-03-11T14:08:31Z</time>
      </trkpt>
      <trkpt lat="59.9828479067" lon="23.4703357186">
        <ele>27</ele>
        <time>2012-03-11T14:08:38Z</time>
      </trkpt>
      <trkpt lat="59.9827842881" lon="23.4701084015">
        <ele>27.6</ele>
        <time>2012-03-11T14:08:44Z</time>
      </trkpt>
      <trkpt lat="59.9827256148" lon="23.4698672543">
        <ele>28.4</ele>
        <time>2012-03-11T14:08:50Z</time>
      </trkpt>
      <trkpt lat="59.9826713001" lon="23.4696183956">
        <ele>29.4</ele>
        <time>2012-03-11T14:08:56Z</time>
      </trkpt>
      <trkpt lat="59.9826282171" lon="23.4693988737">
        <ele>29.8</ele>
        <time>2012-03-11T14:09:01Z</time>
      </trkpt>
      <trkpt lat="59.9825829548" lon="23.4691323293">
        <ele>30.8</ele>
        <time>2012-03-11T14:09:07Z</time>
      </trkpt>
      <trkpt lat="59.9825536182" lon="23.4688742506">
        <ele>31.6</ele>
        <time>2012-03-11T14:09:13Z</time>
      </trkpt>
      <trkpt lat="59.982510619" lon="23.4685636173">
        <ele>33</ele>
        <time>2012-03-11T14:09:20Z</time>
      </trkpt>
      <trkpt lat="59.98248145" lon="23.4682129186">
        <ele>33.8</ele>
        <time>2012-03-11T14:09:28Z</time>
      </trkpt>
      <trkpt lat="59.9824475033" lon="23.4679226535">
        <ele>34.2</ele>
        <time>2012-03-11T14:09:35Z</time>
      </trkpt>
      <trkpt lat="59.982406432" lon="23.4676326397">
        <ele>35.2</ele>
        <time>2012-03-11T14:09:41Z</time>
      </trkpt>
      <trkpt lat="59.9823718148" lon="23.4673239343">
        <ele>35.8</ele>
        <time>2012-03-11T14:09:47Z</time>
      </trkpt>
      <trkpt lat="59.9823545481" lon="23.4671811068">
        <ele>36</ele>
        <time>2012-03-11T14:09:50Z</time>
      </trkpt>
      <trkpt lat="59.9823348506" lon="23.4670445656">
        <ele>36.2</ele>
        <time>2012-03-11T14:09:53Z</time>
      </trkpt>
      <trkpt lat="59.9822875767" lon="23.4667510315">
        <ele>36.4</ele>
        <time>2012-03-11T14:09:59Z</time>
      </trkpt>
      <trkpt lat="59.9822537138" lon="23.4664427452">
        <ele>36.4</ele>
        <time>2012-03-11T14:10:05Z</time>
      </trkpt>
      <trkpt lat="59.9822135645" lon="23.4661549946">
        <ele>36.4</ele>
        <time>2012-03-11T14:10:11Z</time>
      </trkpt>
      <trkpt lat="59.982181378" lon="23.4659040405">
        <ele>36.4</ele>
        <time>2012-03-11T14:10:16Z</time>
      </trkpt>
      <trkpt lat="59.9821413125" lon="23.4656173795">
        <ele>36.6</ele>
        <time>2012-03-11T14:10:22Z</time>
      </trkpt>
      <trkpt lat="59.9821064438" lon="23.4653122783">
        <ele>36.6</ele>
        <time>2012-03-11T14:10:28Z</time>
      </trkpt>
      <trkpt lat="59.9820697311" lon="23.4650282996">
        <ele>36.6</ele>
        <time>2012-03-11T14:10:34Z</time>
      </trkpt>
      <trkpt lat="59.9820605948" lon="23.4649200892">
        <ele>36.6</ele>
        <time>2012-03-11T14:10:36Z</time>
      </trkpt>
      <trkpt lat="59.9821428213" lon="23.4647910918">
        <ele>36.6</ele>
        <time>2012-03-11T14:10:41Z</time>
      </trkpt>
      <trkpt lat="59.9823809511" lon="23.4648187521">
        <ele>36.6</ele>
        <time>2012-03-11T14:10:51Z</time>
      </trkpt>
      <trkpt lat="59.9824051747" lon="23.4648249547">
        <ele>36.6</ele>
        <time>2012-03-11T14:10:52Z</time>
      </trkpt>
      <trkpt lat="59.9825568871" lon="23.4648666965">
        <ele>35.6</ele>
        <time>2012-03-11T14:10:58Z</time>
      </trkpt>
      <trkpt lat="59.9827073422" lon="23.4649830373">
        <ele>34.6</ele>
        <time>2012-03-11T14:11:04Z</time>
      </trkpt>
      <trkpt lat="59.982874645" lon="23.4651256134">
        <ele>33.6</ele>
        <time>2012-03-11T14:11:10Z</time>
      </trkpt>
      <trkpt lat="59.9830356613" lon="23.4652472348">
        <ele>33</ele>
        <time>2012-03-11T14:11:16Z</time>
      </trkpt>
      <trkpt lat="59.9831766448" lon="23.465350416">
        <ele>32.2</ele>
        <time>2012-03-11T14:11:22Z</time>
      </trkpt>
      <trkpt lat="59.9833626392" lon="23.4655046429">
        <ele>31</ele>
        <time>2012-03-11T14:11:29Z</time>
      </trkpt>
      <trkpt lat="59.983517872" lon="23.4656203132">
        <ele>30.6</ele>
        <time>2012-03-11T14:11:35Z</time>
      </trkpt>
      <trkpt lat="59.9836504736" lon="23.4657007794">
        <ele>30.4</ele>
        <time>2012-03-11T14:11:41Z</time>
      </trkpt>
      <trkpt lat="59.9838081372" lon="23.4658155276">
        <ele>30.4</ele>
        <time>2012-03-11T14:11:48Z</time>
      </trkpt>
      <trkpt lat="59.9839991607" lon="23.4659377357">
        <ele>30.2</ele>
        <time>2012-03-11T14:11:56Z</time>
      </trkpt>
      <trkpt lat="59.9841534714" lon="23.4660187049">
        <ele>30.2</ele>
        <time>2012-03-11T14:12:03Z</time>
      </trkpt>
      <trkpt lat="59.9842724944" lon="23.4660823235">
        <ele>30.2</ele>
        <time>2012-03-11T14:12:08Z</time>
      </trkpt>
      <trkpt lat="59.9843867397" lon="23.4661375602">
        <ele>30.2</ele>
        <time>2012-03-11T14:12:13Z</time>
      </trkpt>
      <trkpt lat="59.9844974646" lon="23.466165891">
        <ele>30.2</ele>
        <time>2012-03-11T14:12:18Z</time>
      </trkpt>
      <trkpt lat="59.9845999753" lon="23.4661985804">
        <ele>30.2</ele>
        <time>2012-03-11T14:12:23Z</time>
      </trkpt>
      <trkpt lat="59.9847719718" lon="23.4661720936">
        <ele>30.2</ele>
        <time>2012-03-11T14:12:30Z</time>
      </trkpt>
      <trkpt lat="59.9849442199" lon="23.4658742009">
        <ele>29.8</ele>
        <time>2012-03-11T14:12:40Z</time>
      </trkpt>
      <trkpt lat="59.9849900689" lon="23.4656136915">
        <ele>29.2</ele>
        <time>2012-03-11T14:12:45Z</time>
      </trkpt>
      <trkpt lat="59.9849977802" lon="23.4653005437">
        <ele>28</ele>
        <time>2012-03-11T14:12:51Z</time>
      </trkpt>
      <trkpt lat="59.9849800106" lon="23.4649981247">
        <ele>26.8</ele>
        <time>2012-03-11T14:12:57Z</time>
      </trkpt>
      <trkpt lat="59.9849524342" lon="23.4647467515">
        <ele>25.6</ele>
        <time>2012-03-11T14:13:02Z</time>
      </trkpt>
      <trkpt lat="59.9849132069" lon="23.4644480206">
        <ele>24.8</ele>
        <time>2012-03-11T14:13:08Z</time>
      </trkpt>
      <trkpt lat="59.984886301" lon="23.4641959769">
        <ele>23.6</ele>
        <time>2012-03-11T14:13:13Z</time>
      </trkpt>
      <trkpt lat="59.9848214251" lon="23.4640175262">
        <ele>22.8</ele>
        <time>2012-03-11T14:13:18Z</time>
      </trkpt>
      <trkpt lat="59.9846231931" lon="23.4638075596">
        <ele>22</ele>
        <time>2012-03-11T14:13:29Z</time>
      </trkpt>
      <trkpt lat="59.9845314113" lon="23.4637153587">
        <ele>22</ele>
        <time>2012-03-11T14:13:33Z</time>
      </trkpt>
      <trkpt lat="59.9843997317" lon="23.4635722797">
        <ele>21.8</ele>
        <time>2012-03-11T14:13:40Z</time>
      </trkpt>
      <trkpt lat="59.9842389668" lon="23.4633877941">
        <ele>21.8</ele>
        <time>2012-03-11T14:13:48Z</time>
      </trkpt>
      <trkpt lat="59.984121704" lon="23.4632187312">
        <ele>21.8</ele>
        <time>2012-03-11T14:13:54Z</time>
      </trkpt>
      <trkpt lat="59.9840200316" lon="23.4630704554">
        <ele>21.8</ele>
        <time>2012-03-11T14:13:59Z</time>
      </trkpt>
      <trkpt lat="59.9839150064" lon="23.4628777555">
        <ele>21.8</ele>
        <time>2012-03-11T14:14:05Z</time>
      </trkpt>
      <trkpt lat="59.9838992484" lon="23.4628399531">
        <ele>21.8</ele>
        <time>2012-03-11T14:14:06Z</time>
      </trkpt>
      <trkpt lat="59.9837822371" lon="23.4626512765">
        <ele>21.8</ele>
        <time>2012-03-11T14:14:12Z</time>
      </trkpt>
      <trkpt lat="59.9837640484" lon="23.4626209341">
        <ele>21.8</ele>
        <time>2012-03-11T14:14:13Z</time>
      </trkpt>
      <trkpt lat="59.9836539102" lon="23.4624076147">
        <ele>21.8</ele>
        <time>2012-03-11T14:14:19Z</time>
      </trkpt>
      <trkpt lat="59.983557686" lon="23.4622768571">
        <ele>21.8</ele>
        <time>2012-03-11T14:14:24Z</time>
      </trkpt>
      <trkpt lat="59.9834435245" lon="23.4620689859">
        <ele>21.8</ele>
        <time>2012-03-11T14:14:30Z</time>
      </trkpt>
      <trkpt lat="59.983392814" lon="23.4619191176">
        <ele>21.8</ele>
        <time>2012-03-11T14:14:34Z</time>
      </trkpt>
      <trkpt lat="59.9832920636" lon="23.4616677444">
        <ele>21.8</ele>
        <time>2012-03-11T14:14:40Z</time>
      </trkpt>
      <trkpt lat="59.9832144472" lon="23.4614638966">
        <ele>21.8</ele>
        <time>2012-03-11T14:14:45Z</time>
      </trkpt>
      <trkpt lat="59.9831995274" lon="23.4614273515">
        <ele>21.8</ele>
        <time>2012-03-11T14:14:46Z</time>
      </trkpt>
      <trkpt lat="59.9831087514" lon="23.4612015431">
        <ele>21.8</ele>
        <time>2012-03-11T14:14:52Z</time>
      </trkpt>
      <trkpt lat="59.9830249324" lon="23.4610164708">
        <ele>21.8</ele>
        <time>2012-03-11T14:14:57Z</time>
      </trkpt>
      <trkpt lat="59.9829292949" lon="23.4608064204">
        <ele>21.8</ele>
        <time>2012-03-11T14:15:03Z</time>
      </trkpt>
      <trkpt lat="59.9829051551" lon="23.4607350066">
        <ele>21.8</ele>
        <time>2012-03-11T14:15:05Z</time>
      </trkpt>
      <trkpt lat="59.9828406144" lon="23.4605933525">
        <ele>21.8</ele>
        <time>2012-03-11T14:15:09Z</time>
      </trkpt>
      <trkpt lat="59.98274263" lon="23.4603456673">
        <ele>21.8</ele>
        <time>2012-03-11T14:15:15Z</time>
      </trkpt>
      <trkpt lat="59.9826700428" lon="23.4601419033">
        <ele>21.8</ele>
        <time>2012-03-11T14:15:20Z</time>
      </trkpt>
      <trkpt lat="59.9825796859" lon="23.4598559129">
        <ele>21.8</ele>
        <time>2012-03-11T14:15:27Z</time>
      </trkpt>
      <trkpt lat="59.9824976271" lon="23.4595995944">
        <ele>21.8</ele>
        <time>2012-03-11T14:15:33Z</time>
      </trkpt>
      <trkpt lat="59.9824220224" lon="23.4593459581">
        <ele>21.8</ele>
        <time>2012-03-11T14:15:39Z</time>
      </trkpt>
      <trkpt lat="59.9823285642" lon="23.4591240054">
        <ele>22.4</ele>
        <time>2012-03-11T14:15:45Z</time>
      </trkpt>
      <trkpt lat="59.9822709805" lon="23.4589175592">
        <ele>23</ele>
        <time>2012-03-11T14:15:50Z</time>
      </trkpt>
      <trkpt lat="59.982244829" lon="23.4588346622">
        <ele>23.2</ele>
        <time>2012-03-11T14:15:52Z</time>
      </trkpt>
      <trkpt lat="59.9822403028" lon="23.4587928365">
        <ele>23.2</ele>
        <time>2012-03-11T14:15:53Z</time>
      </trkpt>
      <trkpt lat="59.9822005726" lon="23.4586579717">
        <ele>23.6</ele>
        <time>2012-03-11T14:15:56Z</time>
      </trkpt>
      <trkpt lat="59.9821108862" lon="23.4583664493">
        <ele>24.8</ele>
        <time>2012-03-11T14:16:03Z</time>
      </trkpt>
      <trkpt lat="59.9820496145" lon="23.4581626015">
        <ele>25.4</ele>
        <time>2012-03-11T14:16:08Z</time>
      </trkpt>
      <trkpt lat="59.9820017539" lon="23.4579958855">
        <ele>25.6</ele>
        <time>2012-03-11T14:16:12Z</time>
      </trkpt>
      <trkpt lat="59.9819157556" lon="23.4577781237">
        <ele>25.8</ele>
        <time>2012-03-11T14:16:18Z</time>
      </trkpt>
      <trkpt lat="59.981902596" lon="23.4577269941">
        <ele>25.8</ele>
        <time>2012-03-11T14:16:19Z</time>
      </trkpt>
      <trkpt lat="59.9817461898" lon="23.4571710227">
        <ele>26</ele>
        <time>2012-03-11T14:16:32Z</time>
      </trkpt>
      <trkpt lat="59.9816819844" lon="23.4569312165">
        <ele>25.2</ele>
        <time>2012-03-11T14:16:37Z</time>
      </trkpt>
      <trkpt lat="59.9816237302" lon="23.4567291289">
        <ele>24.6</ele>
        <time>2012-03-11T14:16:42Z</time>
      </trkpt>
      <trkpt lat="59.981553909" lon="23.4564852994">
        <ele>24.2</ele>
        <time>2012-03-11T14:16:48Z</time>
      </trkpt>
      <trkpt lat="59.9814672401" lon="23.4561649432">
        <ele>24</ele>
        <time>2012-03-11T14:16:55Z</time>
      </trkpt>
      <trkpt lat="59.9813721056" lon="23.4558199442">
        <ele>23.6</ele>
        <time>2012-03-11T14:17:03Z</time>
      </trkpt>
      <trkpt lat="59.9813151086" lon="23.4556018472">
        <ele>22.8</ele>
        <time>2012-03-11T14:17:08Z</time>
      </trkpt>
      <trkpt lat="59.9812457065" lon="23.4553111629">
        <ele>22.4</ele>
        <time>2012-03-11T14:17:14Z</time>
      </trkpt>
      <trkpt lat="59.9811727002" lon="23.455033722">
        <ele>22.2</ele>
        <time>2012-03-11T14:17:20Z</time>
      </trkpt>
      <trkpt lat="59.9810899708" lon="23.4547080014">
        <ele>21</ele>
        <time>2012-03-11T14:17:27Z</time>
      </trkpt>
      <trkpt lat="59.9809681818" lon="23.4542008126">
        <ele>20.2</ele>
        <time>2012-03-11T14:17:38Z</time>
      </trkpt>
      <trkpt lat="59.9809216623" lon="23.4539841405">
        <ele>20</ele>
        <time>2012-03-11T14:17:43Z</time>
      </trkpt>
      <trkpt lat="59.9808671799" lon="23.4537034307">
        <ele>19</ele>
        <time>2012-03-11T14:17:49Z</time>
      </trkpt>
      <trkpt lat="59.9808127814" lon="23.4534338687">
        <ele>18.4</ele>
        <time>2012-03-11T14:17:55Z</time>
      </trkpt>
      <trkpt lat="59.9807681897" lon="23.4531862674">
        <ele>18.2</ele>
        <time>2012-03-11T14:18:01Z</time>
      </trkpt>
      <trkpt lat="59.9807286271" lon="23.4528878718">
        <ele>17.6</ele>
        <time>2012-03-11T14:18:07Z</time>
      </trkpt>
      <trkpt lat="59.9807043196" lon="23.4526438747">
        <ele>16.8</ele>
        <time>2012-03-11T14:18:12Z</time>
      </trkpt>
      <trkpt lat="59.9806828619" lon="23.4523943455">
        <ele>16.4</ele>
        <time>2012-03-11T14:18:17Z</time>
      </trkpt>
      <trkpt lat="59.9806634997" lon="23.4522071777">
        <ele>16.2</ele>
        <time>2012-03-11T14:18:21Z</time>
      </trkpt>
      <trkpt lat="59.9806267032" lon="23.4518183413">
        <ele>15</ele>
        <time>2012-03-11T14:18:28Z</time>
      </trkpt>
      <trkpt lat="59.9806024795" lon="23.4515310936">
        <ele>14.6</ele>
        <time>2012-03-11T14:18:33Z</time>
      </trkpt>
      <trkpt lat="59.9805852128" lon="23.4513199536">
        <ele>14.2</ele>
        <time>2012-03-11T14:18:37Z</time>
      </trkpt>
      <trkpt lat="59.9805652639" lon="23.4510527386">
        <ele>13.6</ele>
        <time>2012-03-11T14:18:42Z</time>
      </trkpt>
      <trkpt lat="59.9805413755" lon="23.4507800754">
        <ele>12.8</ele>
        <time>2012-03-11T14:18:47Z</time>
      </trkpt>
      <trkpt lat="59.9805151401" lon="23.4505287022">
        <ele>12.2</ele>
        <time>2012-03-11T14:18:52Z</time>
      </trkpt>
      <trkpt lat="59.9804953588" lon="23.4502293007">
        <ele>12</ele>
        <time>2012-03-11T14:18:58Z</time>
      </trkpt>
      <trkpt lat="59.9804743203" lon="23.449911962">
        <ele>11.8</ele>
        <time>2012-03-11T14:19:04Z</time>
      </trkpt>
      <trkpt lat="59.9804610769" lon="23.4496108003">
        <ele>11.6</ele>
        <time>2012-03-11T14:19:10Z</time>
      </trkpt>
      <trkpt lat="59.9804598196" lon="23.4493408193">
        <ele>11.6</ele>
        <time>2012-03-11T14:19:15Z</time>
      </trkpt>
      <trkpt lat="59.9804681177" lon="23.4489737759">
        <ele>11.6</ele>
        <time>2012-03-11T14:19:22Z</time>
      </trkpt>
      <trkpt lat="59.9804771701" lon="23.4486642324">
        <ele>11.6</ele>
        <time>2012-03-11T14:19:28Z</time>
      </trkpt>
      <trkpt lat="59.9804720571" lon="23.4483466422">
        <ele>11.6</ele>
        <time>2012-03-11T14:19:34Z</time>
      </trkpt>
      <trkpt lat="59.98048463" lon="23.4479515194">
        <ele>11.6</ele>
        <time>2012-03-11T14:19:42Z</time>
      </trkpt>
      <trkpt lat="59.9804910002" lon="23.4476651099">
        <ele>11.6</ele>
        <time>2012-03-11T14:19:48Z</time>
      </trkpt>
      <trkpt lat="59.9804963647" lon="23.4474130662">
        <ele>11.6</ele>
        <time>2012-03-11T14:19:53Z</time>
      </trkpt>
      <trkpt lat="59.9804982925" lon="23.4471103958">
        <ele>11</ele>
        <time>2012-03-11T14:19:59Z</time>
      </trkpt>
      <trkpt lat="59.9805050818" lon="23.4468745291">
        <ele>10.4</ele>
        <time>2012-03-11T14:20:04Z</time>
      </trkpt>
      <trkpt lat="59.9805148048" lon="23.4465427735">
        <ele>10</ele>
        <time>2012-03-11T14:20:11Z</time>
      </trkpt>
      <trkpt lat="59.9805239411" lon="23.4461490756">
        <ele>9.8</ele>
        <time>2012-03-11T14:20:19Z</time>
      </trkpt>
      <trkpt lat="59.9805376036" lon="23.445752947">
        <ele>9.6</ele>
        <time>2012-03-11T14:20:27Z</time>
      </trkpt>
      <trkpt lat="59.9805349214" lon="23.4454052658">
        <ele>9.6</ele>
        <time>2012-03-11T14:20:34Z</time>
      </trkpt>
      <trkpt lat="59.9805154754" lon="23.4450612727">
        <ele>9.6</ele>
        <time>2012-03-11T14:20:41Z</time>
      </trkpt>
      <trkpt lat="59.9805079317" lon="23.444828172">
        <ele>9.6</ele>
        <time>2012-03-11T14:20:46Z</time>
      </trkpt>
      <trkpt lat="59.9805020643" lon="23.4445503959">
        <ele>9.6</ele>
        <time>2012-03-11T14:20:52Z</time>
      </trkpt>
      <trkpt lat="59.980490162" lon="23.4443151997">
        <ele>9.6</ele>
        <time>2012-03-11T14:20:57Z</time>
      </trkpt>
      <trkpt lat="59.9804546228" lon="23.4440399381">
        <ele>9.6</ele>
        <time>2012-03-11T14:21:03Z</time>
      </trkpt>
      <trkpt lat="59.9803648526" lon="23.4438732222">
        <ele>9.6</ele>
        <time>2012-03-11T14:21:08Z</time>
      </trkpt>
      <trkpt lat="59.9802478413" lon="23.4436951906">
        <ele>10.2</ele>
        <time>2012-03-11T14:21:14Z</time>
      </trkpt>
      <trkpt lat="59.980149354" lon="23.4434768421">
        <ele>11</ele>
        <time>2012-03-11T14:21:20Z</time>
      </trkpt>
      <trkpt lat="59.9800940335" lon="23.4432560629">
        <ele>11.2</ele>
        <time>2012-03-11T14:21:25Z</time>
      </trkpt>
      <trkpt lat="59.9800365336" lon="23.4429756045">
        <ele>11.4</ele>
        <time>2012-03-11T14:21:31Z</time>
      </trkpt>
      <trkpt lat="59.9800015811" lon="23.4426547453">
        <ele>11.6</ele>
        <time>2012-03-11T14:21:38Z</time>
      </trkpt>
      <trkpt lat="59.979963192" lon="23.4423712695">
        <ele>11.6</ele>
        <time>2012-03-11T14:21:44Z</time>
      </trkpt>
      <trkpt lat="59.97996688" lon="23.4421248416">
        <ele>11.6</ele>
        <time>2012-03-11T14:21:49Z</time>
      </trkpt>
      <trkpt lat="59.9799662933" lon="23.4420856143">
        <ele>11.6</ele>
        <time>2012-03-11T14:21:50Z</time>
      </trkpt>
      <trkpt lat="59.979975681" lon="23.441812532">
        <ele>11.6</ele>
        <time>2012-03-11T14:21:56Z</time>
      </trkpt>
      <trkpt lat="59.9799816322" lon="23.4415571355">
        <ele>12</ele>
        <time>2012-03-11T14:22:01Z</time>
      </trkpt>
      <trkpt lat="59.9799931992" lon="23.4411976359">
        <ele>13</ele>
        <time>2012-03-11T14:22:08Z</time>
      </trkpt>
      <trkpt lat="59.9799944565" lon="23.4409495316">
        <ele>13.2</ele>
        <time>2012-03-11T14:22:13Z</time>
      </trkpt>
      <trkpt lat="59.9799796205" lon="23.4406462745">
        <ele>13.4</ele>
        <time>2012-03-11T14:22:19Z</time>
      </trkpt>
      <trkpt lat="59.9799414829" lon="23.4403606193">
        <ele>13.6</ele>
        <time>2012-03-11T14:22:25Z</time>
      </trkpt>
      <trkpt lat="59.9799479369" lon="23.4397432924">
        <ele>13.6</ele>
        <time>2012-03-11T14:22:38Z</time>
      </trkpt>
      <trkpt lat="59.9800172553" lon="23.4395217588">
        <ele>13.6</ele>
        <time>2012-03-11T14:22:44Z</time>
      </trkpt>
      <trkpt lat="59.9799829733" lon="23.439341045">
        <ele>13.8</ele>
        <time>2012-03-11T14:22:49Z</time>
      </trkpt>
      <trkpt lat="59.9799921096" lon="23.4393003928">
        <ele>13.8</ele>
        <time>2012-03-11T14:22:50Z</time>
      </trkpt>
      <trkpt lat="59.9800199375" lon="23.4391348503">
        <ele>13.8</ele>
        <time>2012-03-11T14:22:55Z</time>
      </trkpt>
      <trkpt lat="59.9800222844" lon="23.4391092855">
        <ele>13.8</ele>
        <time>2012-03-11T14:22:57Z</time>
      </trkpt>
      <trkpt lat="59.9800421495" lon="23.4389634404">
        <ele>13.8</ele>
        <time>2012-03-11T14:23:02Z</time>
      </trkpt>
      <trkpt lat="59.9799565703" lon="23.4387735904">
        <ele>13.8</ele>
        <time>2012-03-11T14:23:07Z</time>
      </trkpt>
      <trkpt lat="59.979902507" lon="23.4385913679">
        <ele>13.8</ele>
        <time>2012-03-11T14:23:12Z</time>
      </trkpt>
      <trkpt lat="59.9799313408" lon="23.4383408329">
        <ele>13.8</ele>
        <time>2012-03-11T14:23:17Z</time>
      </trkpt>
      <trkpt lat="59.9799674668" lon="23.4379904695">
        <ele>13.8</ele>
        <time>2012-03-11T14:23:24Z</time>
      </trkpt>
      <trkpt lat="59.9800716538" lon="23.4372967834">
        <ele>13.8</ele>
        <time>2012-03-11T14:23:37Z</time>
      </trkpt>
      <trkpt lat="59.9801393795" lon="23.4368620143">
        <ele>12.4</ele>
        <time>2012-03-11T14:23:46Z</time>
      </trkpt>
      <trkpt lat="59.980151198" lon="23.4368058555">
        <ele>12.4</ele>
        <time>2012-03-11T14:23:47Z</time>
      </trkpt>
      <trkpt lat="59.9801947001" lon="23.4365770297">
        <ele>12.2</ele>
        <time>2012-03-11T14:23:52Z</time>
      </trkpt>
      <trkpt lat="59.9802385374" lon="23.4363117425">
        <ele>11.2</ele>
        <time>2012-03-11T14:23:57Z</time>
      </trkpt>
      <trkpt lat="59.9802929359" lon="23.4360021151">
        <ele>10.4</ele>
        <time>2012-03-11T14:24:03Z</time>
      </trkpt>
      <trkpt lat="59.9803545429" lon="23.4356882968">
        <ele>10</ele>
        <time>2012-03-11T14:24:09Z</time>
      </trkpt>
      <trkpt lat="59.9804124618" lon="23.4353896497">
        <ele>9.8</ele>
        <time>2012-03-11T14:24:15Z</time>
      </trkpt>
      <trkpt lat="59.9804824507" lon="23.4351305652">
        <ele>9.8</ele>
        <time>2012-03-11T14:24:21Z</time>
      </trkpt>
      <trkpt lat="59.9805511823" lon="23.4348461673">
        <ele>9.8</ele>
        <time>2012-03-11T14:24:27Z</time>
      </trkpt>
      <trkpt lat="59.9806857956" lon="23.4342500466">
        <ele>9</ele>
        <time>2012-03-11T14:24:41Z</time>
      </trkpt>
      <trkpt lat="59.9807545272" lon="23.4339898724">
        <ele>8.4</ele>
        <time>2012-03-11T14:24:47Z</time>
      </trkpt>
      <trkpt lat="59.9808399387" lon="23.4336812508">
        <ele>8</ele>
        <time>2012-03-11T14:24:54Z</time>
      </trkpt>
      <trkpt lat="59.9809069101" lon="23.4334270278">
        <ele>7.8</ele>
        <time>2012-03-11T14:25:00Z</time>
      </trkpt>
      <trkpt lat="59.9809841912" lon="23.4331304762">
        <ele>7.8</ele>
        <time>2012-03-11T14:25:07Z</time>
      </trkpt>
      <trkpt lat="59.981055605" lon="23.4328873173">
        <ele>7.6</ele>
        <time>2012-03-11T14:25:13Z</time>
      </trkpt>
      <trkpt lat="59.9811114285" lon="23.4326733274">
        <ele>7.6</ele>
        <time>2012-03-11T14:25:18Z</time>
      </trkpt>
      <trkpt lat="59.9811632286" lon="23.4324828068">
        <ele>7.6</ele>
        <time>2012-03-11T14:25:23Z</time>
      </trkpt>
      <trkpt lat="59.9812166213" lon="23.4322198666">
        <ele>7.6</ele>
        <time>2012-03-11T14:25:29Z</time>
      </trkpt>
      <trkpt lat="59.9812827545" lon="23.4319625423">
        <ele>7.6</ele>
        <time>2012-03-11T14:25:35Z</time>
      </trkpt>
      <trkpt lat="59.9813354767" lon="23.4317435232">
        <ele>7.6</ele>
        <time>2012-03-11T14:25:40Z</time>
      </trkpt>
      <trkpt lat="59.981392725" lon="23.4315325508">
        <ele>7.6</ele>
        <time>2012-03-11T14:25:45Z</time>
      </trkpt>
      <trkpt lat="59.9814607861" lon="23.4312710355">
        <ele>7.6</ele>
        <time>2012-03-11T14:25:51Z</time>
      </trkpt>
      <trkpt lat="59.9815327028" lon="23.4310053293">
        <ele>7.6</ele>
        <time>2012-03-11T14:25:57Z</time>
      </trkpt>
      <trkpt lat="59.9816119955" lon="23.4306730708">
        <ele>7.6</ele>
        <time>2012-03-11T14:26:04Z</time>
      </trkpt>
      <trkpt lat="59.9816332018" lon="23.4305865695">
        <ele>7.6</ele>
        <time>2012-03-11T14:26:07Z</time>
      </trkpt>
      <trkpt lat="59.9815956508" lon="23.4305061871">
        <ele>7.2</ele>
        <time>2012-03-11T14:26:13Z</time>
      </trkpt>
      <trkpt lat="59.9816028593" lon="23.430514569">
        <ele>6.6</ele>
        <time>2012-03-11T14:26:18Z</time>
      </trkpt>
      <trkpt lat="59.981623814" lon="23.4305410558">
        <ele>6.2</ele>
        <time>2012-03-11T14:26:23Z</time>
      </trkpt>
      <trkpt lat="59.9817015142" lon="23.4305093722">
        <ele>6</ele>
        <time>2012-03-11T14:26:29Z</time>
      </trkpt>
      <trkpt lat="59.9817822319" lon="23.4304345219">
        <ele>5.8</ele>
        <time>2012-03-11T14:26:36Z</time>
      </trkpt>
      <trkpt lat="59.9818610218" lon="23.4304051014">
        <ele>4.8</ele>
        <time>2012-03-11T14:26:43Z</time>
      </trkpt>
      <trkpt lat="59.9819679748" lon="23.4304062749">
        <ele>4.4</ele>
        <time>2012-03-11T14:26:48Z</time>
      </trkpt>
      <trkpt lat="59.9821709006" lon="23.4304567339">
        <ele>4</ele>
        <time>2012-03-11T14:26:55Z</time>
      </trkpt>
      <trkpt lat="59.9822946175" lon="23.4304656187">
        <ele>3.8</ele>
        <time>2012-03-11T14:27:00Z</time>
      </trkpt>
      <trkpt lat="59.9824200945" lon="23.4304469271">
        <ele>3.6</ele>
        <time>2012-03-11T14:27:05Z</time>
      </trkpt>
      <trkpt lat="59.9825095294" lon="23.4303667961">
        <ele>3.6</ele>
        <time>2012-03-11T14:27:09Z</time>
      </trkpt>
      <trkpt lat="59.9826191646" lon="23.4301834002">
        <ele>3.6</ele>
        <time>2012-03-11T14:27:15Z</time>
      </trkpt>
      <trkpt lat="59.9827189931" lon="23.429973685">
        <ele>3.6</ele>
        <time>2012-03-11T14:27:21Z</time>
      </trkpt>
      <trkpt lat="59.9827542809" lon="23.4297388242">
        <ele>3.6</ele>
        <time>2012-03-11T14:27:26Z</time>
      </trkpt>
      <trkpt lat="59.9827916641" lon="23.4295219844">
        <ele>3.6</ele>
        <time>2012-03-11T14:27:31Z</time>
      </trkpt>
      <trkpt lat="59.982843129" lon="23.4291880495">
        <ele>3.6</ele>
        <time>2012-03-11T14:27:38Z</time>
      </trkpt>
      <trkpt lat="59.9828836136" lon="23.4289375984">
        <ele>3.8</ele>
        <time>2012-03-11T14:27:43Z</time>
      </trkpt>
      <trkpt lat="59.9829334021" lon="23.4286465788">
        <ele>4.6</ele>
        <time>2012-03-11T14:27:49Z</time>
      </trkpt>
      <trkpt lat="59.9829872977" lon="23.4283399689">
        <ele>5</ele>
        <time>2012-03-11T14:27:55Z</time>
      </trkpt>
      <trkpt lat="59.9830264412" lon="23.4280792918">
        <ele>5.2</ele>
        <time>2012-03-11T14:28:00Z</time>
      </trkpt>
      <trkpt lat="59.9830564484" lon="23.4278964826">
        <ele>5.4</ele>
        <time>2012-03-11T14:28:04Z</time>
      </trkpt>
      <trkpt lat="59.983095508" lon="23.4276514796">
        <ele>5.4</ele>
        <time>2012-03-11T14:28:09Z</time>
      </trkpt>
      <trkpt lat="59.9831338971" lon="23.4273972566">
        <ele>5.6</ele>
        <time>2012-03-11T14:28:14Z</time>
      </trkpt>
      <trkpt lat="59.9831432849" lon="23.4273444506">
        <ele>5.6</ele>
        <time>2012-03-11T14:28:15Z</time>
      </trkpt>
      <trkpt lat="59.9831735435" lon="23.427142363">
        <ele>5.6</ele>
        <time>2012-03-11T14:28:19Z</time>
      </trkpt>
      <trkpt lat="59.9832312948" lon="23.4268710409">
        <ele>5.6</ele>
        <time>2012-03-11T14:28:25Z</time>
      </trkpt>
      <trkpt lat="59.9832872859" lon="23.4265927618">
        <ele>5.6</ele>
        <time>2012-03-11T14:28:31Z</time>
      </trkpt>
      <trkpt lat="59.9833373258" lon="23.4263099565">
        <ele>5.8</ele>
        <time>2012-03-11T14:28:36Z</time>
      </trkpt>
      <trkpt lat="59.9833459592" lon="23.4260266483">
        <ele>6.6</ele>
        <time>2012-03-11T14:28:42Z</time>
      </trkpt>
      <trkpt lat="59.9832999426" lon="23.4258371336">
        <ele>7</ele>
        <time>2012-03-11T14:28:46Z</time>
      </trkpt>
      <trkpt lat="59.9832898843" lon="23.4255732713">
        <ele>7.2</ele>
        <time>2012-03-11T14:28:51Z</time>
      </trkpt>
      <trkpt lat="59.9833610466" lon="23.4253913841">
        <ele>7.4</ele>
        <time>2012-03-11T14:28:55Z</time>
      </trkpt>
      <trkpt lat="59.9835010243" lon="23.4253402545">
        <ele>7.4</ele>
        <time>2012-03-11T14:29:00Z</time>
      </trkpt>
      <trkpt lat="59.9835510643" lon="23.4253400031">
        <ele>7.4</ele>
        <time>2012-03-11T14:29:02Z</time>
      </trkpt>
      <trkpt lat="59.9835972486" lon="23.4253607064">
        <ele>6.8</ele>
        <time>2012-03-11T14:29:06Z</time>
      </trkpt>
      <trkpt lat="59.9835988411" lon="23.425369675">
        <ele>6.6</ele>
        <time>2012-03-11T14:29:08Z</time>
      </trkpt>
      <trkpt lat="59.983669752" lon="23.4253596167">
        <ele>6.2</ele>
        <time>2012-03-11T14:29:11Z</time>
      </trkpt>
      <trkpt lat="59.9838623681" lon="23.4253628018">
        <ele>6</ele>
        <time>2012-03-11T14:29:17Z</time>
      </trkpt>
      <trkpt lat="59.9840495359" lon="23.4253619636">
        <ele>5.8</ele>
        <time>2012-03-11T14:29:24Z</time>
      </trkpt>
      <trkpt lat="59.9844138133" lon="23.4250493188">
        <ele>5.6</ele>
        <time>2012-03-11T14:29:39Z</time>
      </trkpt>
      <trkpt lat="59.9846789328" lon="23.4250258495">
        <ele>5.6</ele>
        <time>2012-03-11T14:29:49Z</time>
      </trkpt>
      <trkpt lat="59.984718663" lon="23.4250238378">
        <ele>5.6</ele>
        <time>2012-03-11T14:29:51Z</time>
      </trkpt>
      <trkpt lat="59.9849078424" lon="23.4250221614">
        <ele>5.6</ele>
        <time>2012-03-11T14:29:58Z</time>
      </trkpt>
      <trkpt lat="59.9850773245" lon="23.4250247598">
        <ele>5.6</ele>
        <time>2012-03-11T14:30:05Z</time>
      </trkpt>
      <trkpt lat="59.9852350718" lon="23.4250241731">
        <ele>5.6</ele>
        <time>2012-03-11T14:30:11Z</time>
      </trkpt>
      <trkpt lat="59.9854014525" lon="23.4250290346">
        <ele>6.6</ele>
        <time>2012-03-11T14:30:18Z</time>
      </trkpt>
      <trkpt lat="59.9854992693" lon="23.4250258495">
        <ele>7</ele>
        <time>2012-03-11T14:30:22Z</time>
      </trkpt>
      <trkpt lat="59.9856842578" lon="23.4250592094">
        <ele>7.2</ele>
        <time>2012-03-11T14:30:29Z</time>
      </trkpt>
      <trkpt lat="59.9858203799" lon="23.4250504922">
        <ele>7.4</ele>
        <time>2012-03-11T14:30:35Z</time>
      </trkpt>
      <trkpt lat="59.9860053684" lon="23.4250494864">
        <ele>7.6</ele>
        <time>2012-03-11T14:30:43Z</time>
      </trkpt>
      <trkpt lat="59.9861321028" lon="23.4250335608">
        <ele>7.6</ele>
        <time>2012-03-11T14:30:47Z</time>
      </trkpt>
      <trkpt lat="59.9862744274" lon="23.4250199821">
        <ele>7.6</ele>
        <time>2012-03-11T14:30:53Z</time>
      </trkpt>
      <trkpt lat="59.9863934504" lon="23.4250262685">
        <ele>7.6</ele>
        <time>2012-03-11T14:30:58Z</time>
      </trkpt>
      <trkpt lat="59.9864684684" lon="23.4248690241">
        <ele>7.6</ele>
        <time>2012-03-11T14:31:03Z</time>
      </trkpt>
      <trkpt lat="59.9864724917" lon="23.4248313894">
        <ele>7.6</ele>
        <time>2012-03-11T14:31:04Z</time>
      </trkpt>
      <trkpt lat="59.9865021636" lon="23.4244737337">
        <ele>7.6</ele>
        <time>2012-03-11T14:31:12Z</time>
      </trkpt>
      <trkpt lat="59.9865299077" lon="23.4241183411">
        <ele>7.6</ele>
        <time>2012-03-11T14:31:18Z</time>
      </trkpt>
      <trkpt lat="59.9865511978" lon="23.4237170158">
        <ele>7.8</ele>
        <time>2012-03-11T14:31:26Z</time>
      </trkpt>
      <trkpt lat="59.9865778522" lon="23.4233682449">
        <ele>8.8</ele>
        <time>2012-03-11T14:31:33Z</time>
      </trkpt>
      <trkpt lat="59.9865977173" lon="23.4230666641">
        <ele>9.2</ele>
        <time>2012-03-11T14:31:40Z</time>
      </trkpt>
      <trkpt lat="59.9866149002" lon="23.4227892233">
        <ele>10.2</ele>
        <time>2012-03-11T14:31:46Z</time>
      </trkpt>
      <trkpt lat="59.9866196779" lon="23.4225609841">
        <ele>11.6</ele>
        <time>2012-03-11T14:31:52Z</time>
      </trkpt>
      <trkpt lat="59.9866334242" lon="23.422353113">
        <ele>12.6</ele>
        <time>2012-03-11T14:31:57Z</time>
      </trkpt>
      <trkpt lat="59.9866619227" lon="23.4220724032">
        <ele>14</ele>
        <time>2012-03-11T14:32:03Z</time>
      </trkpt>
      <trkpt lat="59.9866814525" lon="23.4217958843">
        <ele>15</ele>
        <time>2012-03-11T14:32:08Z</time>
      </trkpt>
      <trkpt lat="59.9866941092" lon="23.4215156774">
        <ele>15.4</ele>
        <time>2012-03-11T14:32:13Z</time>
      </trkpt>
      <trkpt lat="59.986718249" lon="23.4211835865">
        <ele>15.8</ele>
        <time>2012-03-11T14:32:20Z</time>
      </trkpt>
      <trkpt lat="59.9867262118" lon="23.420976805">
        <ele>16.6</ele>
        <time>2012-03-11T14:32:23Z</time>
      </trkpt>
      <trkpt lat="59.9867356834" lon="23.4207246775">
        <ele>17.2</ele>
        <time>2012-03-11T14:32:28Z</time>
      </trkpt>
      <trkpt lat="59.98674834" lon="23.4204112782">
        <ele>17.6</ele>
        <time>2012-03-11T14:32:33Z</time>
      </trkpt>
      <trkpt lat="59.9867880703" lon="23.4200366911">
        <ele>17.8</ele>
        <time>2012-03-11T14:32:39Z</time>
      </trkpt>
      <trkpt lat="59.9868078515" lon="23.4197262255">
        <ele>17.4</ele>
        <time>2012-03-11T14:32:45Z</time>
      </trkpt>
      <trkpt lat="59.9868188318" lon="23.4194735951">
        <ele>16.8</ele>
        <time>2012-03-11T14:32:50Z</time>
      </trkpt>
      <trkpt lat="59.9868500125" lon="23.4192294303">
        <ele>16.2</ele>
        <time>2012-03-11T14:32:55Z</time>
      </trkpt>
      <trkpt lat="59.9868697938" lon="23.4189441943">
        <ele>15.2</ele>
        <time>2012-03-11T14:33:01Z</time>
      </trkpt>
      <trkpt lat="59.9868798521" lon="23.4188588665">
        <ele>15</ele>
        <time>2012-03-11T14:33:03Z</time>
      </trkpt>
      <trkpt lat="59.9870006352" lon="23.4187153684">
        <ele>14.4</ele>
        <time>2012-03-11T14:33:08Z</time>
      </trkpt>
      <trkpt lat="59.9871493301" lon="23.4187194755">
        <ele>14.2</ele>
        <time>2012-03-11T14:33:15Z</time>
      </trkpt>
      <trkpt lat="59.9872929121" lon="23.418761385">
        <ele>14</ele>
        <time>2012-03-11T14:33:21Z</time>
      </trkpt>
      <trkpt lat="59.9874806666" lon="23.4188010314">
        <ele>14</ele>
        <time>2012-03-11T14:33:28Z</time>
      </trkpt>
      <trkpt lat="59.9876568542" lon="23.4188341399">
        <ele>13.6</ele>
        <time>2012-03-11T14:33:34Z</time>
      </trkpt>
      <trkpt lat="59.9878426809" lon="23.4188773905">
        <ele>12.6</ele>
        <time>2012-03-11T14:33:42Z</time>
      </trkpt>
      <trkpt lat="59.9879674036" lon="23.4188949925">
        <ele>12.4</ele>
        <time>2012-03-11T14:33:46Z</time>
      </trkpt>
      <trkpt lat="59.9881205409" lon="23.418925335">
        <ele>12.2</ele>
        <time>2012-03-11T14:33:52Z</time>
      </trkpt>
      <trkpt lat="59.9883036854" lon="23.4189542525">
        <ele>12</ele>
        <time>2012-03-11T14:34:00Z</time>
      </trkpt>
      <trkpt lat="59.9884548111" lon="23.4189752073">
        <ele>12</ele>
        <time>2012-03-11T14:34:06Z</time>
      </trkpt>
      <trkpt lat="59.9885088743" lon="23.4189724413">
        <ele>12</ele>
        <time>2012-03-11T14:34:08Z</time>
      </trkpt>
      <trkpt lat="59.9885765163" lon="23.4189294421">
        <ele>12</ele>
        <time>2012-03-11T14:34:10Z</time>
      </trkpt>
      <trkpt lat="59.9885921904" lon="23.418897088">
        <ele>12</ele>
        <time>2012-03-11T14:34:12Z</time>
      </trkpt>
      <trkpt lat="59.9886128099" lon="23.4187138597">
        <ele>12</ele>
        <time>2012-03-11T14:34:16Z</time>
      </trkpt>
      <trkpt lat="59.9886208565" lon="23.4184592175">
        <ele>12</ele>
        <time>2012-03-11T14:34:22Z</time>
      </trkpt>
      <trkpt lat="59.9886419789" lon="23.4181428846">
        <ele>11.8</ele>
        <time>2012-03-11T14:34:28Z</time>
      </trkpt>
      <trkpt lat="59.9886625145" lon="23.4176015815">
        <ele>11.8</ele>
        <time>2012-03-11T14:34:38Z</time>
      </trkpt>
      <trkpt lat="59.9886739978" lon="23.4172275811">
        <ele>11.8</ele>
        <time>2012-03-11T14:34:46Z</time>
      </trkpt>
      <trkpt lat="59.988684056" lon="23.4169473742">
        <ele>11.8</ele>
        <time>2012-03-11T14:34:51Z</time>
      </trkpt>
      <trkpt lat="59.9887020771" lon="23.4166260122">
        <ele>11.8</ele>
        <time>2012-03-11T14:34:57Z</time>
      </trkpt>
      <trkpt lat="59.9887108781" lon="23.4163080029">
        <ele>11.8</ele>
        <time>2012-03-11T14:35:03Z</time>
      </trkpt>
      <trkpt lat="59.988720182" lon="23.4160664365">
        <ele>11.6</ele>
        <time>2012-03-11T14:35:08Z</time>
      </trkpt>
      <trkpt lat="59.9887209364" lon="23.4158138061">
        <ele>11</ele>
        <time>2012-03-11T14:35:13Z</time>
      </trkpt>
      <trkpt lat="59.9886946172" lon="23.4155180088">
        <ele>10.4</ele>
        <time>2012-03-11T14:35:18Z</time>
      </trkpt>
      <trkpt lat="59.9886613411" lon="23.4152828965">
        <ele>10.2</ele>
        <time>2012-03-11T14:35:23Z</time>
      </trkpt>
      <trkpt lat="59.9886959583" lon="23.4150276677">
        <ele>10</ele>
        <time>2012-03-11T14:35:28Z</time>
      </trkpt>
      <trkpt lat="59.988751195" lon="23.414823736">
        <ele>10</ele>
        <time>2012-03-11T14:35:33Z</time>
      </trkpt>
      <trkpt lat="59.988841971" lon="23.414672778">
        <ele>10</ele>
        <time>2012-03-11T14:35:38Z</time>
      </trkpt>
      <trkpt lat="59.9889975391" lon="23.4144764739">
        <ele>9.8</ele>
        <time>2012-03-11T14:35:45Z</time>
      </trkpt>
      <trkpt lat="59.9891422107" lon="23.4143069919">
        <ele>9.8</ele>
        <time>2012-03-11T14:35:51Z</time>
      </trkpt>
      <trkpt lat="59.989284703" lon="23.4141420361">
        <ele>9.4</ele>
        <time>2012-03-11T14:35:57Z</time>
      </trkpt>
      <trkpt lat="59.9894043127" lon="23.4140037348">
        <ele>8.8</ele>
        <time>2012-03-11T14:36:02Z</time>
      </trkpt>
      <trkpt lat="59.9895196476" lon="23.4138702111">
        <ele>8.4</ele>
        <time>2012-03-11T14:36:07Z</time>
      </trkpt>
      <trkpt lat="59.9896607988" lon="23.413706345">
        <ele>8.2</ele>
        <time>2012-03-11T14:36:13Z</time>
      </trkpt>
      <trkpt lat="59.9898307" lon="23.413518758">
        <ele>7.4</ele>
        <time>2012-03-11T14:36:20Z</time>
      </trkpt>
      <trkpt lat="59.9899513993" lon="23.4133908502">
        <ele>6.8</ele>
        <time>2012-03-11T14:36:25Z</time>
      </trkpt>
      <trkpt lat="59.9901153493" lon="23.4132104718">
        <ele>6.2</ele>
        <time>2012-03-11T14:36:32Z</time>
      </trkpt>
      <trkpt lat="59.990274773" lon="23.4130565801">
        <ele>6</ele>
        <time>2012-03-11T14:36:38Z</time>
      </trkpt>
      <trkpt lat="59.9904155889" lon="23.4129045324">
        <ele>5.8</ele>
        <time>2012-03-11T14:36:45Z</time>
      </trkpt>
      <trkpt lat="59.9905493641" lon="23.4127594417">
        <ele>5.8</ele>
        <time>2012-03-11T14:36:51Z</time>
      </trkpt>
      <trkpt lat="59.9906881683" lon="23.4126154407">
        <ele>5.8</ele>
        <time>2012-03-11T14:36:57Z</time>
      </trkpt>
      <trkpt lat="59.9908351868" lon="23.412475882">
        <ele>5</ele>
        <time>2012-03-11T14:37:03Z</time>
      </trkpt>
      <trkpt lat="59.990985642" lon="23.4123407658">
        <ele>4.4</ele>
        <time>2012-03-11T14:37:08Z</time>
      </trkpt>
      <trkpt lat="59.9911334987" lon="23.412194334">
        <ele>4</ele>
        <time>2012-03-11T14:37:15Z</time>
      </trkpt>
      <trkpt lat="59.9913033998" lon="23.4120356646">
        <ele>4</ele>
        <time>2012-03-11T14:37:22Z</time>
      </trkpt>
      <trkpt lat="59.991468607" lon="23.4118290508">
        <ele>3.8</ele>
        <time>2012-03-11T14:37:28Z</time>
      </trkpt>
      <trkpt lat="59.9916324732" lon="23.4116247001">
        <ele>3.8</ele>
        <time>2012-03-11T14:37:36Z</time>
      </trkpt>
      <trkpt lat="59.9917957526" lon="23.4114589061">
        <ele>3.8</ele>
        <time>2012-03-11T14:37:43Z</time>
      </trkpt>
      <trkpt lat="59.9919345569" lon="23.4113173358">
        <ele>3.8</ele>
        <time>2012-03-11T14:37:48Z</time>
      </trkpt>
      <trkpt lat="59.9920812401" lon="23.4111793697">
        <ele>3.8</ele>
        <time>2012-03-11T14:37:55Z</time>
      </trkpt>
      <trkpt lat="59.9922277557" lon="23.4110530545">
        <ele>4.6</ele>
        <time>2012-03-11T14:38:01Z</time>
      </trkpt>
      <trkpt lat="59.9923914542" lon="23.4108843269">
        <ele>5.2</ele>
        <time>2012-03-11T14:38:08Z</time>
      </trkpt>
      <trkpt lat="59.992517518" lon="23.4107661421">
        <ele>5.4</ele>
        <time>2012-03-11T14:38:13Z</time>
      </trkpt>
      <trkpt lat="59.9926398937" lon="23.4106218058">
        <ele>5.6</ele>
        <time>2012-03-11T14:38:18Z</time>
      </trkpt>
      <trkpt lat="59.992667554" lon="23.4104178741">
        <ele>5.6</ele>
        <time>2012-03-11T14:38:22Z</time>
      </trkpt>
      <trkpt lat="59.9926116467" lon="23.410186869">
        <ele>5.6</ele>
        <time>2012-03-11T14:38:27Z</time>
      </trkpt>
      <trkpt lat="59.9925024306" lon="23.4099261081">
        <ele>5.8</ele>
        <time>2012-03-11T14:38:33Z</time>
      </trkpt>
      <trkpt lat="59.9924024345" lon="23.4097912433">
        <ele>5.8</ele>
        <time>2012-03-11T14:38:37Z</time>
      </trkpt>
      <trkpt lat="59.9922993371" lon="23.4097004673">
        <ele>5.8</ele>
        <time>2012-03-11T14:38:40Z</time>
      </trkpt>
      <trkpt lat="59.9921405001" lon="23.4095582265">
        <ele>5.8</ele>
        <time>2012-03-11T14:38:46Z</time>
      </trkpt>
      <trkpt lat="59.9921237363" lon="23.4095222681">
        <ele>5.8</ele>
        <time>2012-03-11T14:38:48Z</time>
      </trkpt>
      <trkpt lat="59.9921262509" lon="23.4091594157">
        <ele>5.8</ele>
        <time>2012-03-11T14:38:55Z</time>
      </trkpt>
      <trkpt lat="59.992152151" lon="23.4088574996">
        <ele>5.8</ele>
        <time>2012-03-11T14:39:00Z</time>
      </trkpt>
      <trkpt lat="59.9921741954" lon="23.4085534043">
        <ele>5.8</ele>
        <time>2012-03-11T14:39:05Z</time>
      </trkpt>
      <trkpt lat="59.9921977485" lon="23.4081850198">
        <ele>5.8</ele>
        <time>2012-03-11T14:39:12Z</time>
      </trkpt>
      <trkpt lat="59.9922018556" lon="23.4081441161">
        <ele>5.8</ele>
        <time>2012-03-11T14:39:13Z</time>
      </trkpt>
      <trkpt lat="59.9921944796" lon="23.408118216">
        <ele>5.8</ele>
        <time>2012-03-11T14:39:17Z</time>
      </trkpt>
    </trkseg>
  </trk>
</gpx>